Darstellungsparameter: Aktuell verwendete Einstellungen:
Skalierung der Graphiken ... ?
xyx+y,   Skalierungsfaktor:      Skalierung: Modus: x, Faktor: 1
Darstellungszeitraum ... ?
Vom - - bis: - -   Zeitraum: 20.04.2006 - 19.05.2006
Min/Max/Avg-Anzeige ... ?
Zeige MMA aktuell
Zeige MMA Monat
Zeige MMA alles
Zeige --A aktuell
Zeige --A Monat
Zeige --A alles
Keine MMA-Anzeige
MMA:
Average (ber die Originaldaten)
MMA-Basis: 20.04.2006 - 19.05.2006
Quicknavigation für Darstellung... ?
Tage:      1T, 2T, 3T, 5T -1T -2T -3T -5T +1T +2T +3T +5T
Wochen: 1W, 2W, 3W -1W -2W -3W +1W +2W +3W
Monate: 1M, 3M, 6M -1M -3M -6M +1M +3M +6M
Jahre:    1J, 3J, 5J, 10J -1J -3J -5J -10J +1J +3J +5J +10J
Nutze für die Darstellung ... ?
Originaldaten oder Mittelwerte auf ...
Stundenbasis Tagesbasis Wochenbasis
Monatsbasis Jahresbasis      Datenbasis: Original-Daten
Darstellen als:
Statistik (Auto) Statistik J:M      Darstellung:
Zur Graphik,    zurück zur Übersicht aller Sensoren.
 
Tabellarische Datenbersicht: ?
 
Sensor: Nr:Datum:Temp:Abs-Feuchte:Windchill:Wind:
Aussen-T/F 1 20-04-2006 00:08:02 9.3 C 5.66 g/m*3 9.3 C 0 km/h
2 20-04-2006 00:18:02 9 C 5.64 g/m*3 9 C 0 km/h
3 20-04-2006 00:28:02 8.9 C 5.69 g/m*3 8.9 C 0 km/h
4 20-04-2006 00:38:02 8.6 C 5.76 g/m*3 8.6 C 0 km/h
5 20-04-2006 00:48:02 8.5 C 5.72 g/m*3 8.5 C 0 km/h
6 20-04-2006 00:58:02 8.3 C 5.65 g/m*3 8.3 C 0 km/h
7 20-04-2006 01:08:02 8.2 C 5.69 g/m*3 8.2 C 0 km/h
8 20-04-2006 01:18:02 8 C 5.62 g/m*3 8 C 0 km/h
9 20-04-2006 01:28:03 8 C 5.7 g/m*3 8 C 0 km/h
10 20-04-2006 01:38:02 7.8 C 5.71 g/m*3 7.8 C 0 km/h
11 20-04-2006 01:48:02 7.7 C 5.68 g/m*3 7.7 C 0 km/h
12 20-04-2006 01:58:03 7.6 C 5.72 g/m*3 7.6 C 0 km/h
13 20-04-2006 02:08:02 7.5 C 5.68 g/m*3 7.5 C 0 km/h
14 20-04-2006 02:18:02 7.4 C 5.65 g/m*3 7.4 C 0 km/h
15 20-04-2006 02:28:02 7.3 C 5.61 g/m*3 7.3 C 0 km/h
16 20-04-2006 02:38:01 7.1 C 5.62 g/m*3 7.1 C 0 km/h
17 20-04-2006 02:49:03 6.7 C 5.62 g/m*3 6.7 C 0 km/h
18 20-04-2006 02:59:03 6.5 C 5.62 g/m*3 6.5 C 0 km/h
19 20-04-2006 03:09:03 6.4 C 5.66 g/m*3 6.4 C 0 km/h
20 20-04-2006 03:19:04 6.3 C 5.63 g/m*3 6.3 C 0 km/h
21 20-04-2006 03:29:04 6.2 C 5.66 g/m*3 6.2 C 0 km/h
22 20-04-2006 03:39:02 6.1 C 5.55 g/m*3 6.1 C 0 km/h
23 20-04-2006 03:49:02 6 C 5.66 g/m*3 6 C 0 km/h
24 20-04-2006 03:59:02 5.9 C 5.7 g/m*3 5.9 C 0 km/h
25 20-04-2006 04:09:03 5.8 C 5.66 g/m*3 5.8 C 0 km/h
Sensor: Nr:Datum:Temp:Abs-Feuchte:Windchill:Wind:
Aussen-T/F 26 20-04-2006 04:19:03 5.8 C 5.66 g/m*3 5.8 C 0 km/h
27 20-04-2006 04:29:03 5.7 C 5.62 g/m*3 5.7 C 0 km/h
28 20-04-2006 04:39:03 5.4 C 5.51 g/m*3 5.4 C 0 km/h
29 20-04-2006 04:49:03 5.4 C 5.58 g/m*3 5.4 C 0 km/h
30 20-04-2006 04:59:03 5.2 C 5.51 g/m*3 5.2 C 0 km/h
31 20-04-2006 05:09:02 5.1 C 5.54 g/m*3 5.1 C 0 km/h
32 20-04-2006 05:19:02 5 C 5.57 g/m*3 5 C 0 km/h
33 20-04-2006 05:29:02 4.9 C 5.6 g/m*3 4.9 C 0 km/h
34 20-04-2006 05:39:02 4.8 C 5.57 g/m*3 4.8 C 0 km/h
35 20-04-2006 05:49:02 4.7 C 5.53 g/m*3 4.7 C 0 km/h
36 20-04-2006 05:59:02 4.4 C 5.48 g/m*3 4.4 C 0 km/h
37 20-04-2006 06:09:03 4.4 C 5.48 g/m*3 4.4 C 0 km/h
38 20-04-2006 06:19:02 4.3 C 5.45 g/m*3 4.3 C 0 km/h
39 20-04-2006 06:29:02 4.2 C 5.41 g/m*3 4.2 C 0 km/h
40 20-04-2006 06:39:02 4.3 C 5.51 g/m*3 4.3 C 0 km/h
41 20-04-2006 06:49:02 4.3 C 5.51 g/m*3 4.3 C 0 km/h
42 20-04-2006 06:59:02 4.4 C 5.55 g/m*3 4.4 C 0 km/h
43 20-04-2006 07:09:02 4.7 C 5.66 g/m*3 4.7 C 0 km/h
44 20-04-2006 07:19:02 4.8 C 5.63 g/m*3 4.8 C 0 km/h
45 20-04-2006 07:29:02 4.7 C 5.53 g/m*3 4.7 C 0 km/h
46 20-04-2006 07:39:01 5.1 C 5.61 g/m*3 5.1 C 0 km/h
47 20-04-2006 07:49:02 5.3 C 5.68 g/m*3 5.3 C 0 km/h
48 20-04-2006 07:59:02 5.7 C 5.69 g/m*3 5.7 C 0 km/h
49 20-04-2006 08:09:02 5.9 C 5.7 g/m*3 5.9 C 0 km/h
50 20-04-2006 08:19:02 5.7 C 5.62 g/m*3 5.7 C 0 km/h
Sensor: Nr:Datum:Temp:Abs-Feuchte:Windchill:Wind:
Aussen-T/F 51 20-04-2006 08:29:02 5.9 C 5.7 g/m*3 5.9 C 0 km/h
52 20-04-2006 08:39:02 6.2 C 5.74 g/m*3 6.2 C 0 km/h
53 20-04-2006 08:49:02 6.4 C 5.74 g/m*3 6.4 C 0 km/h
54 20-04-2006 08:59:02 6.7 C 5.77 g/m*3 6.7 C 0 km/h
55 20-04-2006 09:09:02 6.8 C 5.81 g/m*3 6.8 C 0 km/h
56 20-04-2006 09:19:02 7.1 C 5.77 g/m*3 7.1 C 0 km/h
57 20-04-2006 09:29:02 7.5 C 5.76 g/m*3 7.5 C 0 km/h
58 20-04-2006 09:39:02 7.9 C 5.91 g/m*3 7.9 C 0 km/h
59 20-04-2006 09:49:02 8.3 C 5.9 g/m*3 8.3 C 0 km/h
60 20-04-2006 09:59:02 8.7 C 5.88 g/m*3 8.7 C 0 km/h
61 20-04-2006 10:09:02 9.2 C 5.98 g/m*3 9.2 C 0 km/h
62 20-04-2006 10:19:02 9.9 C 5.88 g/m*3 9.9 C 0 km/h
63 20-04-2006 10:29:02 10.4 C 5.98 g/m*3 10.4 C 0 km/h
64 20-04-2006 10:39:03 11 C 5.91 g/m*3 11 C 0 km/h
65 20-04-2006 10:49:02 11.5 C 6.09 g/m*3 11.5 C 0 km/h
66 20-04-2006 10:59:02 12.1 C 6.11 g/m*3 12.1 C 0 km/h
67 20-04-2006 11:09:02 12.7 C 6.23 g/m*3 12.7 C 0 km/h
68 20-04-2006 11:19:02 13.2 C 6.09 g/m*3 13.2 C 0 km/h
69 20-04-2006 11:29:02 13.9 C 6.11 g/m*3 13.9 C 0 km/h
70 20-04-2006 11:39:03 14.1 C 5.83 g/m*3 14.1 C 0 km/h
71 20-04-2006 11:49:02 14.8 C 5.95 g/m*3 14.8 C 0 km/h
72 20-04-2006 11:59:02 15.4 C 5.78 g/m*3 15.4 C 0 km/h
73 20-04-2006 12:09:02 15.7 C 5.35 g/m*3 15.7 C 0 km/h
74 20-04-2006 12:19:02 15.8 C 4.98 g/m*3 15.8 C 0 km/h
75 20-04-2006 12:29:02 15.9 C 4.6 g/m*3 15.9 C 0 km/h
Sensor: Nr:Datum:Temp:Abs-Feuchte:Windchill:Wind:
Aussen-T/F 76 20-04-2006 12:39:02 16.1 C 4.25 g/m*3 16.1 C 0 km/h
77 20-04-2006 12:49:02 16.2 C 4.14 g/m*3 16.2 C 0 km/h
78 20-04-2006 12:59:02 16.5 C 4.07 g/m*3 16.5 C 0 km/h
79 20-04-2006 13:09:02 16.4 C 4.19 g/m*3 16.4 C 0 km/h
80 20-04-2006 13:19:02 16.7 C 5.12 g/m*3 16.7 C 0 km/h
81 20-04-2006 13:29:02 17.2 C 4.98 g/m*3 17.2 C 0 km/h
82 20-04-2006 13:39:01 17.6 C 4.95 g/m*3 17.6 C 0 km/h
83 20-04-2006 13:49:02 18 C 5.07 g/m*3 18 C 0 km/h
84 20-04-2006 13:59:02 18 C 5.07 g/m*3 18 C 0 km/h
85 20-04-2006 14:09:02 18.7 C 5.12 g/m*3 18.7 C 0 km/h
86 20-04-2006 14:19:01 19.3 C 4.98 g/m*3 19.3 C 0 km/h
87 20-04-2006 14:29:01 19.3 C 4.98 g/m*3 19.3 C 0 km/h
88 20-04-2006 14:39:02 19.7 C 4.92 g/m*3 19.7 C 0 km/h
89 20-04-2006 14:49:02 19.8 C 4.95 g/m*3 19.8 C 0 km/h
90 20-04-2006 14:59:02 20.7 C 5.04 g/m*3 20.7 C 0 km/h
91 20-04-2006 15:09:02 20.4 C 4.95 g/m*3 20.4 C 0 km/h
92 20-04-2006 15:19:01 20.4 C 4.78 g/m*3 20.4 C 0 km/h
93 20-04-2006 15:29:01 20.2 C 4.72 g/m*3 20.2 C 0 km/h
94 20-04-2006 15:39:02 20.1 C 4.87 g/m*3 20.1 C 0 km/h
95 20-04-2006 15:49:02 19.7 C 4.25 g/m*3 19.7 C 0 km/h
96 20-04-2006 15:59:02 19.9 C 4.3 g/m*3 19.9 C 0 km/h
97 20-04-2006 16:09:02 19.3 C 4.15 g/m*3 19.3 C 0 km/h
98 20-04-2006 16:19:01 19 C 4.24 g/m*3 19 C 0 km/h
99 20-04-2006 16:29:01 19.1 C 4.26 g/m*3 19.1 C 0 km/h
100 20-04-2006 16:39:02 19.5 C 4.2 g/m*3 19.5 C 0 km/h
Sensor: Nr:Datum:Temp:Abs-Feuchte:Windchill:Wind:
Aussen-T/F 101 20-04-2006 16:49:02 19.4 C 4.17 g/m*3 19.4 C 0 km/h
102 20-04-2006 16:59:02 20.8 C 4.53 g/m*3 20.8 C 0 km/h
103 20-04-2006 17:09:02 20.9 C 4.19 g/m*3 20.9 C 0 km/h
104 20-04-2006 17:19:02 20.9 C 4.01 g/m*3 20.9 C 0 km/h
105 20-04-2006 17:29:03 21.1 C 3.87 g/m*3 21.1 C 0 km/h
106 20-04-2006 17:39:02 20.5 C 3.91 g/m*3 20.5 C 0 km/h
107 20-04-2006 17:49:02 21.1 C 3.87 g/m*3 21.1 C 0 km/h
108 20-04-2006 17:59:02 20.6 C 3.94 g/m*3 20.6 C 0 km/h
109 20-04-2006 18:09:01 20.3 C 4.05 g/m*3 20.3 C 0 km/h
110 20-04-2006 18:19:01 20.2 C 4.02 g/m*3 20.2 C 0 km/h
111 20-04-2006 18:29:01 19.9 C 4.12 g/m*3 19.9 C 0 km/h
112 20-04-2006 18:39:01 19.9 C 4.3 g/m*3 19.9 C 0 km/h
113 20-04-2006 18:49:02 19.6 C 4.22 g/m*3 19.6 C 0 km/h
114 20-04-2006 18:59:02 18.9 C 4.37 g/m*3 18.9 C 0 km/h
115 20-04-2006 19:09:01 18.9 C 4.37 g/m*3 18.9 C 0 km/h
116 20-04-2006 19:19:01 18.7 C 4.32 g/m*3 18.7 C 0 km/h
117 20-04-2006 19:29:01 18.7 C 4.8 g/m*3 18.7 C 0 km/h
118 20-04-2006 19:39:02 18.1 C 5.41 g/m*3 18.1 C 0 km/h
119 20-04-2006 19:49:02 17.7 C 5.43 g/m*3 17.7 C 0 km/h
120 20-04-2006 19:59:02 17.2 C 5.13 g/m*3 17.2 C 0 km/h
121 20-04-2006 20:09:02 16.5 C 5.06 g/m*3 16.5 C 0 km/h
122 20-04-2006 20:19:01 15.9 C 5.01 g/m*3 15.9 C 0 km/h
123 20-04-2006 20:29:01 15.2 C 4.93 g/m*3 15.2 C 0 km/h
124 20-04-2006 20:39:01 14.9 C 5.35 g/m*3 14.9 C 0 km/h
125 20-04-2006 20:49:02 14.4 C 5.19 g/m*3 14.4 C 0 km/h
Sensor: Nr:Datum:Temp:Abs-Feuchte:Windchill:Wind:
Aussen-T/F 126 20-04-2006 20:59:03 14.2 C 5.37 g/m*3 14.2 C 0 km/h
127 20-04-2006 21:09:02 14 C 5.43 g/m*3 14 C 0 km/h
128 20-04-2006 21:19:01 13.7 C 5.45 g/m*3 13.7 C 0 km/h
129 20-04-2006 21:29:01 13.5 C 5.5 g/m*3 13.5 C 0 km/h
130 20-04-2006 21:39:02 13.3 C 5.31 g/m*3 13.3 C 0 km/h
131 20-04-2006 21:49:02 13.3 C 5.43 g/m*3 13.3 C 0 km/h
132 20-04-2006 21:59:02 13.1 C 5.48 g/m*3 13.1 C 0 km/h
133 20-04-2006 22:09:02 13 C 5.33 g/m*3 13 C 0 km/h
134 20-04-2006 22:19:02 12.6 C 5.53 g/m*3 12.6 C 0 km/h
135 20-04-2006 22:29:02 12.4 C 5.57 g/m*3 12.4 C 0 km/h
136 20-04-2006 22:39:01 12.3 C 5.65 g/m*3 12.3 C 0 km/h
137 20-04-2006 22:49:02 12.1 C 5.47 g/m*3 12.1 C 0 km/h
138 20-04-2006 22:59:02 12 C 5.54 g/m*3 12 C 0 km/h
139 20-04-2006 23:09:02 11.8 C 5.58 g/m*3 11.8 C 0 km/h
140 20-04-2006 23:19:02 11.6 C 5.51 g/m*3 11.6 C 0 km/h
141 20-04-2006 23:29:02 11.4 C 5.65 g/m*3 11.4 C 0 km/h
142 20-04-2006 23:39:02 11.2 C 5.68 g/m*3 11.2 C 0 km/h
143 20-04-2006 23:49:02 11.1 C 5.74 g/m*3 11.1 C 0 km/h
144 20-04-2006 23:59:02 10.7 C 5.7 g/m*3 10.7 C 0 km/h
145 21-04-2006 00:09:01 10.5 C 5.72 g/m*3 10.5 C 0 km/h
146 21-04-2006 00:19:02 10.5 C 5.72 g/m*3 10.5 C 0 km/h
147 21-04-2006 00:29:02 10.3 C 5.75 g/m*3 10.3 C 0 km/h
148 21-04-2006 00:39:02 10.2 C 5.71 g/m*3 10.2 C 0 km/h
149 21-04-2006 00:49:02 10 C 5.73 g/m*3 10 C 0 km/h
150 21-04-2006 00:59:02 9.9 C 5.79 g/m*3 9.9 C 0 km/h
Sensor: Nr:Datum:Temp:Abs-Feuchte:Windchill:Wind:
Aussen-T/F 151 21-04-2006 01:09:02 9.7 C 5.81 g/m*3 9.7 C 0 km/h
152 21-04-2006 01:19:02 9.5 C 5.83 g/m*3 9.5 C 0 km/h
153 21-04-2006 01:29:02 9.5 C 6.1 g/m*3 9.5 C 0 km/h
154 21-04-2006 01:39:02 9.2 C 6.07 g/m*3 9.2 C 0 km/h
155 21-04-2006 01:49:02 9.1 C 5.94 g/m*3 9.1 C 0 km/h
156 21-04-2006 01:59:02 8.9 C 6.04 g/m*3 8.9 C 0 km/h
157 21-04-2006 02:09:02 8.7 C 5.97 g/m*3 8.7 C 0 km/h
158 21-04-2006 02:19:02 8.6 C 5.93 g/m*3 8.6 C 0 km/h
159 21-04-2006 02:29:02 8.4 C 5.94 g/m*3 8.4 C 0 km/h
160 21-04-2006 02:39:02 8.3 C 5.9 g/m*3 8.3 C 0 km/h
161 21-04-2006 02:50:04 8.2 C 5.86 g/m*3 8.2 C 0 km/h
162 21-04-2006 03:00:04 8.1 C 5.82 g/m*3 8.1 C 0 km/h
163 21-04-2006 03:10:03 8 C 5.87 g/m*3 8 C 0 km/h
164 21-04-2006 03:20:04 7.9 C 6 g/m*3 7.9 C 0 km/h
165 21-04-2006 03:30:04 7.8 C 5.96 g/m*3 7.8 C 0 km/h
166 21-04-2006 03:40:02 7.6 C 5.88 g/m*3 7.6 C 0 km/h
167 21-04-2006 03:50:02 7.4 C 5.88 g/m*3 7.4 C 0 km/h
168 21-04-2006 04:00:02 7.3 C 5.85 g/m*3 7.3 C 0 km/h
169 21-04-2006 04:10:02 7.2 C 5.81 g/m*3 7.2 C 0 km/h
170 21-04-2006 04:20:02 7.2 C 5.89 g/m*3 7.2 C 0 km/h
171 21-04-2006 04:30:02 7.1 C 5.85 g/m*3 7.1 C 0 km/h
172 21-04-2006 04:40:02 7 C 5.81 g/m*3 7 C 0 km/h
173 21-04-2006 04:50:03 6.9 C 5.93 g/m*3 6.9 C 0 km/h
174 21-04-2006 05:00:03 6.8 C 5.89 g/m*3 6.8 C 0 km/h
175 21-04-2006 05:10:02 6.6 C 5.81 g/m*3 6.6 C 0 km/h
Sensor: Nr:Datum:Temp:Abs-Feuchte:Windchill:Wind:
Aussen-T/F 176 21-04-2006 05:20:02 6.5 C 5.92 g/m*3 6.5 C 0 km/h
177 21-04-2006 05:30:03 6.4 C 5.89 g/m*3 6.4 C 0 km/h
178 21-04-2006 05:40:02 6.4 C 5.96 g/m*3 6.4 C 0 km/h
179 21-04-2006 05:50:02 6.2 C 5.88 g/m*3 6.2 C 0 km/h
180 21-04-2006 06:00:02 6.1 C 5.84 g/m*3 6.1 C 0 km/h
181 21-04-2006 06:10:02 6.1 C 5.92 g/m*3 6.1 C 0 km/h
182 21-04-2006 06:20:02 6 C 5.81 g/m*3 6 C 0 km/h
183 21-04-2006 06:30:02 5.9 C 5.91 g/m*3 5.9 C 0 km/h
184 21-04-2006 06:40:02 5.8 C 5.87 g/m*3 5.8 C 0 km/h
185 21-04-2006 06:50:03 5.9 C 5.98 g/m*3 5.9 C 0 km/h
186 21-04-2006 07:00:03 5.9 C 5.98 g/m*3 5.9 C 0 km/h
187 21-04-2006 07:10:02 5.9 C 5.98 g/m*3 5.9 C 0 km/h
188 21-04-2006 07:20:02 6 C 5.95 g/m*3 6 C 0 km/h
189 21-04-2006 07:30:02 6.1 C 5.99 g/m*3 6.1 C 0 km/h
190 21-04-2006 07:40:02 6.3 C 6.07 g/m*3 6.3 C 0 km/h
191 21-04-2006 07:50:02 6.5 C 6.07 g/m*3 6.5 C 0 km/h
192 21-04-2006 08:00:02 6.8 C 6.12 g/m*3 6.8 C 0 km/h
193 21-04-2006 08:10:02 6.8 C 6.04 g/m*3 6.8 C 0 km/h
194 21-04-2006 08:20:01 7.1 C 6.08 g/m*3 7.1 C 0 km/h
195 21-04-2006 08:30:01 7.3 C 6.08 g/m*3 7.3 C 0 km/h
196 21-04-2006 08:40:02 7.5 C 6.08 g/m*3 7.5 C 0 km/h
197 21-04-2006 08:50:02 7.8 C 6.04 g/m*3 7.8 C 0 km/h
198 21-04-2006 09:00:02 8.1 C 6.07 g/m*3 8.1 C 0 km/h
199 21-04-2006 09:10:01 8.5 C 6.15 g/m*3 8.5 C 0 km/h
200 21-04-2006 09:20:01 8.7 C 6.23 g/m*3 8.7 C 0 km/h
Sensor: Nr:Datum:Temp:Abs-Feuchte:Windchill:Wind:
Aussen-T/F 201 21-04-2006 09:30:01 8.7 C 6.23 g/m*3 8.7 C 0 km/h
202 21-04-2006 09:40:02 9.1 C 6.21 g/m*3 9.1 C 0 km/h
203 21-04-2006 09:50:02 9.3 C 6.2 g/m*3 9.3 C 0 km/h
204 21-04-2006 10:00:02 9.8 C 6.22 g/m*3 9.8 C 0 km/h
205 21-04-2006 10:10:01 10.5 C 6.21 g/m*3 10.5 C 0 km/h
206 21-04-2006 10:20:01 11.2 C 6.28 g/m*3 11.2 C 0 km/h
207 21-04-2006 10:30:01 11.7 C 6.28 g/m*3 11.7 C 0 km/h
208 21-04-2006 10:40:01 12.1 C 6.22 g/m*3 12.1 C 0 km/h
209 21-04-2006 10:50:02 12.5 C 6.38 g/m*3 12.5 C 0 km/h
210 21-04-2006 11:00:03 13.4 C 6.51 g/m*3 13.4 C 0 km/h
211 21-04-2006 11:10:01 14 C 6.27 g/m*3 14 C 0 km/h
212 21-04-2006 11:20:01 14.6 C 6.51 g/m*3 14.6 C 0 km/h
213 21-04-2006 11:30:01 15 C 6.28 g/m*3 15 C 0 km/h
214 21-04-2006 11:40:01 15.3 C 6.14 g/m*3 15.3 C 0 km/h
215 21-04-2006 11:50:01 16 C 6.27 g/m*3 16 C 0 km/h
216 21-04-2006 12:00:01 16.6 C 6.36 g/m*3 16.6 C 0 km/h
217 21-04-2006 12:10:01 17.4 C 6.22 g/m*3 17.4 C 0 km/h
218 21-04-2006 12:20:01 18.2 C 6.37 g/m*3 18.2 C 0 km/h
219 21-04-2006 12:30:01 18.8 C 6.44 g/m*3 18.8 C 0 km/h
220 21-04-2006 12:40:02 18.9 C 6.32 g/m*3 18.9 C 0 km/h
221 21-04-2006 12:50:02 18.9 C 5.67 g/m*3 18.9 C 0 km/h
222 21-04-2006 13:00:02 19.4 C 5.34 g/m*3 19.4 C 0 km/h
223 21-04-2006 13:10:02 20.2 C 5.6 g/m*3 20.2 C 0 km/h
224 21-04-2006 13:20:02 20.4 C 5.31 g/m*3 20.4 C 0 km/h
225 21-04-2006 13:30:02 20.7 C 5.4 g/m*3 20.7 C 0 km/h
Sensor: Nr:Datum:Temp:Abs-Feuchte:Windchill:Wind:
Aussen-T/F 226 21-04-2006 13:40:02 21 C 5.13 g/m*3 21 C 0 km/h
227 21-04-2006 13:50:02 20.8 C 5.25 g/m*3 20.8 C 0 km/h
228 21-04-2006 14:00:02 21.2 C 5 g/m*3 21.2 C 0 km/h
229 21-04-2006 14:10:02 21.6 C 5.12 g/m*3 21.6 C 0 km/h
230 21-04-2006 14:20:02 22.3 C 4.94 g/m*3 22.3 C 0 km/h
231 21-04-2006 14:30:02 22.1 C 3.9 g/m*3 22.1 C 0 km/h
232 21-04-2006 14:40:02 22.4 C 3.97 g/m*3 22.4 C 0 km/h
233 21-04-2006 14:50:02 22.8 C 4.27 g/m*3 22.8 C 0 km/h
234 21-04-2006 15:00:02 23.7 C 4.28 g/m*3 23.7 C 0 km/h
235 21-04-2006 15:10:01 24.2 C 4.4 g/m*3 24.2 C 0 km/h
236 21-04-2006 15:20:01 23.5 C 4.23 g/m*3 23.5 C 0 km/h
237 21-04-2006 15:30:01 23.3 C 4.18 g/m*3 23.3 C 0 km/h
238 21-04-2006 15:40:01 23.3 C 4.18 g/m*3 23.3 C 0 km/h
239 21-04-2006 15:50:01 23.7 C 4.28 g/m*3 23.7 C 0 km/h
240 21-04-2006 16:00:01 23.8 C 4.3 g/m*3 23.8 C 0 km/h
241 21-04-2006 16:10:01 23.5 C 4.23 g/m*3 23.5 C 0 km/h
242 21-04-2006 16:20:01 23.1 C 4.13 g/m*3 23.1 C 0 km/h
243 21-04-2006 16:30:01 23.6 C 4.25 g/m*3 23.6 C 0 km/h
244 21-04-2006 16:40:02 24.2 C 4.4 g/m*3 24.2 C 0 km/h
245 21-04-2006 16:50:02 24.1 C 4.38 g/m*3 24.1 C 0 km/h
246 21-04-2006 17:00:03 24.1 C 4.38 g/m*3 24.1 C 0 km/h
247 21-04-2006 17:10:02 23.9 C 4.33 g/m*3 23.9 C 0 km/h
248 21-04-2006 17:20:02 23.8 C 4.3 g/m*3 23.8 C 0 km/h
249 21-04-2006 17:30:02 23.7 C 4.28 g/m*3 23.7 C 0 km/h
250 21-04-2006 17:40:03 23.2 C 4.16 g/m*3 23.2 C 0 km/h
Sensor: Nr:Datum:Temp:Abs-Feuchte:Windchill:Wind:
Aussen-T/F 251 21-04-2006 17:50:02 23.2 C 4.16 g/m*3 23.2 C 0 km/h
252 21-04-2006 18:00:02 22.9 C 4.09 g/m*3 22.9 C 0 km/h
253 21-04-2006 18:10:02 23 C 4.11 g/m*3 23 C 0 km/h
254 21-04-2006 18:20:02 22.9 C 4.09 g/m*3 22.9 C 0 km/h
255 21-04-2006 18:30:02 23.1 C 4.13 g/m*3 23.1 C 0 km/h
256 21-04-2006 18:40:03 23.2 C 4.16 g/m*3 23.2 C 0 km/h
257 21-04-2006 18:50:02 23 C 4.32 g/m*3 23 C 0 km/h
258 21-04-2006 19:00:02 22.7 C 4.65 g/m*3 22.7 C 0 km/h
259 21-04-2006 19:10:02 22.2 C 4.91 g/m*3 22.2 C 0 km/h
260 21-04-2006 19:20:02 21.8 C 5.76 g/m*3 21.8 C 0 km/h
261 21-04-2006 19:30:02 21.1 C 5.53 g/m*3 21.1 C 0 km/h
262 21-04-2006 19:40:02 20.6 C 5.91 g/m*3 20.6 C 0 km/h
263 21-04-2006 19:50:02 20.2 C 5.77 g/m*3 20.2 C 0 km/h
264 21-04-2006 20:00:02 19.7 C 5.77 g/m*3 19.7 C 0 km/h
265 21-04-2006 20:10:02 19.3 C 5.97 g/m*3 19.3 C 0 km/h
266 21-04-2006 20:20:02 18.9 C 5.99 g/m*3 18.9 C 0 km/h
267 21-04-2006 20:30:02 18.7 C 5.92 g/m*3 18.7 C 0 km/h
268 21-04-2006 20:40:02 18.2 C 6.06 g/m*3 18.2 C 0 km/h
269 21-04-2006 20:50:02 17.8 C 6.07 g/m*3 17.8 C 0 km/h
270 21-04-2006 21:00:02 17.7 C 6.19 g/m*3 17.7 C 0 km/h
271 21-04-2006 21:10:02 17.2 C 6.15 g/m*3 17.2 C 0 km/h
272 21-04-2006 21:20:02 17.1 C 6.26 g/m*3 17.1 C 0 km/h
273 21-04-2006 21:30:02 16.8 C 6.29 g/m*3 16.8 C 0 km/h
274 21-04-2006 21:40:02 16.7 C 6.4 g/m*3 16.7 C 0 km/h
275 21-04-2006 21:50:02 16.7 C 6.4 g/m*3 16.7 C 0 km/h
Sensor: Nr:Datum:Temp:Abs-Feuchte:Windchill:Wind:
Aussen-T/F 276 21-04-2006 22:00:02 16.5 C 6.6 g/m*3 16.5 C 0 km/h
277 21-04-2006 22:10:02 16.5 C 6.46 g/m*3 16.5 C 0 km/h
278 21-04-2006 22:20:02 16.4 C 6.56 g/m*3 16.4 C 0 km/h
279 21-04-2006 22:30:02 16.3 C 6.66 g/m*3 16.3 C 0 km/h
280 21-04-2006 22:40:02 16.1 C 6.58 g/m*3 16.1 C 0 km/h
281 21-04-2006 22:50:02 15.8 C 6.87 g/m*3 15.8 C 0 km/h
282 21-04-2006 23:00:03 15.6 C 6.78 g/m*3 15.6 C 0 km/h
283 21-04-2006 23:10:02 15.3 C 6.79 g/m*3 15.3 C 0 km/h
284 21-04-2006 23:20:01 14.9 C 6.88 g/m*3 14.9 C 0 km/h
285 21-04-2006 23:30:01 14.7 C 6.92 g/m*3 14.7 C 0 km/h
286 21-04-2006 23:40:02 14.5 C 6.96 g/m*3 14.5 C 0 km/h
287 21-04-2006 23:50:02 14.2 C 6.84 g/m*3 14.2 C 0 km/h
288 22-04-2006 00:00:03 13.8 C 6.91 g/m*3 13.8 C 0 km/h
289 22-04-2006 00:10:02 13.5 C 7.13 g/m*3 13.5 C 0 km/h
290 22-04-2006 00:20:02 13.2 C 7.12 g/m*3 13.2 C 0 km/h
291 22-04-2006 00:30:02 13.3 C 7.16 g/m*3 13.3 C 0 km/h
292 22-04-2006 00:40:02 13.4 C 7.21 g/m*3 13.4 C 0 km/h
293 22-04-2006 00:50:02 13.6 C 7.06 g/m*3 13.6 C 0 km/h
294 22-04-2006 01:00:02 13.7 C 7.34 g/m*3 13.7 C 0 km/h
295 22-04-2006 01:10:02 13.6 C 7.06 g/m*3 13.6 C 0 km/h
296 22-04-2006 01:20:02 13.6 C 7.06 g/m*3 13.6 C 0 km/h
297 22-04-2006 01:30:02 13.2 C 7 g/m*3 13.2 C 0 km/h
298 22-04-2006 01:40:01 12.9 C 7.1 g/m*3 12.9 C 0 km/h
299 22-04-2006 01:50:03 12.9 C 7.1 g/m*3 12.9 C 0 km/h
300 22-04-2006 02:00:03 13.2 C 6.66 g/m*3 13.2 C 0 km/h
Sensor: Nr:Datum:Temp:Abs-Feuchte:Windchill:Wind:
Aussen-T/F 301 22-04-2006 02:10:03 13.1 C 6.85 g/m*3 13.1 C 0 km/h
302 22-04-2006 02:20:02 12.9 C 6.99 g/m*3 12.9 C 0 km/h
303 22-04-2006 02:30:02 13 C 6.8 g/m*3 13 C 0 km/h
304 22-04-2006 02:40:02 12.9 C 6.88 g/m*3 12.9 C 0 km/h
305 22-04-2006 02:51:03 12.7 C 6.9 g/m*3 12.7 C 0 km/h
306 22-04-2006 03:01:03 12.4 C 6.88 g/m*3 12.4 C 0 km/h
307 22-04-2006 03:11:03 12.1 C 6.76 g/m*3 12.1 C 0 km/h
308 22-04-2006 03:21:03 12 C 6.93 g/m*3 12 C 0 km/h
309 22-04-2006 03:31:02 11.4 C 6.77 g/m*3 11.4 C 0 km/h
310 22-04-2006 03:41:02 11.4 C 6.88 g/m*3 11.4 C 0 km/h
311 22-04-2006 03:51:02 11.5 C 6.92 g/m*3 11.5 C 0 km/h
312 22-04-2006 04:01:02 12.2 C 7.34 g/m*3 12.2 C 0 km/h
313 22-04-2006 04:11:02 12.2 C 7.23 g/m*3 12.2 C 0 km/h
314 22-04-2006 04:21:02 12.2 C 7.34 g/m*3 12.2 C 0 km/h
315 22-04-2006 04:31:02 11.6 C 7.9 g/m*3 11.6 C 0 km/h
316 22-04-2006 04:41:03 11.3 C 8.36 g/m*3 11.3 C 0 km/h
317 22-04-2006 04:51:03 10.8 C 8.6 g/m*3 10.8 C 0 km/h
318 22-04-2006 05:01:03 10.7 C 8.64 g/m*3 10.7 C 0 km/h
319 22-04-2006 05:11:03 10.6 C 8.69 g/m*3 10.6 C 0 km/h
320 22-04-2006 05:21:03 10.7 C 8.84 g/m*3 10.7 C 0 km/h
321 22-04-2006 05:31:03 10.7 C 8.84 g/m*3 10.7 C 0 km/h
322 22-04-2006 05:41:03 10.9 C 8.95 g/m*3 10.9 C 0 km/h
323 22-04-2006 05:51:03 11 C 9.01 g/m*3 11 C 0 km/h
324 22-04-2006 06:01:03 11 C 8.91 g/m*3 11 C 0 km/h
325 22-04-2006 06:11:03 10.9 C 8.85 g/m*3 10.9 C 0 km/h
Sensor: Nr:Datum:Temp:Abs-Feuchte:Windchill:Wind:
Aussen-T/F 326 22-04-2006 06:21:02 10.8 C 8.8 g/m*3 10.8 C 0 km/h
327 22-04-2006 06:31:02 10.8 C 8.8 g/m*3 10.8 C 0 km/h
328 22-04-2006 06:41:02 10.8 C 8.8 g/m*3 10.8 C 0 km/h
329 22-04-2006 06:51:02 10.8 C 8.8 g/m*3 10.8 C 0 km/h
330 22-04-2006 07:01:01 10.8 C 8.8 g/m*3 10.8 C 0 km/h
331 22-04-2006 07:11:01 10.8 C 8.8 g/m*3 10.8 C 0 km/h
332 22-04-2006 07:21:01 10.9 C 8.85 g/m*3 10.9 C 0 km/h
333 22-04-2006 07:31:02 11.1 C 8.86 g/m*3 11.1 C 0 km/h
334 22-04-2006 07:41:02 11.2 C 8.92 g/m*3 11.2 C 0 km/h
335 22-04-2006 07:51:02 11.4 C 8.83 g/m*3 11.4 C 0 km/h
336 22-04-2006 08:01:01 11.4 C 8.72 g/m*3 11.4 C 0 km/h
337 22-04-2006 08:11:01 11.4 C 8.62 g/m*3 11.4 C 0 km/h
338 22-04-2006 08:21:01 11.4 C 8.52 g/m*3 11.4 C 0 km/h
339 22-04-2006 08:31:02 11.6 C 8.63 g/m*3 11.6 C 0 km/h
340 22-04-2006 08:41:02 11.8 C 8.63 g/m*3 11.8 C 0 km/h
341 22-04-2006 08:51:02 11.9 C 8.68 g/m*3 11.9 C 0 km/h
342 22-04-2006 09:01:02 12 C 8.63 g/m*3 12 C 0 km/h
343 22-04-2006 09:11:02 12.1 C 8.47 g/m*3 12.1 C 0 km/h
344 22-04-2006 09:21:02 12.2 C 8.42 g/m*3 12.2 C 0 km/h
345 22-04-2006 09:31:01 12.2 C 8.42 g/m*3 12.2 C 0 km/h
346 22-04-2006 09:41:01 12.2 C 8.31 g/m*3 12.2 C 0 km/h
347 22-04-2006 09:51:02 12.5 C 8.36 g/m*3 12.5 C 0 km/h
348 22-04-2006 10:01:03 12.5 C 8.14 g/m*3 12.5 C 0 km/h
349 22-04-2006 10:11:03 12.2 C 7.99 g/m*3 12.2 C 0 km/h
350 22-04-2006 10:21:02 12.4 C 8.09 g/m*3 12.4 C 0 km/h
Sensor: Nr:Datum:Temp:Abs-Feuchte:Windchill:Wind:
Aussen-T/F 351 22-04-2006 10:31:02 12.5 C 8.03 g/m*3 12.5 C 0 km/h
352 22-04-2006 10:41:02 12.5 C 7.81 g/m*3 12.5 C 0 km/h
353 22-04-2006 10:51:02 12.7 C 7.79 g/m*3 12.7 C 0 km/h
354 22-04-2006 11:01:02 12.7 C 7.68 g/m*3 12.7 C 0 km/h
355 22-04-2006 11:11:02 13.3 C 7.63 g/m*3 13.3 C 0 km/h
356 22-04-2006 11:21:02 13.7 C 7.7 g/m*3 13.7 C 0 km/h
357 22-04-2006 11:31:02 14.2 C 7.57 g/m*3 14.2 C 0 km/h
358 22-04-2006 11:41:02 14.5 C 7.34 g/m*3 14.5 C 0 km/h
359 22-04-2006 11:51:03 15 C 7.44 g/m*3 15 C 0 km/h
360 22-04-2006 12:01:02 15 C 7.05 g/m*3 15 C 0 km/h
361 22-04-2006 12:11:02 15.3 C 7.05 g/m*3 15.3 C 0 km/h
362 22-04-2006 12:21:02 15.5 C 6.61 g/m*3 15.5 C 0 km/h
363 22-04-2006 12:31:03 15.5 C 6.61 g/m*3 15.5 C 0 km/h
364 22-04-2006 12:41:03 15.7 C 6.56 g/m*3 15.7 C 0 km/h
365 22-04-2006 12:51:01 15.1 C 6.58 g/m*3 15.1 C 0 km/h
366 22-04-2006 13:01:01 15 C 6.41 g/m*3 15 C 0 km/h
367 22-04-2006 13:11:01 15.4 C 6.31 g/m*3 15.4 C 0 km/h
368 22-04-2006 13:21:01 16 C 6.13 g/m*3 16 C 0 km/h
369 22-04-2006 13:31:02 16.5 C 5.9 g/m*3 16.5 C 0 km/h
370 22-04-2006 13:41:02 16.7 C 5.97 g/m*3 16.7 C 0 km/h
371 22-04-2006 13:51:02 16.6 C 5.65 g/m*3 16.6 C 0 km/h
372 22-04-2006 14:01:02 16.4 C 5.58 g/m*3 16.4 C 0 km/h
373 22-04-2006 14:11:02 17.3 C 5.3 g/m*3 17.3 C 0 km/h
374 22-04-2006 14:21:02 17.9 C 5.5 g/m*3 17.9 C 0 km/h
375 22-04-2006 14:31:03 17.9 C 5.5 g/m*3 17.9 C 0 km/h
Sensor: Nr:Datum:Temp:Abs-Feuchte:Windchill:Wind:
Aussen-T/F 376 22-04-2006 14:41:03 17.9 C 5.5 g/m*3 17.9 C 0 km/h
377 22-04-2006 14:51:02 17.6 C 5.55 g/m*3 17.6 C 0 km/h
378 22-04-2006 15:01:02 19 C 5.7 g/m*3 19 C 0 km/h
379 22-04-2006 15:11:02 19.4 C 5.34 g/m*3 19.4 C 0 km/h
380 22-04-2006 15:21:02 19.8 C 5.81 g/m*3 19.8 C 0 km/h
381 22-04-2006 15:31:03 18.8 C 5.31 g/m*3 18.8 C 0 km/h
382 22-04-2006 15:41:03 18.7 C 5.6 g/m*3 18.7 C 0 km/h
383 22-04-2006 15:51:02 20 C 5.88 g/m*3 20 C 0 km/h
384 22-04-2006 16:01:02 19.2 C 5.11 g/m*3 19.2 C 0 km/h
385 22-04-2006 16:11:02 18.7 C 5.28 g/m*3 18.7 C 0 km/h
386 22-04-2006 16:21:02 19.8 C 5.47 g/m*3 19.8 C 0 km/h
387 22-04-2006 16:31:03 20.2 C 5.25 g/m*3 20.2 C 0 km/h
388 22-04-2006 16:41:03 19.7 C 5.43 g/m*3 19.7 C 0 km/h
389 22-04-2006 16:51:02 19.7 C 5.43 g/m*3 19.7 C 0 km/h
390 22-04-2006 17:01:02 19.4 C 5.51 g/m*3 19.4 C 0 km/h
391 22-04-2006 17:11:02 18.5 C 5.7 g/m*3 18.5 C 0 km/h
392 22-04-2006 17:21:02 18.7 C 5.92 g/m*3 18.7 C 0 km/h
393 22-04-2006 17:31:03 18.3 C 5.79 g/m*3 18.3 C 0 km/h
394 22-04-2006 17:41:03 18.7 C 5.92 g/m*3 18.7 C 0 km/h
395 22-04-2006 17:51:02 18 C 5.68 g/m*3 18 C 0 km/h
396 22-04-2006 18:01:03 17.8 C 5.92 g/m*3 17.8 C 0 km/h
397 22-04-2006 18:11:03 18 C 5.68 g/m*3 18 C 0 km/h
398 22-04-2006 18:21:02 17.8 C 5.77 g/m*3 17.8 C 0 km/h
399 22-04-2006 18:31:02 17.7 C 5.73 g/m*3 17.7 C 0 km/h
400 22-04-2006 18:41:02 17.3 C 5.6 g/m*3 17.3 C 0 km/h
Sensor: Nr:Datum:Temp:Abs-Feuchte:Windchill:Wind:
Aussen-T/F 401 22-04-2006 18:51:02 16.6 C 5.37 g/m*3 16.6 C 0 km/h
402 22-04-2006 19:01:02 16.8 C 5.43 g/m*3 16.8 C 0 km/h
403 22-04-2006 19:11:02 16 C 5.04 g/m*3 16 C 0 km/h
404 22-04-2006 19:21:02 15.8 C 5.25 g/m*3 15.8 C 0 km/h
405 22-04-2006 19:31:01 15.6 C 5.05 g/m*3 15.6 C 0 km/h
406 22-04-2006 19:41:01 14.9 C 5.1 g/m*3 14.9 C 0 km/h
407 22-04-2006 19:51:02 14.2 C 5.13 g/m*3 14.2 C 0 km/h
408 22-04-2006 20:01:02 14 C 5.31 g/m*3 14 C 0 km/h
409 22-04-2006 20:11:02 13 C 5.33 g/m*3 13 C 0 km/h
410 22-04-2006 20:21:02 12.8 C 5.6 g/m*3 12.8 C 0 km/h
411 22-04-2006 20:31:02 12.4 C 5.46 g/m*3 12.4 C 0 km/h
412 22-04-2006 20:41:02 11.9 C 5.61 g/m*3 11.9 C 0 km/h
413 22-04-2006 20:51:02 11.5 C 5.58 g/m*3 11.5 C 0 km/h
414 22-04-2006 21:01:02 11.4 C 5.65 g/m*3 11.4 C 0 km/h
415 22-04-2006 21:11:02 11 C 5.61 g/m*3 11 C 0 km/h
416 22-04-2006 21:21:01 10.7 C 5.7 g/m*3 10.7 C 0 km/h
417 22-04-2006 21:31:02 10.5 C 5.72 g/m*3 10.5 C 0 km/h
418 22-04-2006 21:41:02 10.4 C 5.69 g/m*3 10.4 C 0 km/h
419 22-04-2006 21:51:02 10.1 C 5.67 g/m*3 10.1 C 0 km/h
420 22-04-2006 22:01:02 10 C 5.64 g/m*3 10 C 0 km/h
421 22-04-2006 22:11:02 9.8 C 5.75 g/m*3 9.8 C 0 km/h
422 22-04-2006 22:21:01 9.6 C 5.77 g/m*3 9.6 C 0 km/h
423 22-04-2006 22:31:02 9.5 C 5.73 g/m*3 9.5 C 0 km/h
424 22-04-2006 22:41:02 9.2 C 5.71 g/m*3 9.2 C 0 km/h
425 22-04-2006 22:51:02 9.2 C 5.71 g/m*3 9.2 C 0 km/h
Sensor: Nr:Datum:Temp:Abs-Feuchte:Windchill:Wind:
Aussen-T/F 426 22-04-2006 23:01:01 9.1 C 5.68 g/m*3 9.1 C 0 km/h
427 22-04-2006 23:11:01 8.9 C 5.78 g/m*3 8.9 C 0 km/h
428 22-04-2006 23:21:01 8.7 C 5.71 g/m*3 8.7 C 0 km/h
429 22-04-2006 23:31:02 8.6 C 5.76 g/m*3 8.6 C 0 km/h
430 22-04-2006 23:41:02 8.2 C 5.61 g/m*3 8.2 C 0 km/h
431 22-04-2006 23:51:02 8 C 5.62 g/m*3 8 C 0 km/h
432 23-04-2006 00:01:02 7.9 C 5.75 g/m*3 7.9 C 0 km/h
433 23-04-2006 00:11:02 7.8 C 5.79 g/m*3 7.8 C 0 km/h
434 23-04-2006 00:21:02 7.6 C 5.72 g/m*3 7.6 C 0 km/h
435 23-04-2006 00:31:02 7.5 C 5.76 g/m*3 7.5 C 0 km/h
436 23-04-2006 00:41:02 7.5 C 5.76 g/m*3 7.5 C 0 km/h
437 23-04-2006 00:51:02 7.5 C 5.84 g/m*3 7.5 C 0 km/h
438 23-04-2006 01:01:02 7.3 C 5.77 g/m*3 7.3 C 0 km/h
439 23-04-2006 01:11:02 7.1 C 5.77 g/m*3 7.1 C 0 km/h
440 23-04-2006 01:21:02 6.9 C 5.77 g/m*3 6.9 C 0 km/h
441 23-04-2006 01:31:02 6.8 C 5.74 g/m*3 6.8 C 0 km/h
442 23-04-2006 01:41:02 6.6 C 5.81 g/m*3 6.6 C 0 km/h
443 23-04-2006 01:51:02 6.3 C 5.77 g/m*3 6.3 C 0 km/h
444 23-04-2006 02:01:02 6.2 C 5.74 g/m*3 6.2 C 0 km/h
445 23-04-2006 02:11:02 6.1 C 5.77 g/m*3 6.1 C 0 km/h
446 23-04-2006 02:21:02 6 C 5.73 g/m*3 6 C 0 km/h
447 23-04-2006 02:31:02 5.9 C 5.77 g/m*3 5.9 C 0 km/h
448 23-04-2006 02:41:02 5.8 C 5.8 g/m*3 5.8 C 0 km/h
449 23-04-2006 02:52:04 5.4 C 5.65 g/m*3 5.4 C 0 km/h
450 23-04-2006 03:02:04 5.4 C 5.65 g/m*3 5.4 C 0 km/h
Sensor: Nr:Datum:Temp:Abs-Feuchte:Windchill:Wind:
Aussen-T/F 451 23-04-2006 03:12:04 5.4 C 5.65 g/m*3 5.4 C 0 km/h
452 23-04-2006 03:22:04 5.3 C 5.61 g/m*3 5.3 C 0 km/h
453 23-04-2006 03:32:02 5.2 C 5.65 g/m*3 5.2 C 0 km/h
454 23-04-2006 03:42:02 5 C 5.57 g/m*3 5 C 0 km/h
455 23-04-2006 03:52:02 4.9 C 5.67 g/m*3 4.9 C 0 km/h
456 23-04-2006 04:02:02 4.7 C 5.6 g/m*3 4.7 C 0 km/h
457 23-04-2006 04:12:02 4.6 C 5.62 g/m*3 4.6 C 0 km/h
458 23-04-2006 04:22:02 4.5 C 5.59 g/m*3 4.5 C 0 km/h
459 23-04-2006 04:32:02 4.4 C 5.62 g/m*3 4.4 C 0 km/h
460 23-04-2006 04:42:02 4.2 C 5.54 g/m*3 4.2 C 0 km/h
461 23-04-2006 04:52:03 4.1 C 5.5 g/m*3 4.1 C 0 km/h
462 23-04-2006 05:02:03 3.9 C 5.49 g/m*3 3.9 C 0 km/h
463 23-04-2006 05:12:03 3.9 C 5.49 g/m*3 3.9 C 0 km/h
464 23-04-2006 05:22:03 3.9 C 5.49 g/m*3 3.9 C 0 km/h
465 23-04-2006 05:32:03 3.9 C 5.56 g/m*3 3.9 C 0 km/h
466 23-04-2006 05:42:03 3.8 C 5.52 g/m*3 3.8 C 0 km/h
467 23-04-2006 05:52:02 3.7 C 5.48 g/m*3 3.7 C 0 km/h
468 23-04-2006 06:02:01 3.5 C 5.41 g/m*3 3.5 C 0 km/h
469 23-04-2006 06:12:01 3.4 C 5.37 g/m*3 3.4 C 0 km/h
470 23-04-2006 06:22:02 3.3 C 5.34 g/m*3 3.3 C 0 km/h
471 23-04-2006 06:32:02 3.2 C 5.3 g/m*3 3.2 C 0 km/h
472 23-04-2006 06:42:02 3.4 C 5.37 g/m*3 3.4 C 0 km/h
473 23-04-2006 06:52:02 3.4 C 5.37 g/m*3 3.4 C 0 km/h
474 23-04-2006 07:02:02 3.5 C 5.47 g/m*3 3.5 C 0 km/h
475 23-04-2006 07:12:02 3.6 C 5.45 g/m*3 3.6 C 0 km/h
Sensor: Nr:Datum:Temp:Abs-Feuchte:Windchill:Wind:
Aussen-T/F 476 23-04-2006 07:22:02 3.5 C 5.41 g/m*3 3.5 C 0 km/h
477 23-04-2006 07:32:03 3.8 C 5.52 g/m*3 3.8 C 0 km/h
478 23-04-2006 07:42:03 3.9 C 5.56 g/m*3 3.9 C 0 km/h
479 23-04-2006 07:52:02 4.2 C 5.61 g/m*3 4.2 C 0 km/h
480 23-04-2006 08:02:02 4.5 C 5.65 g/m*3 4.5 C 0 km/h
481 23-04-2006 08:12:02 4.4 C 5.55 g/m*3 4.4 C 0 km/h
482 23-04-2006 08:22:02 4.6 C 5.62 g/m*3 4.6 C 0 km/h
483 23-04-2006 08:32:03 4.8 C 5.7 g/m*3 4.8 C 0 km/h
484 23-04-2006 08:42:03 5 C 5.71 g/m*3 5 C 0 km/h
485 23-04-2006 08:52:02 5.1 C 5.68 g/m*3 5.1 C 0 km/h
486 23-04-2006 09:02:02 5.2 C 5.71 g/m*3 5.2 C 0 km/h
487 23-04-2006 09:12:02 5.5 C 5.76 g/m*3 5.5 C 0 km/h
488 23-04-2006 09:22:02 5.7 C 5.84 g/m*3 5.7 C 0 km/h
489 23-04-2006 09:32:02 5.8 C 5.8 g/m*3 5.8 C 0 km/h
490 23-04-2006 09:42:02 6 C 5.73 g/m*3 6 C 0 km/h
491 23-04-2006 09:52:02 6.6 C 5.89 g/m*3 6.6 C 0 km/h
492 23-04-2006 10:02:02 7 C 5.89 g/m*3 7 C 0 km/h
493 23-04-2006 10:12:03 7.7 C 5.92 g/m*3 7.7 C 0 km/h
494 23-04-2006 10:22:02 7.9 C 5.91 g/m*3 7.9 C 0 km/h
495 23-04-2006 10:32:02 8.5 C 5.89 g/m*3 8.5 C 0 km/h
496 23-04-2006 10:42:02 9.1 C 5.86 g/m*3 9.1 C 0 km/h
497 23-04-2006 10:52:02 9.9 C 5.98 g/m*3 9.9 C 0 km/h
498 23-04-2006 11:02:02 10.6 C 5.95 g/m*3 10.6 C 0 km/h
499 23-04-2006 11:12:02 10.7 C 5.89 g/m*3 10.7 C 0 km/h
500 23-04-2006 11:22:02 11 C 6.01 g/m*3 11 C 0 km/h
Sensor: Nr:Datum:Temp:Abs-Feuchte:Windchill:Wind:
Aussen-T/F 501 23-04-2006 11:32:03 11.4 C 5.95 g/m*3 11.4 C 0 km/h
502 23-04-2006 11:42:03 12.5 C 5.94 g/m*3 12.5 C 0 km/h
503 23-04-2006 11:52:02 12.9 C 5.75 g/m*3 12.9 C 0 km/h
504 23-04-2006 12:02:02 12.7 C 5.45 g/m*3 12.7 C 0 km/h
505 23-04-2006 12:12:02 13.1 C 5.48 g/m*3 13.1 C 0 km/h
506 23-04-2006 12:22:02 13.8 C 5.48 g/m*3 13.8 C 0 km/h
507 23-04-2006 12:32:02 14.7 C 5.41 g/m*3 14.7 C 0 km/h
508 23-04-2006 12:42:02 13.5 C 5.26 g/m*3 13.5 C 0 km/h
509 23-04-2006 12:52:02 13.1 C 5.36 g/m*3 13.1 C 0 km/h
510 23-04-2006 13:02:01 13.3 C 5.43 g/m*3 13.3 C 0 km/h
511 23-04-2006 13:12:01 13.8 C 5.48 g/m*3 13.8 C 0 km/h
512 23-04-2006 13:22:01 13.6 C 5.41 g/m*3 13.6 C 0 km/h
513 23-04-2006 13:32:02 14.7 C 5.41 g/m*3 14.7 C 0 km/h
514 23-04-2006 13:42:02 15.3 C 5.22 g/m*3 15.3 C 0 km/h
515 23-04-2006 13:52:01 16.2 C 5.52 g/m*3 16.2 C 0 km/h
516 23-04-2006 14:02:02 16.2 C 5.38 g/m*3 16.2 C 0 km/h
517 23-04-2006 14:12:02 15.9 C 5.28 g/m*3 15.9 C 0 km/h
518 23-04-2006 14:22:01 16.3 C 5.13 g/m*3 16.3 C 0 km/h
519 23-04-2006 14:32:02 16.5 C 5.34 g/m*3 16.5 C 0 km/h
520 23-04-2006 14:42:02 16.7 C 5.26 g/m*3 16.7 C 0 km/h
521 23-04-2006 14:52:02 17.6 C 5.4 g/m*3 17.6 C 0 km/h
522 23-04-2006 15:02:02 18.2 C 5.44 g/m*3 18.2 C 0 km/h
523 23-04-2006 15:12:02 18.4 C 5.19 g/m*3 18.4 C 0 km/h
524 23-04-2006 15:22:02 19.1 C 5.41 g/m*3 19.1 C 0 km/h
525 23-04-2006 15:32:01 19.5 C 5.37 g/m*3 19.5 C 0 km/h
Sensor: Nr:Datum:Temp:Abs-Feuchte:Windchill:Wind:
Aussen-T/F 526 23-04-2006 15:42:01 19.5 C 5.37 g/m*3 19.5 C 0 km/h
527 23-04-2006 15:52:02 20.1 C 5.39 g/m*3 20.1 C 0 km/h
528 23-04-2006 16:02:02 20.4 C 5.48 g/m*3 20.4 C 0 km/h
529 23-04-2006 16:12:02 19.9 C 5.33 g/m*3 19.9 C 0 km/h
530 23-04-2006 16:22:01 20.4 C 5.48 g/m*3 20.4 C 0 km/h
531 23-04-2006 16:32:02 20.8 C 5.43 g/m*3 20.8 C 0 km/h
532 23-04-2006 16:42:02 20.6 C 5.55 g/m*3 20.6 C 0 km/h
533 23-04-2006 16:52:02 19.7 C 5.26 g/m*3 19.7 C 0 km/h
534 23-04-2006 17:02:01 19.6 C 5.4 g/m*3 19.6 C 0 km/h
535 23-04-2006 17:12:01 19.5 C 5.37 g/m*3 19.5 C 0 km/h
536 23-04-2006 17:22:01 20.1 C 5.21 g/m*3 20.1 C 0 km/h
537 23-04-2006 17:32:02 19.9 C 5.33 g/m*3 19.9 C 0 km/h
538 23-04-2006 17:42:02 19.7 C 5.09 g/m*3 19.7 C 0 km/h
539 23-04-2006 17:52:02 19.4 C 5.17 g/m*3 19.4 C 0 km/h
540 23-04-2006 18:02:01 19.3 C 5.47 g/m*3 19.3 C 0 km/h
541 23-04-2006 18:12:01 19.8 C 5.47 g/m*3 19.8 C 0 km/h
542 23-04-2006 18:22:01 19.4 C 5.01 g/m*3 19.4 C 0 km/h
543 23-04-2006 18:32:02 18.8 C 5.15 g/m*3 18.8 C 0 km/h
544 23-04-2006 18:42:02 18.9 C 5.35 g/m*3 18.9 C 0 km/h
545 23-04-2006 18:52:02 18.7 C 5.12 g/m*3 18.7 C 0 km/h
546 23-04-2006 19:02:01 18.4 C 4.88 g/m*3 18.4 C 0 km/h
547 23-04-2006 19:12:01 17.3 C 4.71 g/m*3 17.3 C 0 km/h
548 23-04-2006 19:22:01 17.2 C 5.13 g/m*3 17.2 C 0 km/h
549 23-04-2006 19:32:02 17.1 C 4.8 g/m*3 17.1 C 0 km/h
550 23-04-2006 19:42:02 17.1 C 4.95 g/m*3 17.1 C 0 km/h
Sensor: Nr:Datum:Temp:Abs-Feuchte:Windchill:Wind:
Aussen-T/F 551 23-04-2006 19:52:02 17 C 5.06 g/m*3 17 C 0 km/h
552 23-04-2006 20:02:02 16.6 C 5.09 g/m*3 16.6 C 0 km/h
553 23-04-2006 20:12:02 16.3 C 5.27 g/m*3 16.3 C 0 km/h
554 23-04-2006 20:22:02 15.7 C 5.49 g/m*3 15.7 C 0 km/h
555 23-04-2006 20:32:03 15 C 5.39 g/m*3 15 C 0 km/h
556 23-04-2006 20:42:03 14.5 C 5.6 g/m*3 14.5 C 0 km/h
557 23-04-2006 20:52:02 13.8 C 5.6 g/m*3 13.8 C 0 km/h
558 23-04-2006 21:02:02 13.4 C 5.58 g/m*3 13.4 C 0 km/h
559 23-04-2006 21:12:02 13.1 C 5.71 g/m*3 13.1 C 0 km/h
560 23-04-2006 21:22:02 12.7 C 5.68 g/m*3 12.7 C 0 km/h
561 23-04-2006 21:32:03 12.5 C 5.72 g/m*3 12.5 C 0 km/h
562 23-04-2006 21:42:03 12.1 C 5.79 g/m*3 12.1 C 0 km/h
563 23-04-2006 21:52:02 12 C 5.97 g/m*3 12 C 0 km/h
564 23-04-2006 22:02:02 11.8 C 6 g/m*3 11.8 C 0 km/h
565 23-04-2006 22:12:02 11.5 C 5.99 g/m*3 11.5 C 0 km/h
566 23-04-2006 22:22:02 11.4 C 5.85 g/m*3 11.4 C 0 km/h
567 23-04-2006 22:32:03 11.3 C 6.02 g/m*3 11.3 C 0 km/h
568 23-04-2006 22:42:03 11.2 C 5.98 g/m*3 11.2 C 0 km/h
569 23-04-2006 22:52:02 11 C 5.91 g/m*3 11 C 0 km/h
570 23-04-2006 23:02:02 10.8 C 6.13 g/m*3 10.8 C 0 km/h
571 23-04-2006 23:12:02 10.5 C 6.01 g/m*3 10.5 C 0 km/h
572 23-04-2006 23:22:02 10.3 C 6.03 g/m*3 10.3 C 0 km/h
573 23-04-2006 23:32:03 10.2 C 6 g/m*3 10.2 C 0 km/h
574 23-04-2006 23:42:03 9.9 C 6.07 g/m*3 9.9 C 0 km/h
575 23-04-2006 23:52:02 9.7 C 6.08 g/m*3 9.7 C 0 km/h
Sensor: Nr:Datum:Temp:Abs-Feuchte:Windchill:Wind:
Aussen-T/F 576 24-04-2006 00:02:02 9.5 C 6.1 g/m*3 9.5 C 0 km/h
577 24-04-2006 00:12:02 9.3 C 6.11 g/m*3 9.3 C 0 km/h
578 24-04-2006 00:22:02 9.2 C 6.07 g/m*3 9.2 C 0 km/h
579 24-04-2006 00:32:02 9 C 5.99 g/m*3 9 C 0 km/h
580 24-04-2006 00:42:02 8.7 C 5.97 g/m*3 8.7 C 0 km/h
581 24-04-2006 00:52:02 8.5 C 6.06 g/m*3 8.5 C 0 km/h
582 24-04-2006 01:02:02 8.3 C 6.07 g/m*3 8.3 C 0 km/h
583 24-04-2006 01:12:02 8.1 C 5.99 g/m*3 8.1 C 0 km/h
584 24-04-2006 01:22:02 8.1 C 6.07 g/m*3 8.1 C 0 km/h
585 24-04-2006 01:32:02 8 C 6.04 g/m*3 8 C 0 km/h
586 24-04-2006 01:42:02 7.8 C 6.12 g/m*3 7.8 C 0 km/h
587 24-04-2006 01:52:02 7.7 C 6 g/m*3 7.7 C 0 km/h
588 24-04-2006 02:02:02 7.6 C 6.04 g/m*3 7.6 C 0 km/h
589 24-04-2006 02:12:02 7.5 C 6.08 g/m*3 7.5 C 0 km/h
590 24-04-2006 02:22:02 7.4 C 6.04 g/m*3 7.4 C 0 km/h
591 24-04-2006 02:32:02 7.4 C 6.12 g/m*3 7.4 C 0 km/h
592 24-04-2006 02:42:03 7.3 C 6.08 g/m*3 7.3 C 0 km/h
593 24-04-2006 02:53:03 7.3 C 6.08 g/m*3 7.3 C 0 km/h
594 24-04-2006 03:03:04 7.2 C 6.04 g/m*3 7.2 C 0 km/h
595 24-04-2006 03:13:03 7.1 C 6.08 g/m*3 7.1 C 0 km/h
596 24-04-2006 03:23:03 7 C 6.04 g/m*3 7 C 0 km/h
597 24-04-2006 03:33:03 7.4 C 6.2 g/m*3 7.4 C 0 km/h
598 24-04-2006 03:43:03 7.3 C 6.16 g/m*3 7.3 C 0 km/h
599 24-04-2006 03:53:03 7.5 C 6.24 g/m*3 7.5 C 0 km/h
600 24-04-2006 04:03:03 7.6 C 6.2 g/m*3 7.6 C 0 km/h
Sensor: Nr:Datum:Temp:Abs-Feuchte:Windchill:Wind:
Aussen-T/F 601 24-04-2006 04:13:03 7.6 C 6.12 g/m*3 7.6 C 0 km/h
602 24-04-2006 04:23:02 7.6 C 6.2 g/m*3 7.6 C 0 km/h
603 24-04-2006 04:33:02 7.6 C 6.2 g/m*3 7.6 C 0 km/h
604 24-04-2006 04:43:02 7.5 C 6.16 g/m*3 7.5 C 0 km/h
605 24-04-2006 04:53:02 7.4 C 6.2 g/m*3 7.4 C 0 km/h
606 24-04-2006 05:03:01 7.5 C 6.24 g/m*3 7.5 C 0 km/h
607 24-04-2006 05:13:01 7.5 C 6.16 g/m*3 7.5 C 0 km/h
608 24-04-2006 05:23:02 7.6 C 6.2 g/m*3 7.6 C 0 km/h
609 24-04-2006 05:33:02 7.6 C 6.2 g/m*3 7.6 C 0 km/h
610 24-04-2006 05:43:02 7.5 C 6.16 g/m*3 7.5 C 0 km/h
611 24-04-2006 05:53:02 7.5 C 6.16 g/m*3 7.5 C 0 km/h
612 24-04-2006 06:03:02 7.5 C 6.16 g/m*3 7.5 C 0 km/h
613 24-04-2006 06:13:02 7.4 C 6.2 g/m*3 7.4 C 0 km/h
614 24-04-2006 06:23:03 7.4 C 6.2 g/m*3 7.4 C 0 km/h
615 24-04-2006 06:33:02 7.4 C 6.2 g/m*3 7.4 C 0 km/h
616 24-04-2006 06:43:02 7.5 C 6.24 g/m*3 7.5 C 0 km/h
617 24-04-2006 06:53:02 7.5 C 6.24 g/m*3 7.5 C 0 km/h
618 24-04-2006 07:03:02 7.6 C 6.28 g/m*3 7.6 C 0 km/h
619 24-04-2006 07:13:02 7.5 C 6.24 g/m*3 7.5 C 0 km/h
620 24-04-2006 07:23:02 7.8 C 6.45 g/m*3 7.8 C 0 km/h
621 24-04-2006 07:33:02 8.1 C 6.41 g/m*3 8.1 C 0 km/h
622 24-04-2006 07:43:02 8 C 6.37 g/m*3 8 C 0 km/h
623 24-04-2006 07:53:02 8 C 6.37 g/m*3 8 C 0 km/h
624 24-04-2006 08:03:02 7.9 C 6.49 g/m*3 7.9 C 0 km/h
625 24-04-2006 08:13:02 8.4 C 6.62 g/m*3 8.4 C 0 km/h
Sensor: Nr:Datum:Temp:Abs-Feuchte:Windchill:Wind:
Aussen-T/F 626 24-04-2006 08:23:02 9 C 6.44 g/m*3 9 C 0 km/h
627 24-04-2006 08:33:03 9.3 C 6.47 g/m*3 9.3 C 0 km/h
628 24-04-2006 08:43:03 9.6 C 6.5 g/m*3 9.6 C 0 km/h
629 24-04-2006 08:53:02 9.9 C 6.63 g/m*3 9.9 C 0 km/h
630 24-04-2006 09:03:02 10.2 C 6.57 g/m*3 10.2 C 0 km/h
631 24-04-2006 09:13:02 10.7 C 6.68 g/m*3 10.7 C 0 km/h
632 24-04-2006 09:23:02 11 C 6.71 g/m*3 11 C 0 km/h
633 24-04-2006 09:33:02 11.7 C 6.8 g/m*3 11.7 C 0 km/h
634 24-04-2006 09:43:02 12.3 C 6.73 g/m*3 12.3 C 0 km/h
635 24-04-2006 09:53:02 12.9 C 6.99 g/m*3 12.9 C 0 km/h
636 24-04-2006 10:03:02 12.9 C 6.76 g/m*3 12.9 C 0 km/h
637 24-04-2006 10:13:02 12.8 C 6.72 g/m*3 12.8 C 0 km/h
638 24-04-2006 10:23:02 13.4 C 6.63 g/m*3 13.4 C 0 km/h
639 24-04-2006 10:33:02 13.8 C 6.55 g/m*3 13.8 C 0 km/h
640 24-04-2006 10:43:02 14.2 C 6.47 g/m*3 14.2 C 0 km/h
641 24-04-2006 10:53:02 14.8 C 6.59 g/m*3 14.8 C 0 km/h
642 24-04-2006 11:03:02 15.3 C 6.53 g/m*3 15.3 C 0 km/h
643 24-04-2006 11:13:02 15.9 C 6.37 g/m*3 15.9 C 0 km/h
644 24-04-2006 11:23:01 16.4 C 6.14 g/m*3 16.4 C 0 km/h
645 24-04-2006 11:33:02 17 C 6.22 g/m*3 17 C 0 km/h
646 24-04-2006 11:43:02 17.7 C 6.04 g/m*3 17.7 C 0 km/h
647 24-04-2006 11:53:02 18 C 5.68 g/m*3 18 C 0 km/h
648 24-04-2006 12:03:02 18.2 C 5.6 g/m*3 18.2 C 0 km/h
649 24-04-2006 12:13:02 17.9 C 5.65 g/m*3 17.9 C 0 km/h
650 24-04-2006 12:23:02 18.5 C 5.54 g/m*3 18.5 C 0 km/h
Sensor: Nr:Datum:Temp:Abs-Feuchte:Windchill:Wind:
Aussen-T/F 651 24-04-2006 12:33:01 18.5 C 5.06 g/m*3 18.5 C 0 km/h
652 24-04-2006 12:43:01 19.2 C 5.28 g/m*3 19.2 C 0 km/h
653 24-04-2006 12:53:02 19.4 C 4.67 g/m*3 19.4 C 0 km/h
654 24-04-2006 13:03:02 19.9 C 5.15 g/m*3 19.9 C 0 km/h
655 24-04-2006 13:13:02 20.1 C 4.69 g/m*3 20.1 C 0 km/h
656 24-04-2006 13:23:01 19.8 C 4.44 g/m*3 19.8 C 0 km/h
657 24-04-2006 13:33:02 20.5 C 4.45 g/m*3 20.5 C 0 km/h
658 24-04-2006 13:43:02 20.3 C 4.4 g/m*3 20.3 C 0 km/h
659 24-04-2006 13:53:02 20.8 C 4.53 g/m*3 20.8 C 0 km/h
660 24-04-2006 14:03:02 21.2 C 4.63 g/m*3 21.2 C 0 km/h
661 24-04-2006 14:13:02 21.5 C 4.71 g/m*3 21.5 C 0 km/h
662 24-04-2006 14:23:01 21.5 C 4.71 g/m*3 21.5 C 0 km/h
663 24-04-2006 14:33:02 22.1 C 4.88 g/m*3 22.1 C 0 km/h
664 24-04-2006 14:43:02 23.4 C 4.63 g/m*3 23.4 C 0 km/h
665 24-04-2006 14:53:02 23.3 C 4.81 g/m*3 23.3 C 0 km/h
666 24-04-2006 15:03:02 23.2 C 4.37 g/m*3 23.2 C 0 km/h
667 24-04-2006 15:13:02 23.6 C 4.25 g/m*3 23.6 C 0 km/h
668 24-04-2006 15:23:01 24.1 C 4.38 g/m*3 24.1 C 0 km/h
669 24-04-2006 15:33:02 24.6 C 4.5 g/m*3 24.6 C 0 km/h
670 24-04-2006 15:43:02 25.1 C 4.63 g/m*3 25.1 C 0 km/h
671 24-04-2006 15:53:02 25.7 C 4.79 g/m*3 25.7 C 0 km/h
672 24-04-2006 16:03:01 25.5 C 4.73 g/m*3 25.5 C 0 km/h
673 24-04-2006 16:13:01 25.7 C 4.79 g/m*3 25.7 C 0 km/h
674 24-04-2006 16:23:01 25 C 4.6 g/m*3 25 C 0 km/h
675 24-04-2006 16:33:02 25.5 C 4.73 g/m*3 25.5 C 0 km/h
Sensor: Nr:Datum:Temp:Abs-Feuchte:Windchill:Wind:
Aussen-T/F 676 24-04-2006 16:43:02 26.4 C 4.98 g/m*3 26.4 C 0 km/h
677 24-04-2006 16:53:02 26.8 C 5.09 g/m*3 26.8 C 0 km/h
678 24-04-2006 17:03:01 26.1 C 4.9 g/m*3 26.1 C 0 km/h
679 24-04-2006 17:13:01 26.5 C 5.01 g/m*3 26.5 C 0 km/h
680 24-04-2006 17:23:01 26.8 C 5.09 g/m*3 26.8 C 0 km/h
681 24-04-2006 17:33:02 27.1 C 5.18 g/m*3 27.1 C 0 km/h
682 24-04-2006 17:43:02 26.9 C 5.12 g/m*3 26.9 C 0 km/h
683 24-04-2006 17:53:02 26.7 C 5.06 g/m*3 26.7 C 0 km/h
684 24-04-2006 18:03:02 26.9 C 5.12 g/m*3 26.9 C 0 km/h
685 24-04-2006 18:13:02 27.2 C 5.2 g/m*3 27.2 C 0 km/h
686 24-04-2006 18:23:01 26.4 C 4.98 g/m*3 26.4 C 0 km/h
687 24-04-2006 18:33:02 25.9 C 4.84 g/m*3 25.9 C 0 km/h
688 24-04-2006 18:43:02 25.4 C 4.71 g/m*3 25.4 C 0 km/h
689 24-04-2006 18:53:02 25.4 C 4.71 g/m*3 25.4 C 0 km/h
690 24-04-2006 19:03:02 24.8 C 4.78 g/m*3 24.8 C 0 km/h
691 24-04-2006 19:13:02 24.2 C 4.62 g/m*3 24.2 C 0 km/h
692 24-04-2006 19:23:01 24.5 C 5.15 g/m*3 24.5 C 0 km/h
693 24-04-2006 19:33:02 24.8 C 5.24 g/m*3 24.8 C 0 km/h
694 24-04-2006 19:43:02 24.4 C 5.12 g/m*3 24.4 C 0 km/h
695 24-04-2006 19:53:02 23.1 C 5.58 g/m*3 23.1 C 0 km/h
696 24-04-2006 20:03:02 22.4 C 5.76 g/m*3 22.4 C 0 km/h
697 24-04-2006 20:13:02 21.1 C 5.71 g/m*3 21.1 C 0 km/h
698 24-04-2006 20:23:02 20.3 C 5.98 g/m*3 20.3 C 0 km/h
699 24-04-2006 20:33:01 19.6 C 6.08 g/m*3 19.6 C 0 km/h
700 24-04-2006 20:43:01 19.1 C 5.9 g/m*3 19.1 C 0 km/h
Sensor: Nr:Datum:Temp:Abs-Feuchte:Windchill:Wind:
Aussen-T/F 701 24-04-2006 20:53:02 18.5 C 6.01 g/m*3 18.5 C 0 km/h
702 24-04-2006 21:03:03 18.1 C 5.72 g/m*3 18.1 C 0 km/h
703 24-04-2006 21:13:03 17.9 C 5.95 g/m*3 17.9 C 0 km/h
704 24-04-2006 21:23:02 17.7 C 5.88 g/m*3 17.7 C 0 km/h
705 24-04-2006 21:33:02 17.3 C 5.75 g/m*3 17.3 C 0 km/h
706 24-04-2006 21:43:02 17.1 C 5.68 g/m*3 17.1 C 0 km/h
707 24-04-2006 21:53:02 16.7 C 5.68 g/m*3 16.7 C 0 km/h
708 24-04-2006 22:03:02 16.5 C 5.76 g/m*3 16.5 C 0 km/h
709 24-04-2006 22:13:02 16.3 C 5.69 g/m*3 16.3 C 0 km/h
710 24-04-2006 22:23:02 15.9 C 5.69 g/m*3 15.9 C 0 km/h
711 24-04-2006 22:33:02 15.8 C 5.65 g/m*3 15.8 C 0 km/h
712 24-04-2006 22:43:03 15.7 C 5.62 g/m*3 15.7 C 0 km/h
713 24-04-2006 22:53:03 15.4 C 5.52 g/m*3 15.4 C 0 km/h
714 24-04-2006 23:03:02 15.2 C 5.71 g/m*3 15.2 C 0 km/h
715 24-04-2006 23:13:02 14.9 C 5.99 g/m*3 14.9 C 0 km/h
716 24-04-2006 23:23:02 15 C 5.77 g/m*3 15 C 0 km/h
717 24-04-2006 23:33:03 14.9 C 5.99 g/m*3 14.9 C 0 km/h
718 24-04-2006 23:43:03 14.8 C 5.95 g/m*3 14.8 C 0 km/h
719 24-04-2006 23:53:02 14.7 C 5.92 g/m*3 14.7 C 0 km/h
720 25-04-2006 00:03:01 14.6 C 6.13 g/m*3 14.6 C 0 km/h
721 25-04-2006 00:13:01 14.3 C 6.14 g/m*3 14.3 C 0 km/h
722 25-04-2006 00:23:02 14 C 6.15 g/m*3 14 C 0 km/h
723 25-04-2006 00:33:02 14 C 6.27 g/m*3 14 C 0 km/h
724 25-04-2006 00:43:02 14.1 C 6.19 g/m*3 14.1 C 0 km/h
725 25-04-2006 00:53:02 14 C 6.27 g/m*3 14 C 0 km/h
Sensor: Nr:Datum:Temp:Abs-Feuchte:Windchill:Wind:
Aussen-T/F 726 25-04-2006 01:03:02 14.1 C 6.19 g/m*3 14.1 C 0 km/h
727 25-04-2006 01:13:02 14.1 C 5.95 g/m*3 14.1 C 0 km/h
728 25-04-2006 01:23:03 14.2 C 6.35 g/m*3 14.2 C 0 km/h
729 25-04-2006 01:33:02 14.2 C 6.23 g/m*3 14.2 C 0 km/h
730 25-04-2006 01:43:02 14.2 C 6.11 g/m*3 14.2 C 0 km/h
731 25-04-2006 01:53:02 14.2 C 6.11 g/m*3 14.2 C 0 km/h
732 25-04-2006 02:03:02 14 C 6.15 g/m*3 14 C 0 km/h
733 25-04-2006 02:13:02 14 C 6.15 g/m*3 14 C 0 km/h
734 25-04-2006 02:23:03 13.8 C 6.43 g/m*3 13.8 C 0 km/h
735 25-04-2006 02:33:02 13.7 C 6.51 g/m*3 13.7 C 0 km/h
736 25-04-2006 02:43:02 13.7 C 6.51 g/m*3 13.7 C 0 km/h
737 25-04-2006 02:54:04 13.7 C 6.63 g/m*3 13.7 C 0 km/h
738 25-04-2006 03:04:04 13.4 C 6.63 g/m*3 13.4 C 0 km/h
739 25-04-2006 03:14:03 13.2 C 6.32 g/m*3 13.2 C 0 km/h
740 25-04-2006 03:24:03 13.1 C 6.28 g/m*3 13.1 C 0 km/h
741 25-04-2006 03:34:02 13 C 6.35 g/m*3 13 C 0 km/h
742 25-04-2006 03:44:02 12.9 C 6.31 g/m*3 12.9 C 0 km/h
743 25-04-2006 03:54:02 12.8 C 6.27 g/m*3 12.8 C 0 km/h
744 25-04-2006 04:04:02 12.7 C 6.35 g/m*3 12.7 C 0 km/h
745 25-04-2006 04:14:02 12.2 C 6.47 g/m*3 12.2 C 0 km/h
746 25-04-2006 04:24:02 12 C 6.5 g/m*3 12 C 0 km/h
747 25-04-2006 04:34:02 11.7 C 6.48 g/m*3 11.7 C 0 km/h
748 25-04-2006 04:44:02 11.7 C 6.38 g/m*3 11.7 C 0 km/h
749 25-04-2006 04:54:02 11.7 C 6.38 g/m*3 11.7 C 0 km/h
750 25-04-2006 05:04:02 11.6 C 6.55 g/m*3 11.6 C 0 km/h
Sensor: Nr:Datum:Temp:Abs-Feuchte:Windchill:Wind:
Aussen-T/F 751 25-04-2006 05:14:02 11.5 C 6.51 g/m*3 11.5 C 0 km/h
752 25-04-2006 05:24:02 11.4 C 6.47 g/m*3 11.4 C 0 km/h
753 25-04-2006 05:34:02 11.3 C 6.53 g/m*3 11.3 C 0 km/h
754 25-04-2006 05:44:02 11 C 6.31 g/m*3 11 C 0 km/h
755 25-04-2006 05:54:02 10.7 C 6.19 g/m*3 10.7 C 0 km/h
756 25-04-2006 06:04:02 10.7 C 6.29 g/m*3 10.7 C 0 km/h
757 25-04-2006 06:14:02 10.7 C 6.19 g/m*3 10.7 C 0 km/h
758 25-04-2006 06:24:02 10.6 C 6.15 g/m*3 10.6 C 0 km/h
759 25-04-2006 06:34:02 10.7 C 6.38 g/m*3 10.7 C 0 km/h
760 25-04-2006 06:44:02 10.9 C 6.47 g/m*3 10.9 C 0 km/h
761 25-04-2006 06:54:01 11.3 C 6.32 g/m*3 11.3 C 0 km/h
762 25-04-2006 07:04:02 11.4 C 6.57 g/m*3 11.4 C 0 km/h
763 25-04-2006 07:14:02 11.5 C 6.82 g/m*3 11.5 C 0 km/h
764 25-04-2006 07:24:02 11.7 C 6.8 g/m*3 11.7 C 0 km/h
765 25-04-2006 07:34:02 11.8 C 6.95 g/m*3 11.8 C 0 km/h
766 25-04-2006 07:44:02 12 C 7.03 g/m*3 12 C 0 km/h
767 25-04-2006 07:54:03 11.9 C 7.1 g/m*3 11.9 C 0 km/h
768 25-04-2006 08:04:02 12.1 C 7.08 g/m*3 12.1 C 0 km/h
769 25-04-2006 08:14:02 12.3 C 7.06 g/m*3 12.3 C 0 km/h
770 25-04-2006 08:24:02 12.2 C 7.12 g/m*3 12.2 C 0 km/h
771 25-04-2006 08:34:02 12.2 C 7.01 g/m*3 12.2 C 0 km/h
772 25-04-2006 08:44:02 12.1 C 7.08 g/m*3 12.1 C 0 km/h
773 25-04-2006 08:54:02 12.5 C 7.04 g/m*3 12.5 C 0 km/h
774 25-04-2006 09:04:01 12.7 C 7.12 g/m*3 12.7 C 0 km/h
775 25-04-2006 09:14:01 12.8 C 7.17 g/m*3 12.8 C 0 km/h
Sensor: Nr:Datum:Temp:Abs-Feuchte:Windchill:Wind:
Aussen-T/F 776 25-04-2006 09:24:01 12.9 C 7.1 g/m*3 12.9 C 0 km/h
777 25-04-2006 09:34:03 13.4 C 7.09 g/m*3 13.4 C 0 km/h
778 25-04-2006 09:44:03 14 C 7 g/m*3 14 C 0 km/h
779 25-04-2006 09:54:01 14.5 C 6.84 g/m*3 14.5 C 0 km/h
780 25-04-2006 10:04:02 15 C 6.67 g/m*3 15 C 0 km/h
781 25-04-2006 10:14:02 15.6 C 6.92 g/m*3 15.6 C 0 km/h
782 25-04-2006 10:24:02 16 C 6.68 g/m*3 16 C 0 km/h
783 25-04-2006 10:34:02 16.2 C 6.62 g/m*3 16.2 C 0 km/h
784 25-04-2006 10:44:03 16.7 C 6.54 g/m*3 16.7 C 0 km/h
785 25-04-2006 10:54:02 17.6 C 6.6 g/m*3 17.6 C 0 km/h
786 25-04-2006 11:04:02 18.9 C 6.8 g/m*3 18.9 C 0 km/h
787 25-04-2006 11:14:02 19.6 C 6.75 g/m*3 19.6 C 0 km/h
788 25-04-2006 11:24:02 20.2 C 6.64 g/m*3 20.2 C 0 km/h
789 25-04-2006 11:34:03 21.2 C 6.49 g/m*3 21.2 C 0 km/h
790 25-04-2006 11:44:03 21.3 C 6.71 g/m*3 21.3 C 0 km/h
791 25-04-2006 11:54:02 21.1 C 6.45 g/m*3 21.1 C 0 km/h
792 25-04-2006 12:04:02 20.5 C 6.76 g/m*3 20.5 C 0 km/h
793 25-04-2006 12:14:02 20.6 C 6.98 g/m*3 20.6 C 0 km/h
794 25-04-2006 12:24:02 21 C 6.41 g/m*3 21 C 0 km/h
795 25-04-2006 12:34:02 20.9 C 6.37 g/m*3 20.9 C 0 km/h
796 25-04-2006 12:44:02 20.5 C 6.23 g/m*3 20.5 C 0 km/h
797 25-04-2006 12:54:02 21.4 C 6.19 g/m*3 21.4 C 0 km/h
798 25-04-2006 13:04:02 21.2 C 5.93 g/m*3 21.2 C 0 km/h
799 25-04-2006 13:14:02 21.1 C 6.08 g/m*3 21.1 C 0 km/h
800 25-04-2006 13:24:02 21.3 C 5.96 g/m*3 21.3 C 0 km/h
Sensor: Nr:Datum:Temp:Abs-Feuchte:Windchill:Wind:
Aussen-T/F 801 25-04-2006 13:34:03 21.2 C 5.74 g/m*3 21.2 C 0 km/h
802 25-04-2006 13:44:03 21.7 C 5.72 g/m*3 21.7 C 0 km/h
803 25-04-2006 13:54:02 21.9 C 5.79 g/m*3 21.9 C 0 km/h
804 25-04-2006 14:04:02 22.3 C 5.92 g/m*3 22.3 C 0 km/h
805 25-04-2006 14:14:02 22.8 C 5.89 g/m*3 22.8 C 0 km/h
806 25-04-2006 14:24:02 23.2 C 5.41 g/m*3 23.2 C 0 km/h
807 25-04-2006 14:34:03 23.5 C 5.92 g/m*3 23.5 C 0 km/h
808 25-04-2006 14:44:03 23.8 C 6.02 g/m*3 23.8 C 0 km/h
809 25-04-2006 14:54:02 24.4 C 6.01 g/m*3 24.4 C 0 km/h
810 25-04-2006 15:04:02 24.6 C 5.85 g/m*3 24.6 C 0 km/h
811 25-04-2006 15:14:02 24.4 C 5.79 g/m*3 24.4 C 0 km/h
812 25-04-2006 15:24:02 24.1 C 6.13 g/m*3 24.1 C 0 km/h
813 25-04-2006 15:34:03 23.9 C 6.49 g/m*3 23.9 C 0 km/h
814 25-04-2006 15:44:03 23.9 C 6.49 g/m*3 23.9 C 0 km/h
815 25-04-2006 15:54:02 24 C 5.87 g/m*3 24 C 0 km/h
816 25-04-2006 16:04:02 23.9 C 5.84 g/m*3 23.9 C 0 km/h
817 25-04-2006 16:14:02 26.1 C 5.63 g/m*3 26.1 C 0 km/h
818 25-04-2006 16:24:02 27 C 5.66 g/m*3 27 C 0 km/h
819 25-04-2006 16:34:03 27.3 C 5.49 g/m*3 27.3 C 0 km/h
820 25-04-2006 16:44:03 27.7 C 5.88 g/m*3 27.7 C 0 km/h
821 25-04-2006 16:54:02 27.7 C 5.88 g/m*3 27.7 C 0 km/h
822 25-04-2006 17:04:02 27.7 C 6.42 g/m*3 27.7 C 0 km/h
823 25-04-2006 17:14:02 27.4 C 6.31 g/m*3 27.4 C 0 km/h
824 25-04-2006 17:24:02 27.2 C 6.25 g/m*3 27.2 C 0 km/h
825 25-04-2006 17:34:02 26.5 C 6.51 g/m*3 26.5 C 0 km/h
Sensor: Nr:Datum:Temp:Abs-Feuchte:Windchill:Wind:
Aussen-T/F 826 25-04-2006 17:44:02 25 C 6.68 g/m*3 25 C 0 km/h
827 25-04-2006 17:54:02 23.9 C 7.36 g/m*3 23.9 C 0 km/h
828 25-04-2006 18:04:01 23.1 C 7.44 g/m*3 23.1 C 0 km/h
829 25-04-2006 18:14:01 23 C 7.6 g/m*3 23 C 0 km/h
830 25-04-2006 18:24:01 22.7 C 7.88 g/m*3 22.7 C 0 km/h
831 25-04-2006 18:34:02 22.5 C 7.99 g/m*3 22.5 C 0 km/h
832 25-04-2006 18:44:02 22 C 7.96 g/m*3 22 C 0 km/h
833 25-04-2006 18:54:02 22.1 C 8.2 g/m*3 22.1 C 0 km/h
834 25-04-2006 19:04:01 22.1 C 8.59 g/m*3 22.1 C 0 km/h
835 25-04-2006 19:14:01 21.7 C 8.77 g/m*3 21.7 C 0 km/h
836 25-04-2006 19:24:01 21.5 C 8.67 g/m*3 21.5 C 0 km/h
837 25-04-2006 19:34:02 21.2 C 8.52 g/m*3 21.2 C 0 km/h
838 25-04-2006 19:44:02 20.7 C 8.64 g/m*3 20.7 C 0 km/h
839 25-04-2006 19:54:02 20.5 C 8.72 g/m*3 20.5 C 0 km/h
840 25-04-2006 20:04:01 19.8 C 8.71 g/m*3 19.8 C 0 km/h
841 25-04-2006 20:14:01 19.7 C 8.83 g/m*3 19.7 C 0 km/h
842 25-04-2006 20:24:01 19.7 C 8.49 g/m*3 19.7 C 0 km/h
843 25-04-2006 20:34:02 19.6 C 8.78 g/m*3 19.6 C 0 km/h
844 25-04-2006 20:44:02 19.2 C 8.57 g/m*3 19.2 C 0 km/h
845 25-04-2006 20:54:02 19.2 C 8.41 g/m*3 19.2 C 0 km/h
846 25-04-2006 21:04:02 19.1 C 8.52 g/m*3 19.1 C 0 km/h
847 25-04-2006 21:14:02 18.9 C 8.59 g/m*3 18.9 C 0 km/h
848 25-04-2006 21:24:02 18.7 C 8.81 g/m*3 18.7 C 0 km/h
849 25-04-2006 21:34:03 18.3 C 8.91 g/m*3 18.3 C 0 km/h
850 25-04-2006 21:44:03 18.2 C 8.86 g/m*3 18.2 C 0 km/h
Sensor: Nr:Datum:Temp:Abs-Feuchte:Windchill:Wind:
Aussen-T/F 851 25-04-2006 21:54:03 18 C 8.91 g/m*3 18 C 0 km/h
852 25-04-2006 22:04:02 18 C 8.91 g/m*3 18 C 0 km/h
853 25-04-2006 22:14:02 18 C 8.91 g/m*3 18 C 0 km/h
854 25-04-2006 22:24:02 17.9 C 9.16 g/m*3 17.9 C 0 km/h
855 25-04-2006 22:34:02 17.5 C 8.95 g/m*3 17.5 C 0 km/h
856 25-04-2006 22:44:02 17.6 C 9 g/m*3 17.6 C 0 km/h
857 25-04-2006 22:54:01 17.5 C 8.95 g/m*3 17.5 C 0 km/h
858 25-04-2006 23:04:01 17.4 C 8.89 g/m*3 17.4 C 0 km/h
859 25-04-2006 23:14:01 17.4 C 9.04 g/m*3 17.4 C 0 km/h
860 25-04-2006 23:24:01 17.3 C 8.99 g/m*3 17.3 C 0 km/h
861 25-04-2006 23:34:02 17 C 8.97 g/m*3 17 C 0 km/h
862 25-04-2006 23:44:02 17 C 8.97 g/m*3 17 C 0 km/h
863 25-04-2006 23:54:02 17 C 9.12 g/m*3 17 C 0 km/h
864 26-04-2006 00:04:02 16.9 C 9.21 g/m*3 16.9 C 0 km/h
865 26-04-2006 00:14:02 16.9 C 9.35 g/m*3 16.9 C 0 km/h
866 26-04-2006 00:24:03 16.8 C 9.44 g/m*3 16.8 C 0 km/h
867 26-04-2006 00:34:02 16.6 C 9.61 g/m*3 16.6 C 0 km/h
868 26-04-2006 00:44:02 16.3 C 9.57 g/m*3 16.3 C 0 km/h
869 26-04-2006 00:54:03 16.2 C 9.65 g/m*3 16.2 C 0 km/h
870 26-04-2006 01:04:03 16 C 9.67 g/m*3 16 C 0 km/h
871 26-04-2006 01:14:03 15.7 C 9.77 g/m*3 15.7 C 0 km/h
872 26-04-2006 01:24:02 15.7 C 9.9 g/m*3 15.7 C 0 km/h
873 26-04-2006 01:34:02 15.8 C 9.96 g/m*3 15.8 C 0 km/h
874 26-04-2006 01:44:02 15.9 C 10.02 g/m*3 15.9 C 0 km/h
875 26-04-2006 01:54:02 15.8 C 9.96 g/m*3 15.8 C 0 km/h
Sensor: Nr:Datum:Temp:Abs-Feuchte:Windchill:Wind:
Aussen-T/F 876 26-04-2006 02:04:02 15.6 C 9.97 g/m*3 15.6 C 0 km/h
877 26-04-2006 02:14:02 15.5 C 10.05 g/m*3 15.5 C 0 km/h
878 26-04-2006 02:24:01 15.5 C 10.05 g/m*3 15.5 C 0 km/h
879 26-04-2006 02:34:01 15.6 C 9.97 g/m*3 15.6 C 0 km/h
880 26-04-2006 02:44:01 15.4 C 9.99 g/m*3 15.4 C 0 km/h
881 26-04-2006 02:55:04 15.2 C 9.99 g/m*3 15.2 C 0 km/h
882 26-04-2006 03:05:04 15.4 C 10.12 g/m*3 15.4 C 0 km/h
883 26-04-2006 03:15:04 15.4 C 9.99 g/m*3 15.4 C 0 km/h
884 26-04-2006 03:25:04 15.4 C 9.99 g/m*3 15.4 C 0 km/h
885 26-04-2006 03:35:03 15.4 C 9.99 g/m*3 15.4 C 0 km/h
886 26-04-2006 03:45:03 15.3 C 9.92 g/m*3 15.3 C 0 km/h
887 26-04-2006 03:55:03 15.2 C 9.99 g/m*3 15.2 C 0 km/h
888 26-04-2006 04:05:02 15.2 C 9.86 g/m*3 15.2 C 0 km/h
889 26-04-2006 04:15:02 15.1 C 9.93 g/m*3 15.1 C 0 km/h
890 26-04-2006 04:25:03 15 C 10 g/m*3 15 C 0 km/h
891 26-04-2006 04:35:02 14.8 C 10.01 g/m*3 14.8 C 0 km/h
892 26-04-2006 04:45:02 14.8 C 10.01 g/m*3 14.8 C 0 km/h
893 26-04-2006 04:55:03 14.8 C 10.13 g/m*3 14.8 C 0 km/h
894 26-04-2006 05:05:02 14.8 C 10.01 g/m*3 14.8 C 0 km/h
895 26-04-2006 05:15:02 14.8 C 10.01 g/m*3 14.8 C 0 km/h
896 26-04-2006 05:25:03 14.7 C 10.07 g/m*3 14.7 C 0 km/h
897 26-04-2006 05:35:02 14.7 C 10.07 g/m*3 14.7 C 0 km/h
898 26-04-2006 05:45:01 14.7 C 10.07 g/m*3 14.7 C 0 km/h
899 26-04-2006 05:55:01 14.7 C 10.07 g/m*3 14.7 C 0 km/h
900 26-04-2006 06:05:01 14.7 C 10.07 g/m*3 14.7 C 0 km/h
Sensor: Nr:Datum:Temp:Abs-Feuchte:Windchill:Wind:
Aussen-T/F 901 26-04-2006 06:15:02 14.5 C 9.95 g/m*3 14.5 C 0 km/h
902 26-04-2006 06:25:02 14.5 C 9.95 g/m*3 14.5 C 0 km/h
903 26-04-2006 06:35:02 14.5 C 10.07 g/m*3 14.5 C 0 km/h
904 26-04-2006 06:45:02 14.5 C 10.07 g/m*3 14.5 C 0 km/h
905 26-04-2006 06:55:02 14.7 C 10.2 g/m*3 14.7 C 0 km/h
906 26-04-2006 07:05:02 14.4 C 9.89 g/m*3 14.4 C 0 km/h
907 26-04-2006 07:15:02 14.3 C 9.71 g/m*3 14.3 C 0 km/h
908 26-04-2006 07:25:02 14.4 C 9.64 g/m*3 14.4 C 0 km/h
909 26-04-2006 07:35:02 14.2 C 9.77 g/m*3 14.2 C 0 km/h
910 26-04-2006 07:45:02 13.9 C 9.95 g/m*3 13.9 C 0 km/h
911 26-04-2006 07:55:02 13.7 C 10.07 g/m*3 13.7 C 0 km/h
912 26-04-2006 08:05:02 13.5 C 10.18 g/m*3 13.5 C 0 km/h
913 26-04-2006 08:15:02 13.3 C 10.17 g/m*3 13.3 C 0 km/h
914 26-04-2006 08:25:02 13.3 C 10.28 g/m*3 13.3 C 0 km/h
915 26-04-2006 08:35:02 13.4 C 10.46 g/m*3 13.4 C 0 km/h
916 26-04-2006 08:45:02 13.5 C 10.64 g/m*3 13.5 C 0 km/h
917 26-04-2006 08:55:03 13.5 C 10.64 g/m*3 13.5 C 0 km/h
918 26-04-2006 09:05:02 13.6 C 10.71 g/m*3 13.6 C 0 km/h
919 26-04-2006 09:15:02 13.7 C 10.78 g/m*3 13.7 C 0 km/h
920 26-04-2006 09:25:02 13.5 C 10.64 g/m*3 13.5 C 0 km/h
921 26-04-2006 09:35:02 13.7 C 10.78 g/m*3 13.7 C 0 km/h
922 26-04-2006 09:45:02 13.4 C 10.58 g/m*3 13.4 C 0 km/h
923 26-04-2006 09:55:03 13.6 C 10.71 g/m*3 13.6 C 0 km/h
924 26-04-2006 10:05:02 13.4 C 10.58 g/m*3 13.4 C 0 km/h
925 26-04-2006 10:15:02 13.8 C 10.96 g/m*3 13.8 C 0 km/h
Sensor: Nr:Datum:Temp:Abs-Feuchte:Windchill:Wind:
Aussen-T/F 926 26-04-2006 10:25:02 14 C 10.98 g/m*3 14 C 0 km/h
927 26-04-2006 10:35:03 14 C 10.98 g/m*3 14 C 0 km/h
928 26-04-2006 10:45:02 14 C 10.98 g/m*3 14 C 0 km/h
929 26-04-2006 10:55:02 14 C 10.98 g/m*3 14 C 0 km/h
930 26-04-2006 11:05:02 14 C 10.98 g/m*3 14 C 0 km/h
931 26-04-2006 11:15:02 14 C 10.86 g/m*3 14 C 0 km/h
932 26-04-2006 11:25:02 14 C 10.74 g/m*3 14 C 0 km/h
933 26-04-2006 11:35:02 14 C 10.74 g/m*3 14 C 0 km/h
934 26-04-2006 11:45:02 14.5 C 11.19 g/m*3 14.5 C 0 km/h
935 26-04-2006 11:55:03 14.8 C 11.15 g/m*3 14.8 C 0 km/h
936 26-04-2006 12:05:02 15 C 11.03 g/m*3 15 C 0 km/h
937 26-04-2006 12:15:01 15.1 C 10.97 g/m*3 15.1 C 0 km/h
938 26-04-2006 12:25:01 15 C 10.77 g/m*3 15 C 0 km/h
939 26-04-2006 12:35:02 15.1 C 10.84 g/m*3 15.1 C 0 km/h
940 26-04-2006 12:45:02 15.6 C 11.17 g/m*3 15.6 C 0 km/h
941 26-04-2006 12:55:02 15.7 C 10.84 g/m*3 15.7 C 0 km/h
942 26-04-2006 13:05:02 15.9 C 11.1 g/m*3 15.9 C 0 km/h
943 26-04-2006 13:15:01 15.9 C 10.97 g/m*3 15.9 C 0 km/h
944 26-04-2006 13:25:01 16 C 10.9 g/m*3 16 C 0 km/h
945 26-04-2006 13:35:02 16.1 C 10.83 g/m*3 16.1 C 0 km/h
946 26-04-2006 13:45:02 16.1 C 10.83 g/m*3 16.1 C 0 km/h
947 26-04-2006 13:55:02 16.5 C 10.95 g/m*3 16.5 C 0 km/h
948 26-04-2006 14:05:02 16.7 C 11.08 g/m*3 16.7 C 0 km/h
949 26-04-2006 14:15:01 17 C 11 g/m*3 17 C 0 km/h
950 26-04-2006 14:25:01 17.2 C 10.84 g/m*3 17.2 C 0 km/h
Sensor: Nr:Datum:Temp:Abs-Feuchte:Windchill:Wind:
Aussen-T/F 951 26-04-2006 14:35:02 17.6 C 10.8 g/m*3 17.6 C 0 km/h
952 26-04-2006 14:45:02 18 C 10.44 g/m*3 18 C 0 km/h
953 26-04-2006 14:55:03 18.2 C 10.1 g/m*3 18.2 C 0 km/h
954 26-04-2006 15:05:02 18.3 C 9.85 g/m*3 18.3 C 0 km/h
955 26-04-2006 15:15:01 17.9 C 9.47 g/m*3 17.9 C 0 km/h
956 26-04-2006 15:25:01 17.7 C 9.66 g/m*3 17.7 C 0 km/h
957 26-04-2006 15:35:02 17.5 C 9.69 g/m*3 17.5 C 0 km/h
958 26-04-2006 15:45:02 18 C 9.68 g/m*3 18 C 0 km/h
959 26-04-2006 15:55:02 18 C 9.52 g/m*3 18 C 0 km/h
960 26-04-2006 16:05:01 17.7 C 9.35 g/m*3 17.7 C 0 km/h
961 26-04-2006 16:15:01 17.2 C 9.23 g/m*3 17.2 C 0 km/h
962 26-04-2006 16:25:01 17.3 C 9.58 g/m*3 17.3 C 0 km/h
963 26-04-2006 16:35:02 17.2 C 9.37 g/m*3 17.2 C 0 km/h
964 26-04-2006 16:45:02 17.2 C 9.08 g/m*3 17.2 C 0 km/h
965 26-04-2006 16:55:02 17.5 C 9.24 g/m*3 17.5 C 0 km/h
966 26-04-2006 17:05:02 17.7 C 9.2 g/m*3 17.7 C 0 km/h
967 26-04-2006 17:15:02 17.3 C 8.84 g/m*3 17.3 C 0 km/h
968 26-04-2006 17:25:02 17.3 C 8.84 g/m*3 17.3 C 0 km/h
969 26-04-2006 17:35:02 17.4 C 8.89 g/m*3 17.4 C 0 km/h
970 26-04-2006 17:45:01 17.5 C 8.95 g/m*3 17.5 C 0 km/h
971 26-04-2006 17:55:01 17.1 C 8.73 g/m*3 17.1 C 0 km/h
972 26-04-2006 18:05:02 16.9 C 8.77 g/m*3 16.9 C 0 km/h
973 26-04-2006 18:15:02 16.6 C 8.9 g/m*3 16.6 C 0 km/h
974 26-04-2006 18:25:03 16.2 C 8.96 g/m*3 16.2 C 0 km/h
975 26-04-2006 18:35:02 15.4 C 9.59 g/m*3 15.4 C 0 km/h
Sensor: Nr:Datum:Temp:Abs-Feuchte:Windchill:Wind:
Aussen-T/F 976 26-04-2006 18:45:02 15 C 9.62 g/m*3 15 C 0 km/h
977 26-04-2006 18:55:03 14.8 C 10.01 g/m*3 14.8 C 0 km/h
978 26-04-2006 19:05:02 14.7 C 9.95 g/m*3 14.7 C 0 km/h
979 26-04-2006 19:15:02 14.5 C 9.7 g/m*3 14.5 C 0 km/h
980 26-04-2006 19:25:02 14.2 C 9.52 g/m*3 14.2 C 0 km/h
981 26-04-2006 19:35:03 14.2 C 9.4 g/m*3 14.2 C 0 km/h
982 26-04-2006 19:45:02 14.3 C 9.34 g/m*3 14.3 C 0 km/h
983 26-04-2006 19:55:03 14.5 C 9.33 g/m*3 14.5 C 0 km/h
984 26-04-2006 20:05:02 14.8 C 9.5 g/m*3 14.8 C 0 km/h
985 26-04-2006 20:15:02 14.8 C 9.5 g/m*3 14.8 C 0 km/h
986 26-04-2006 20:25:02 14.8 C 9.5 g/m*3 14.8 C 0 km/h
987 26-04-2006 20:35:02 14.8 C 9.75 g/m*3 14.8 C 0 km/h
988 26-04-2006 20:45:03 14.6 C 9.76 g/m*3 14.6 C 0 km/h
989 26-04-2006 20:55:03 14.4 C 9.64 g/m*3 14.4 C 0 km/h
990 26-04-2006 21:05:03 14.2 C 9.28 g/m*3 14.2 C 0 km/h
991 26-04-2006 21:15:02 14.2 C 9.28 g/m*3 14.2 C 0 km/h
992 26-04-2006 21:25:02 14.5 C 9.45 g/m*3 14.5 C 0 km/h
993 26-04-2006 21:35:02 14.4 C 9.39 g/m*3 14.4 C 0 km/h
994 26-04-2006 21:45:02 14.4 C 9.39 g/m*3 14.4 C 0 km/h
995 26-04-2006 21:55:03 14.4 C 9.52 g/m*3 14.4 C 0 km/h
996 26-04-2006 22:05:01 14.3 C 9.46 g/m*3 14.3 C 0 km/h
997 26-04-2006 22:15:01 14.2 C 9.52 g/m*3 14.2 C 0 km/h
998 26-04-2006 22:25:01 14.1 C 9.59 g/m*3 14.1 C 0 km/h
999 26-04-2006 22:35:02 14.1 C 9.47 g/m*3 14.1 C 0 km/h
1000 26-04-2006 22:45:01 14.1 C 9.47 g/m*3 14.1 C 0 km/h
Sensor: Nr:Datum:Temp:Abs-Feuchte:Windchill:Wind:
Aussen-T/F 1001 26-04-2006 22:55:01 14.1 C 9.71 g/m*3 14.1 C 0 km/h
1002 26-04-2006 23:05:01 14 C 9.65 g/m*3 14 C 0 km/h
1003 26-04-2006 23:15:01 13.9 C 9.59 g/m*3 13.9 C 0 km/h
1004 26-04-2006 23:25:01 13.9 C 9.59 g/m*3 13.9 C 0 km/h
1005 26-04-2006 23:35:02 13.9 C 9.71 g/m*3 13.9 C 0 km/h
1006 26-04-2006 23:45:02 13.9 C 9.71 g/m*3 13.9 C 0 km/h
1007 26-04-2006 23:55:02 13.8 C 9.65 g/m*3 13.8 C 0 km/h
1008 27-04-2006 00:05:02 13.8 C 9.77 g/m*3 13.8 C 0 km/h
1009 27-04-2006 00:15:03 13.7 C 9.83 g/m*3 13.7 C 0 km/h
1010 27-04-2006 00:25:03 13.7 C 9.83 g/m*3 13.7 C 0 km/h
1011 27-04-2006 00:35:03 13.6 C 9.65 g/m*3 13.6 C 0 km/h
1012 27-04-2006 00:45:02 13.6 C 9.65 g/m*3 13.6 C 0 km/h
1013 27-04-2006 00:55:02 13.6 C 9.53 g/m*3 13.6 C 0 km/h
1014 27-04-2006 01:05:01 13.7 C 9.59 g/m*3 13.7 C 0 km/h
1015 27-04-2006 01:15:02 13.7 C 9.59 g/m*3 13.7 C 0 km/h
1016 27-04-2006 01:25:03 13.7 C 9.47 g/m*3 13.7 C 0 km/h
1017 27-04-2006 01:35:02 13.7 C 9.47 g/m*3 13.7 C 0 km/h
1018 27-04-2006 01:45:02 13.7 C 9.47 g/m*3 13.7 C 0 km/h
1019 27-04-2006 01:55:02 13.6 C 9.42 g/m*3 13.6 C 0 km/h
1020 27-04-2006 02:05:02 13.6 C 9.42 g/m*3 13.6 C 0 km/h
1021 27-04-2006 02:15:02 13.6 C 9.42 g/m*3 13.6 C 0 km/h
1022 27-04-2006 02:25:02 13.6 C 9.42 g/m*3 13.6 C 0 km/h
1023 27-04-2006 02:35:02 13.6 C 9.42 g/m*3 13.6 C 0 km/h
1024 27-04-2006 02:46:03 13.5 C 9.36 g/m*3 13.5 C 0 km/h
1025 27-04-2006 02:56:03 13.5 C 9.36 g/m*3 13.5 C 0 km/h
Sensor: Nr:Datum:Temp:Abs-Feuchte:Windchill:Wind:
Aussen-T/F 1026 27-04-2006 03:06:03 13.4 C 9.42 g/m*3 13.4 C 0 km/h
1027 27-04-2006 03:16:04 13.5 C 9.36 g/m*3 13.5 C 0 km/h
1028 27-04-2006 03:26:04 13.4 C 9.3 g/m*3 13.4 C 0 km/h
1029 27-04-2006 03:36:02 13.4 C 9.3 g/m*3 13.4 C 0 km/h
1030 27-04-2006 03:46:02 13.3 C 9.24 g/m*3 13.3 C 0 km/h
1031 27-04-2006 03:56:02 13.1 C 9.01 g/m*3 13.1 C 0 km/h
1032 27-04-2006 04:06:02 13.1 C 9.01 g/m*3 13.1 C 0 km/h
1033 27-04-2006 04:16:01 13 C 8.96 g/m*3 13 C 0 km/h
1034 27-04-2006 04:26:01 12.9 C 8.9 g/m*3 12.9 C 0 km/h
1035 27-04-2006 04:36:01 12.8 C 8.74 g/m*3 12.8 C 0 km/h
1036 27-04-2006 04:46:02 12.7 C 8.68 g/m*3 12.7 C 0 km/h
1037 27-04-2006 04:56:02 12.5 C 8.58 g/m*3 12.5 C 0 km/h
1038 27-04-2006 05:06:02 12.5 C 8.47 g/m*3 12.5 C 0 km/h
1039 27-04-2006 05:16:02 12.5 C 8.36 g/m*3 12.5 C 0 km/h
1040 27-04-2006 05:26:02 12.5 C 8.36 g/m*3 12.5 C 0 km/h
1041 27-04-2006 05:36:02 12.3 C 8.25 g/m*3 12.3 C 0 km/h
1042 27-04-2006 05:46:02 12.3 C 8.25 g/m*3 12.3 C 0 km/h
1043 27-04-2006 05:56:02 12.3 C 8.25 g/m*3 12.3 C 0 km/h
1044 27-04-2006 06:06:01 12.2 C 8.2 g/m*3 12.2 C 0 km/h
1045 27-04-2006 06:16:02 12.3 C 8.36 g/m*3 12.3 C 0 km/h
1046 27-04-2006 06:26:02 12.4 C 8.3 g/m*3 12.4 C 0 km/h
1047 27-04-2006 06:36:02 12.3 C 8.25 g/m*3 12.3 C 0 km/h
1048 27-04-2006 06:46:02 12.3 C 8.25 g/m*3 12.3 C 0 km/h
1049 27-04-2006 06:56:02 12.4 C 8.3 g/m*3 12.4 C 0 km/h
1050 27-04-2006 07:06:02 12.3 C 8.25 g/m*3 12.3 C 0 km/h
Sensor: Nr:Datum:Temp:Abs-Feuchte:Windchill:Wind:
Aussen-T/F 1051 27-04-2006 07:16:01 12.2 C 8.31 g/m*3 12.2 C 0 km/h
1052 27-04-2006 07:26:01 12.4 C 8.41 g/m*3 12.4 C 0 km/h
1053 27-04-2006 07:36:01 12.3 C 8.36 g/m*3 12.3 C 0 km/h
1054 27-04-2006 07:46:02 12.3 C 8.36 g/m*3 12.3 C 0 km/h
1055 27-04-2006 07:56:03 12.4 C 8.52 g/m*3 12.4 C 0 km/h
1056 27-04-2006 08:06:02 12.4 C 8.41 g/m*3 12.4 C 0 km/h
1057 27-04-2006 08:16:01 12.3 C 8.36 g/m*3 12.3 C 0 km/h
1058 27-04-2006 08:26:01 12.2 C 8.42 g/m*3 12.2 C 0 km/h
1059 27-04-2006 08:36:01 12.3 C 8.47 g/m*3 12.3 C 0 km/h
1060 27-04-2006 08:46:02 12.3 C 8.47 g/m*3 12.3 C 0 km/h
1061 27-04-2006 08:56:03 12.4 C 8.52 g/m*3 12.4 C 0 km/h
1062 27-04-2006 09:06:02 12.2 C 8.42 g/m*3 12.2 C 0 km/h
1063 27-04-2006 09:16:01 12 C 8.42 g/m*3 12 C 0 km/h
1064 27-04-2006 09:26:01 12 C 8.53 g/m*3 12 C 0 km/h
1065 27-04-2006 09:36:01 12.2 C 8.63 g/m*3 12.2 C 0 km/h
1066 27-04-2006 09:46:02 12.4 C 8.63 g/m*3 12.4 C 0 km/h
1067 27-04-2006 09:56:02 12.4 C 8.63 g/m*3 12.4 C 0 km/h
1068 27-04-2006 10:06:02 12.2 C 8.52 g/m*3 12.2 C 0 km/h
1069 27-04-2006 10:16:01 12.2 C 8.63 g/m*3 12.2 C 0 km/h
1070 27-04-2006 10:26:01 12.4 C 8.85 g/m*3 12.4 C 0 km/h
1071 27-04-2006 10:36:01 12.3 C 8.8 g/m*3 12.3 C 0 km/h
1072 27-04-2006 10:46:02 12.3 C 8.8 g/m*3 12.3 C 0 km/h
1073 27-04-2006 10:56:02 12.3 C 8.8 g/m*3 12.3 C 0 km/h
1074 27-04-2006 11:06:02 12.3 C 8.8 g/m*3 12.3 C 0 km/h
1075 27-04-2006 11:16:01 12.3 C 8.8 g/m*3 12.3 C 0 km/h
Sensor: Nr:Datum:Temp:Abs-Feuchte:Windchill:Wind:
Aussen-T/F 1076 27-04-2006 11:26:01 12.4 C 8.74 g/m*3 12.4 C 0 km/h
1077 27-04-2006 11:36:01 12.5 C 8.91 g/m*3 12.5 C 0 km/h
1078 27-04-2006 11:46:02 12.4 C 8.85 g/m*3 12.4 C 0 km/h
1079 27-04-2006 11:56:02 12.3 C 8.9 g/m*3 12.3 C 0 km/h
1080 27-04-2006 12:06:02 12.3 C 8.9 g/m*3 12.3 C 0 km/h
1081 27-04-2006 12:16:01 12.3 C 9.12 g/m*3 12.3 C 0 km/h
1082 27-04-2006 12:26:01 12.1 C 9.01 g/m*3 12.1 C 0 km/h
1083 27-04-2006 12:36:01 12 C 9.06 g/m*3 12 C 0 km/h
1084 27-04-2006 12:46:02 12.1 C 9.22 g/m*3 12.1 C 0 km/h
1085 27-04-2006 12:56:03 12 C 9.17 g/m*3 12 C 0 km/h
1086 27-04-2006 13:06:01 12.4 C 9.29 g/m*3 12.4 C 0 km/h
1087 27-04-2006 13:16:01 12 C 9.06 g/m*3 12 C 0 km/h
1088 27-04-2006 13:26:01 12 C 8.95 g/m*3 12 C 0 km/h
1089 27-04-2006 13:36:02 12.1 C 9.01 g/m*3 12.1 C 0 km/h
1090 27-04-2006 13:46:02 12.1 C 8.9 g/m*3 12.1 C 0 km/h
1091 27-04-2006 13:56:03 12.2 C 9.06 g/m*3 12.2 C 0 km/h
1092 27-04-2006 14:06:01 12.3 C 8.9 g/m*3 12.3 C 0 km/h
1093 27-04-2006 14:16:01 12.5 C 9.02 g/m*3 12.5 C 0 km/h
1094 27-04-2006 14:26:01 12.6 C 8.85 g/m*3 12.6 C 0 km/h
1095 27-04-2006 14:36:02 12.7 C 8.68 g/m*3 12.7 C 0 km/h
1096 27-04-2006 14:46:02 12.8 C 8.74 g/m*3 12.8 C 0 km/h
1097 27-04-2006 14:56:03 13 C 8.73 g/m*3 13 C 0 km/h
1098 27-04-2006 15:06:01 13.1 C 8.67 g/m*3 13.1 C 0 km/h
1099 27-04-2006 15:16:01 12.9 C 8.68 g/m*3 12.9 C 0 km/h
1100 27-04-2006 15:26:01 12.5 C 8.8 g/m*3 12.5 C 0 km/h
Sensor: Nr:Datum:Temp:Abs-Feuchte:Windchill:Wind:
Aussen-T/F 1101 27-04-2006 15:36:02 12.4 C 8.96 g/m*3 12.4 C 0 km/h
1102 27-04-2006 15:46:01 12.1 C 8.69 g/m*3 12.1 C 0 km/h
1103 27-04-2006 15:56:02 12.1 C 8.36 g/m*3 12.1 C 0 km/h
1104 27-04-2006 16:06:01 12.1 C 8.04 g/m*3 12.1 C 0 km/h
1105 27-04-2006 16:16:01 12.4 C 8.19 g/m*3 12.4 C 0 km/h
1106 27-04-2006 16:26:01 12.6 C 8.08 g/m*3 12.6 C 0 km/h
1107 27-04-2006 16:36:02 12.8 C 7.84 g/m*3 12.8 C 0 km/h
1108 27-04-2006 16:46:01 13.1 C 8.22 g/m*3 13.1 C 0 km/h
1109 27-04-2006 16:56:02 13.1 C 8.22 g/m*3 13.1 C 0 km/h
1110 27-04-2006 17:06:01 13 C 8.28 g/m*3 13 C 0 km/h
1111 27-04-2006 17:16:01 12.9 C 8.34 g/m*3 12.9 C 0 km/h
1112 27-04-2006 17:26:01 13 C 8.28 g/m*3 13 C 0 km/h
1113 27-04-2006 17:36:02 12.9 C 8.34 g/m*3 12.9 C 0 km/h
1114 27-04-2006 17:46:02 12.9 C 8.34 g/m*3 12.9 C 0 km/h
1115 27-04-2006 17:56:02 12.9 C 8.23 g/m*3 12.9 C 0 km/h
1116 27-04-2006 18:06:03 12.6 C 8.08 g/m*3 12.6 C 0 km/h
1117 27-04-2006 18:16:03 12.5 C 8.14 g/m*3 12.5 C 0 km/h
1118 27-04-2006 18:26:03 12.5 C 7.92 g/m*3 12.5 C 0 km/h
1119 27-04-2006 18:36:04 12.7 C 7.9 g/m*3 12.7 C 0 km/h
1120 27-04-2006 18:46:01 12.8 C 7.95 g/m*3 12.8 C 0 km/h
1121 27-04-2006 18:56:01 12.8 C 7.84 g/m*3 12.8 C 0 km/h
1122 27-04-2006 19:06:02 12.8 C 7.73 g/m*3 12.8 C 0 km/h
1123 27-04-2006 19:16:01 12.9 C 7.89 g/m*3 12.9 C 0 km/h
1124 27-04-2006 19:26:01 12.8 C 7.84 g/m*3 12.8 C 0 km/h
1125 27-04-2006 19:36:01 12.8 C 7.84 g/m*3 12.8 C 0 km/h
Sensor: Nr:Datum:Temp:Abs-Feuchte:Windchill:Wind:
Aussen-T/F 1126 27-04-2006 19:46:02 12.6 C 7.85 g/m*3 12.6 C 0 km/h
1127 27-04-2006 19:56:03 12.5 C 7.81 g/m*3 12.5 C 0 km/h
1128 27-04-2006 20:06:02 12.4 C 7.76 g/m*3 12.4 C 0 km/h
1129 27-04-2006 20:16:01 12.4 C 7.76 g/m*3 12.4 C 0 km/h
1130 27-04-2006 20:26:01 12.3 C 7.93 g/m*3 12.3 C 0 km/h
1131 27-04-2006 20:36:02 12.3 C 8.14 g/m*3 12.3 C 0 km/h
1132 27-04-2006 20:46:02 12.1 C 7.94 g/m*3 12.1 C 0 km/h
1133 27-04-2006 20:56:03 12 C 7.89 g/m*3 12 C 0 km/h
1134 27-04-2006 21:06:02 11.9 C 7.94 g/m*3 11.9 C 0 km/h
1135 27-04-2006 21:16:02 11.8 C 7.89 g/m*3 11.8 C 0 km/h
1136 27-04-2006 21:26:02 11.8 C 8 g/m*3 11.8 C 0 km/h
1137 27-04-2006 21:36:02 11.8 C 8 g/m*3 11.8 C 0 km/h
1138 27-04-2006 21:46:02 11.8 C 8 g/m*3 11.8 C 0 km/h
1139 27-04-2006 21:56:02 11.8 C 8.1 g/m*3 11.8 C 0 km/h
1140 27-04-2006 22:06:03 11.8 C 8.1 g/m*3 11.8 C 0 km/h
1141 27-04-2006 22:16:03 11.8 C 8.1 g/m*3 11.8 C 0 km/h
1142 27-04-2006 22:26:03 11.7 C 8.16 g/m*3 11.7 C 0 km/h
1143 27-04-2006 22:36:02 11.7 C 8.16 g/m*3 11.7 C 0 km/h
1144 27-04-2006 22:46:02 11.6 C 8.11 g/m*3 11.6 C 0 km/h
1145 27-04-2006 22:56:03 11.6 C 8.11 g/m*3 11.6 C 0 km/h
1146 27-04-2006 23:06:02 11.5 C 8.06 g/m*3 11.5 C 0 km/h
1147 27-04-2006 23:16:02 11.4 C 8.01 g/m*3 11.4 C 0 km/h
1148 27-04-2006 23:26:02 11.4 C 8.01 g/m*3 11.4 C 0 km/h
1149 27-04-2006 23:36:02 11.4 C 8.11 g/m*3 11.4 C 0 km/h
1150 27-04-2006 23:46:02 11.3 C 8.06 g/m*3 11.3 C 0 km/h
Sensor: Nr:Datum:Temp:Abs-Feuchte:Windchill:Wind:
Aussen-T/F 1151 27-04-2006 23:56:02 11.2 C 8.11 g/m*3 11.2 C 0 km/h
1152 28-04-2006 00:06:02 11.1 C 8.06 g/m*3 11.1 C 0 km/h
1153 28-04-2006 00:16:02 11.1 C 8.06 g/m*3 11.1 C 0 km/h
1154 28-04-2006 00:26:02 10.9 C 8.06 g/m*3 10.9 C 0 km/h
1155 28-04-2006 00:36:02 10.7 C 7.76 g/m*3 10.7 C 0 km/h
1156 28-04-2006 00:46:02 10.7 C 7.37 g/m*3 10.7 C 0 km/h
1157 28-04-2006 00:56:02 10.7 C 7.17 g/m*3 10.7 C 0 km/h
1158 28-04-2006 01:06:02 10.5 C 7.18 g/m*3 10.5 C 0 km/h
1159 28-04-2006 01:16:02 10.3 C 6.99 g/m*3 10.3 C 0 km/h
1160 28-04-2006 01:26:02 10.1 C 7 g/m*3 10.1 C 0 km/h
1161 28-04-2006 01:36:01 9.9 C 7 g/m*3 9.9 C 0 km/h
1162 28-04-2006 01:46:02 9.6 C 6.96 g/m*3 9.6 C 0 km/h
1163 28-04-2006 01:56:02 9.3 C 6.92 g/m*3 9.3 C 0 km/h
1164 28-04-2006 02:06:03 9 C 6.79 g/m*3 9 C 0 km/h
1165 28-04-2006 02:16:02 8.8 C 6.79 g/m*3 8.8 C 0 km/h
1166 28-04-2006 02:26:02 8.6 C 6.7 g/m*3 8.6 C 0 km/h
1167 28-04-2006 02:36:02 8.4 C 6.79 g/m*3 8.4 C 0 km/h
1168 28-04-2006 02:47:04 8.2 C 6.78 g/m*3 8.2 C 0 km/h
1169 28-04-2006 02:57:04 8 C 6.7 g/m*3 8 C 0 km/h
1170 28-04-2006 03:07:04 8 C 6.78 g/m*3 8 C 0 km/h
1171 28-04-2006 03:17:03 7.9 C 6.82 g/m*3 7.9 C 0 km/h
1172 28-04-2006 03:27:03 7.7 C 6.73 g/m*3 7.7 C 0 km/h
1173 28-04-2006 03:37:02 7.8 C 6.77 g/m*3 7.8 C 0 km/h
1174 28-04-2006 03:47:02 7.7 C 6.65 g/m*3 7.7 C 0 km/h
1175 28-04-2006 03:57:02 7.7 C 6.65 g/m*3 7.7 C 0 km/h
Sensor: Nr:Datum:Temp:Abs-Feuchte:Windchill:Wind:
Aussen-T/F 1176 28-04-2006 04:07:02 7.8 C 6.61 g/m*3 7.8 C 0 km/h
1177 28-04-2006 04:17:03 7.8 C 6.61 g/m*3 7.8 C 0 km/h
1178 28-04-2006 04:27:03 7.8 C 6.53 g/m*3 7.8 C 0 km/h
1179 28-04-2006 04:37:02 7.8 C 6.53 g/m*3 7.8 C 0 km/h
1180 28-04-2006 04:47:02 7.6 C 6.53 g/m*3 7.6 C 0 km/h
1181 28-04-2006 04:57:02 7.4 C 6.44 g/m*3 7.4 C 0 km/h
1182 28-04-2006 05:07:02 7.3 C 6.48 g/m*3 7.3 C 0 km/h
1183 28-04-2006 05:17:02 7.3 C 6.48 g/m*3 7.3 C 0 km/h
1184 28-04-2006 05:27:02 7 C 6.43 g/m*3 7 C 0 km/h
1185 28-04-2006 05:37:02 6.9 C 6.39 g/m*3 6.9 C 0 km/h
1186 28-04-2006 05:47:02 6.8 C 6.42 g/m*3 6.8 C 0 km/h
1187 28-04-2006 05:57:02 6.6 C 6.34 g/m*3 6.6 C 0 km/h
1188 28-04-2006 06:07:02 6.5 C 6.3 g/m*3 6.5 C 0 km/h
1189 28-04-2006 06:17:02 6.7 C 6.23 g/m*3 6.7 C 0 km/h
1190 28-04-2006 06:27:02 6.8 C 6.12 g/m*3 6.8 C 0 km/h
1191 28-04-2006 06:37:02 6.7 C 6.08 g/m*3 6.7 C 0 km/h
1192 28-04-2006 06:47:03 6.6 C 6.04 g/m*3 6.6 C 0 km/h
1193 28-04-2006 06:57:03 6.6 C 6.04 g/m*3 6.6 C 0 km/h
1194 28-04-2006 07:07:02 6.6 C 6.04 g/m*3 6.6 C 0 km/h
1195 28-04-2006 07:17:02 6.7 C 6.08 g/m*3 6.7 C 0 km/h
1196 28-04-2006 07:27:02 6.8 C 6.12 g/m*3 6.8 C 0 km/h
1197 28-04-2006 07:37:02 7 C 5.89 g/m*3 7 C 0 km/h
1198 28-04-2006 07:47:02 7.2 C 5.89 g/m*3 7.2 C 0 km/h
1199 28-04-2006 07:57:02 7.4 C 5.88 g/m*3 7.4 C 0 km/h
1200 28-04-2006 08:07:01 7.4 C 5.81 g/m*3 7.4 C 0 km/h
Sensor: Nr:Datum:Temp:Abs-Feuchte:Windchill:Wind:
Aussen-T/F 1201 28-04-2006 08:17:01 7.5 C 5.84 g/m*3 7.5 C 0 km/h
1202 28-04-2006 08:27:01 7.6 C 5.8 g/m*3 7.6 C 0 km/h
1203 28-04-2006 08:37:01 7.7 C 5.92 g/m*3 7.7 C 0 km/h
1204 28-04-2006 08:47:02 7.9 C 6.08 g/m*3 7.9 C 0 km/h
1205 28-04-2006 08:57:02 8 C 5.95 g/m*3 8 C 0 km/h
1206 28-04-2006 09:07:01 8.1 C 6.07 g/m*3 8.1 C 0 km/h
1207 28-04-2006 09:17:01 8.6 C 6.19 g/m*3 8.6 C 0 km/h
1208 28-04-2006 09:27:01 8.7 C 6.14 g/m*3 8.7 C 0 km/h
1209 28-04-2006 09:37:01 8.4 C 5.94 g/m*3 8.4 C 0 km/h
1210 28-04-2006 09:47:02 8.6 C 5.93 g/m*3 8.6 C 0 km/h
1211 28-04-2006 09:57:02 8.2 C 5.86 g/m*3 8.2 C 0 km/h
1212 28-04-2006 10:07:01 8.2 C 5.86 g/m*3 8.2 C 0 km/h
1213 28-04-2006 10:17:01 8.4 C 5.94 g/m*3 8.4 C 0 km/h
1214 28-04-2006 10:27:01 8.5 C 5.89 g/m*3 8.5 C 0 km/h
1215 28-04-2006 10:37:01 8.7 C 5.88 g/m*3 8.7 C 0 km/h
1216 28-04-2006 10:47:01 9.3 C 5.84 g/m*3 9.3 C 0 km/h
1217 28-04-2006 10:57:01 9.2 C 5.71 g/m*3 9.2 C 0 km/h
1218 28-04-2006 11:07:01 9.7 C 5.9 g/m*3 9.7 C 0 km/h
1219 28-04-2006 11:17:01 9.7 C 5.81 g/m*3 9.7 C 0 km/h
1220 28-04-2006 11:27:01 10.1 C 5.77 g/m*3 10.1 C 0 km/h
1221 28-04-2006 11:37:01 10.6 C 5.76 g/m*3 10.6 C 0 km/h
1222 28-04-2006 11:47:02 10.9 C 5.87 g/m*3 10.9 C 0 km/h
1223 28-04-2006 11:57:02 11.4 C 5.75 g/m*3 11.4 C 0 km/h
1224 28-04-2006 12:07:02 11.7 C 5.65 g/m*3 11.7 C 0 km/h
1225 28-04-2006 12:17:02 11.9 C 5.61 g/m*3 11.9 C 0 km/h
Sensor: Nr:Datum:Temp:Abs-Feuchte:Windchill:Wind:
Aussen-T/F 1226 28-04-2006 12:27:02 12.3 C 5.65 g/m*3 12.3 C 0 km/h
1227 28-04-2006 12:37:02 12.5 C 5.28 g/m*3 12.5 C 0 km/h
1228 28-04-2006 12:47:02 13.1 C 5.25 g/m*3 13.1 C 0 km/h
1229 28-04-2006 12:57:02 13.1 C 5.14 g/m*3 13.1 C 0 km/h
1230 28-04-2006 13:07:02 13.2 C 5.17 g/m*3 13.2 C 0 km/h
1231 28-04-2006 13:17:02 13.1 C 5.14 g/m*3 13.1 C 0 km/h
1232 28-04-2006 13:27:02 13 C 5.22 g/m*3 13 C 0 km/h
1233 28-04-2006 13:37:03 12.9 C 5.3 g/m*3 12.9 C 0 km/h
1234 28-04-2006 13:47:02 13.4 C 5.11 g/m*3 13.4 C 0 km/h
1235 28-04-2006 13:57:03 14.3 C 5.28 g/m*3 14.3 C 0 km/h
1236 28-04-2006 14:07:02 14.6 C 5.13 g/m*3 14.6 C 0 km/h
1237 28-04-2006 14:17:02 14.7 C 5.29 g/m*3 14.7 C 0 km/h
1238 28-04-2006 14:27:02 15.2 C 5.19 g/m*3 15.2 C 0 km/h
1239 28-04-2006 14:37:03 14.7 C 5.16 g/m*3 14.7 C 0 km/h
1240 28-04-2006 14:47:02 15 C 4.87 g/m*3 15 C 0 km/h
1241 28-04-2006 14:57:02 16.3 C 5.13 g/m*3 16.3 C 0 km/h
1242 28-04-2006 15:07:02 15.7 C 4.95 g/m*3 15.7 C 0 km/h
1243 28-04-2006 15:17:02 15.3 C 4.83 g/m*3 15.3 C 0 km/h
1244 28-04-2006 15:27:02 14.7 C 4.91 g/m*3 14.7 C 0 km/h
1245 28-04-2006 15:37:02 14.9 C 4.59 g/m*3 14.9 C 0 km/h
1246 28-04-2006 15:47:01 15.4 C 4.73 g/m*3 15.4 C 0 km/h
1247 28-04-2006 15:57:01 15.3 C 4.83 g/m*3 15.3 C 0 km/h
1248 28-04-2006 16:07:02 15.9 C 4.74 g/m*3 15.9 C 0 km/h
1249 28-04-2006 16:17:02 16.9 C 4.89 g/m*3 16.9 C 0 km/h
1250 28-04-2006 16:27:02 15.5 C 4.63 g/m*3 15.5 C 0 km/h
Sensor: Nr:Datum:Temp:Abs-Feuchte:Windchill:Wind:
Aussen-T/F 1251 28-04-2006 16:37:02 15 C 4.23 g/m*3 15 C 0 km/h
1252 28-04-2006 16:47:02 16.8 C 4.72 g/m*3 16.8 C 0 km/h
1253 28-04-2006 16:57:02 16.1 C 4.25 g/m*3 16.1 C 0 km/h
1254 28-04-2006 17:07:02 15.7 C 4.15 g/m*3 15.7 C 0 km/h
1255 28-04-2006 17:17:02 15.2 C 4.02 g/m*3 15.2 C 0 km/h
1256 28-04-2006 17:27:02 14.9 C 4.21 g/m*3 14.9 C 0 km/h
1257 28-04-2006 17:37:03 14.5 C 4.1 g/m*3 14.5 C 0 km/h
1258 28-04-2006 17:47:03 14.8 C 4.18 g/m*3 14.8 C 0 km/h
1259 28-04-2006 17:57:03 14.7 C 3.9 g/m*3 14.7 C 0 km/h
1260 28-04-2006 18:07:03 14.7 C 3.9 g/m*3 14.7 C 0 km/h
1261 28-04-2006 18:17:02 14.8 C 4.18 g/m*3 14.8 C 0 km/h
1262 28-04-2006 18:27:03 16.3 C 3.88 g/m*3 16.3 C 0 km/h
1263 28-04-2006 18:37:02 16.3 C 3.19 g/m*3 16.3 C 0 km/h
1264 28-04-2006 18:47:02 15 C 3.21 g/m*3 15 C 0 km/h
1265 28-04-2006 18:57:02 15.2 C 3.5 g/m*3 15.2 C 0 km/h
1266 28-04-2006 19:07:02 15.7 C 3.48 g/m*3 15.7 C 0 km/h
1267 28-04-2006 19:17:02 14.8 C 3.8 g/m*3 14.8 C 0 km/h
1268 28-04-2006 19:27:02 14.4 C 3.96 g/m*3 14.4 C 0 km/h
1269 28-04-2006 19:37:02 13.7 C 3.91 g/m*3 13.7 C 0 km/h
1270 28-04-2006 19:47:02 13.7 C 4.03 g/m*3 13.7 C 0 km/h
1271 28-04-2006 19:57:02 13.5 C 4.09 g/m*3 13.5 C 0 km/h
1272 28-04-2006 20:07:02 13.2 C 4.02 g/m*3 13.2 C 0 km/h
1273 28-04-2006 20:17:02 13.1 C 4.11 g/m*3 13.1 C 0 km/h
1274 28-04-2006 20:27:02 12.9 C 4.17 g/m*3 12.9 C 0 km/h
1275 28-04-2006 20:37:02 12.7 C 4.23 g/m*3 12.7 C 0 km/h
Sensor: Nr:Datum:Temp:Abs-Feuchte:Windchill:Wind:
Aussen-T/F 1276 28-04-2006 20:47:01 12.5 C 4.4 g/m*3 12.5 C 0 km/h
1277 28-04-2006 20:57:01 12.5 C 4.73 g/m*3 12.5 C 0 km/h
1278 28-04-2006 21:07:01 12.3 C 4.89 g/m*3 12.3 C 0 km/h
1279 28-04-2006 21:17:01 12.2 C 5.18 g/m*3 12.2 C 0 km/h
1280 28-04-2006 21:27:01 11.4 C 5.34 g/m*3 11.4 C 0 km/h
1281 28-04-2006 21:37:02 10.8 C 5.14 g/m*3 10.8 C 0 km/h
1282 28-04-2006 21:47:02 10.8 C 4.94 g/m*3 10.8 C 0 km/h
1283 28-04-2006 21:57:03 10.7 C 4.62 g/m*3 10.7 C 0 km/h
1284 28-04-2006 22:07:02 10.5 C 4.56 g/m*3 10.5 C 0 km/h
1285 28-04-2006 22:17:02 10.3 C 4.5 g/m*3 10.3 C 0 km/h
1286 28-04-2006 22:27:02 9.9 C 4.29 g/m*3 9.9 C 0 km/h
1287 28-04-2006 22:37:03 9.7 C 4.24 g/m*3 9.7 C 0 km/h
1288 28-04-2006 22:47:02 9.7 C 4.24 g/m*3 9.7 C 0 km/h
1289 28-04-2006 22:57:02 9.6 C 4.31 g/m*3 9.6 C 0 km/h
1290 28-04-2006 23:07:02 9.4 C 4.43 g/m*3 9.4 C 0 km/h
1291 28-04-2006 23:17:01 9.2 C 4.46 g/m*3 9.2 C 0 km/h
1292 28-04-2006 23:27:02 9 C 4.58 g/m*3 9 C 0 km/h
1293 28-04-2006 23:37:01 8.8 C 4.7 g/m*3 8.8 C 0 km/h
1294 28-04-2006 23:47:02 8.6 C 4.81 g/m*3 8.6 C 0 km/h
1295 28-04-2006 23:57:03 8.4 C 4.92 g/m*3 8.4 C 0 km/h
1296 29-04-2006 00:07:02 8.3 C 5.06 g/m*3 8.3 C 0 km/h
1297 29-04-2006 00:17:02 8.4 C 5.17 g/m*3 8.4 C 0 km/h
1298 29-04-2006 00:27:02 8.5 C 5.29 g/m*3 8.5 C 0 km/h
1299 29-04-2006 00:37:01 8.4 C 5.26 g/m*3 8.4 C 0 km/h
1300 29-04-2006 00:47:02 8.3 C 5.23 g/m*3 8.3 C 0 km/h
Sensor: Nr:Datum:Temp:Abs-Feuchte:Windchill:Wind:
Aussen-T/F 1301 29-04-2006 00:57:02 8.3 C 5.23 g/m*3 8.3 C 0 km/h
1302 29-04-2006 01:07:02 8.4 C 5.17 g/m*3 8.4 C 0 km/h
1303 29-04-2006 01:17:02 8.4 C 5.17 g/m*3 8.4 C 0 km/h
1304 29-04-2006 01:27:02 8.2 C 5.19 g/m*3 8.2 C 0 km/h
1305 29-04-2006 01:37:02 8.2 C 4.94 g/m*3 8.2 C 0 km/h
1306 29-04-2006 01:47:02 8.1 C 4.83 g/m*3 8.1 C 0 km/h
1307 29-04-2006 01:57:02 7.9 C 4.76 g/m*3 7.9 C 0 km/h
1308 29-04-2006 02:07:02 7.8 C 4.82 g/m*3 7.8 C 0 km/h
1309 29-04-2006 02:17:01 7.8 C 4.9 g/m*3 7.8 C 0 km/h
1310 29-04-2006 02:27:01 7.6 C 4.67 g/m*3 7.6 C 0 km/h
1311 29-04-2006 02:37:02 7.4 C 4.37 g/m*3 7.4 C 0 km/h
1312 29-04-2006 02:48:04 6.8 C 4.21 g/m*3 6.8 C 0 km/h
1313 29-04-2006 02:58:04 6.6 C 4.23 g/m*3 6.6 C 0 km/h
1314 29-04-2006 03:08:04 6.4 C 4.1 g/m*3 6.4 C 0 km/h
1315 29-04-2006 03:18:04 6.3 C 4.15 g/m*3 6.3 C 0 km/h
1316 29-04-2006 03:28:04 6.3 C 4.07 g/m*3 6.3 C 0 km/h
1317 29-04-2006 03:38:02 6.2 C 4.04 g/m*3 6.2 C 0 km/h
1318 29-04-2006 03:48:02 6 C 3.92 g/m*3 6 C 0 km/h
1319 29-04-2006 03:58:02 5.7 C 3.84 g/m*3 5.7 C 0 km/h
1320 29-04-2006 04:08:03 5.7 C 3.84 g/m*3 5.7 C 0 km/h
1321 29-04-2006 04:18:02 5.5 C 3.86 g/m*3 5.5 C 0 km/h
1322 29-04-2006 04:28:02 5.3 C 4.02 g/m*3 5.3 C 0 km/h
1323 29-04-2006 04:38:02 5 C 4.21 g/m*3 5 C 0 km/h
1324 29-04-2006 04:48:02 4.8 C 4.29 g/m*3 4.8 C 0 km/h
1325 29-04-2006 04:58:02 4.6 C 4.23 g/m*3 4.6 C 0 km/h
Sensor: Nr:Datum:Temp:Abs-Feuchte:Windchill:Wind:
Aussen-T/F 1326 29-04-2006 05:08:02 4.7 C 4.26 g/m*3 4.7 C 0 km/h
1327 29-04-2006 05:18:02 4.7 C 4.2 g/m*3 4.7 C 0 km/h
1328 29-04-2006 05:28:02 4.6 C 4.23 g/m*3 4.6 C 0 km/h
1329 29-04-2006 05:38:02 4.7 C 4.26 g/m*3 4.7 C 0 km/h
1330 29-04-2006 05:48:02 4.8 C 4.29 g/m*3 4.8 C 0 km/h
1331 29-04-2006 05:58:02 4.9 C 4.32 g/m*3 4.9 C 0 km/h
1332 29-04-2006 06:08:02 5.1 C 4.31 g/m*3 5.1 C 0 km/h
1333 29-04-2006 06:18:01 5.1 C 4.31 g/m*3 5.1 C 0 km/h
1334 29-04-2006 06:28:02 5.1 C 4.38 g/m*3 5.1 C 0 km/h
1335 29-04-2006 06:38:01 5.1 C 4.38 g/m*3 5.1 C 0 km/h
1336 29-04-2006 06:48:02 5.2 C 4.41 g/m*3 5.2 C 0 km/h
1337 29-04-2006 06:58:02 5.3 C 4.44 g/m*3 5.3 C 0 km/h
1338 29-04-2006 07:08:01 5.4 C 4.4 g/m*3 5.4 C 0 km/h
1339 29-04-2006 07:18:01 5.4 C 4.4 g/m*3 5.4 C 0 km/h
1340 29-04-2006 07:28:01 5.6 C 4.45 g/m*3 5.6 C 0 km/h
1341 29-04-2006 07:38:02 5.6 C 4.45 g/m*3 5.6 C 0 km/h
1342 29-04-2006 07:48:02 5.7 C 4.48 g/m*3 5.7 C 0 km/h
1343 29-04-2006 07:58:02 5.7 C 4.48 g/m*3 5.7 C 0 km/h
1344 29-04-2006 08:08:01 5.7 C 4.41 g/m*3 5.7 C 0 km/h
1345 29-04-2006 08:18:01 5.8 C 4.44 g/m*3 5.8 C 0 km/h
1346 29-04-2006 08:28:01 5.8 C 4.37 g/m*3 5.8 C 0 km/h
1347 29-04-2006 08:38:01 5.9 C 4.33 g/m*3 5.9 C 0 km/h
1348 29-04-2006 08:48:02 6 C 4.28 g/m*3 6 C 0 km/h
1349 29-04-2006 08:58:02 6.3 C 4.22 g/m*3 6.3 C 0 km/h
1350 29-04-2006 09:08:01 6.4 C 4.17 g/m*3 6.4 C 0 km/h
Sensor: Nr:Datum:Temp:Abs-Feuchte:Windchill:Wind:
Aussen-T/F 1351 29-04-2006 09:18:01 6.7 C 4.18 g/m*3 6.7 C 0 km/h
1352 29-04-2006 09:28:01 6.9 C 4 g/m*3 6.9 C 0 km/h
1353 29-04-2006 09:38:01 6.8 C 3.98 g/m*3 6.8 C 0 km/h
1354 29-04-2006 09:48:02 6.5 C 3.75 g/m*3 6.5 C 0 km/h
1355 29-04-2006 09:58:02 7.3 C 3.87 g/m*3 7.3 C 0 km/h
1356 29-04-2006 10:08:02 7.2 C 3.69 g/m*3 7.2 C 0 km/h
1357 29-04-2006 10:18:02 7.8 C 3.75 g/m*3 7.8 C 0 km/h
1358 29-04-2006 10:28:02 7.7 C 3.73 g/m*3 7.7 C 0 km/h
1359 29-04-2006 10:38:02 7.8 C 3.67 g/m*3 7.8 C 0 km/h
1360 29-04-2006 10:48:02 8.2 C 3.52 g/m*3 8.2 C 0 km/h
1361 29-04-2006 10:58:02 8.4 C 3.56 g/m*3 8.4 C 0 km/h
1362 29-04-2006 11:08:02 8.5 C 3.42 g/m*3 8.5 C 0 km/h
1363 29-04-2006 11:18:03 9 C 3.53 g/m*3 9 C 0 km/h
1364 29-04-2006 11:28:03 8.9 C 3.59 g/m*3 8.9 C 0 km/h
1365 29-04-2006 11:38:02 8.8 C 3.92 g/m*3 8.8 C 0 km/h
1366 29-04-2006 11:48:02 8.5 C 3.84 g/m*3 8.5 C 0 km/h
1367 29-04-2006 11:58:02 8.4 C 3.82 g/m*3 8.4 C 0 km/h
1368 29-04-2006 12:08:02 9.8 C 4.08 g/m*3 9.8 C 0 km/h
1369 29-04-2006 12:18:02 9.8 C 3.62 g/m*3 9.8 C 0 km/h
1370 29-04-2006 12:28:02 8.7 C 3.03 g/m*3 8.7 C 0 km/h
1371 29-04-2006 12:38:02 9.5 C 3.37 g/m*3 9.5 C 0 km/h
1372 29-04-2006 12:48:02 9.7 C 2.95 g/m*3 9.7 C 0 km/h
1373 29-04-2006 12:58:02 10.5 C 3.2 g/m*3 10.5 C 0 km/h
1374 29-04-2006 13:08:03 8.6 C 3.44 g/m*3 8.6 C 0 km/h
1375 29-04-2006 13:18:02 10 C 3.57 g/m*3 10 C 0 km/h
Sensor: Nr:Datum:Temp:Abs-Feuchte:Windchill:Wind:
Aussen-T/F 1376 29-04-2006 13:28:02 10.2 C 3.43 g/m*3 10.2 C 0 km/h
1377 29-04-2006 13:38:02 10.5 C 3.1 g/m*3 10.5 C 0 km/h
1378 29-04-2006 13:48:02 11.3 C 3.06 g/m*3 11.3 C 0 km/h
1379 29-04-2006 13:58:02 11 C 2.9 g/m*3 11 C 0 km/h
1380 29-04-2006 14:08:02 10.8 C 3.26 g/m*3 10.8 C 0 km/h
1381 29-04-2006 14:18:02 12.1 C 3.32 g/m*3 12.1 C 0 km/h
1382 29-04-2006 14:28:02 12.3 C 2.82 g/m*3 12.3 C 0 km/h
1383 29-04-2006 14:38:03 12.2 C 2.7 g/m*3 12.2 C 0 km/h
1384 29-04-2006 14:48:02 11.5 C 2.79 g/m*3 11.5 C 0 km/h
1385 29-04-2006 14:58:02 11.8 C 3.05 g/m*3 11.8 C 0 km/h
1386 29-04-2006 15:08:02 10.4 C 3.66 g/m*3 10.4 C 0 km/h
1387 29-04-2006 15:18:02 9.5 C 3.64 g/m*3 9.5 C 0 km/h
1388 29-04-2006 15:28:02 9.5 C 3.73 g/m*3 9.5 C 0 km/h
1389 29-04-2006 15:38:03 11.5 C 3.72 g/m*3 11.5 C 0 km/h
1390 29-04-2006 15:48:02 10.6 C 3.9 g/m*3 10.6 C 0 km/h
1391 29-04-2006 15:58:03 11 C 4.2 g/m*3 11 C 0 km/h
1392 29-04-2006 16:08:02 11.6 C 4.16 g/m*3 11.6 C 0 km/h
1393 29-04-2006 16:18:02 10.8 C 3.76 g/m*3 10.8 C 0 km/h
1394 29-04-2006 16:28:02 11.1 C 3.53 g/m*3 11.1 C 0 km/h
1395 29-04-2006 16:38:03 11.4 C 3.49 g/m*3 11.4 C 0 km/h
1396 29-04-2006 16:48:02 11.3 C 3.77 g/m*3 11.3 C 0 km/h
1397 29-04-2006 16:58:02 11 C 3.8 g/m*3 11 C 0 km/h
1398 29-04-2006 17:08:02 10.9 C 4.08 g/m*3 10.9 C 0 km/h
1399 29-04-2006 17:18:02 9.2 C 4.46 g/m*3 9.2 C 0 km/h
1400 29-04-2006 17:28:02 8.8 C 4.7 g/m*3 8.8 C 0 km/h
Sensor: Nr:Datum:Temp:Abs-Feuchte:Windchill:Wind:
Aussen-T/F 1401 29-04-2006 17:38:02 8.6 C 4.73 g/m*3 8.6 C 0 km/h
1402 29-04-2006 17:48:02 9.1 C 4.88 g/m*3 9.1 C 0 km/h
1403 29-04-2006 17:58:02 9.3 C 4.85 g/m*3 9.3 C 0 km/h
1404 29-04-2006 18:08:02 9.9 C 4.58 g/m*3 9.9 C 0 km/h
1405 29-04-2006 18:18:02 9.8 C 4.55 g/m*3 9.8 C 0 km/h
1406 29-04-2006 18:28:02 9.2 C 4.46 g/m*3 9.2 C 0 km/h
1407 29-04-2006 18:38:02 9 C 4.32 g/m*3 9 C 0 km/h
1408 29-04-2006 18:48:02 8.9 C 4.47 g/m*3 8.9 C 0 km/h
1409 29-04-2006 18:58:02 8.8 C 4.53 g/m*3 8.8 C 0 km/h
1410 29-04-2006 19:08:02 8.8 C 4.61 g/m*3 8.8 C 0 km/h
1411 29-04-2006 19:18:02 8.9 C 4.73 g/m*3 8.9 C 0 km/h
1412 29-04-2006 19:28:02 8.7 C 4.67 g/m*3 8.7 C 0 km/h
1413 29-04-2006 19:38:03 7.1 C 4.91 g/m*3 7.1 C 0 km/h
1414 29-04-2006 19:48:02 6.5 C 5.85 g/m*3 6.5 C 0 km/h
1415 29-04-2006 19:58:02 7.6 C 6.69 g/m*3 7.6 C 0 km/h
1416 29-04-2006 20:08:02 7.3 C 6.32 g/m*3 7.3 C 0 km/h
1417 29-04-2006 20:18:02 6.8 C 6.27 g/m*3 6.8 C 0 km/h
1418 29-04-2006 20:28:02 6.7 C 6.38 g/m*3 6.7 C 0 km/h
1419 29-04-2006 20:38:03 6.3 C 6.22 g/m*3 6.3 C 0 km/h
1420 29-04-2006 20:48:02 5.6 C 6.01 g/m*3 5.6 C 0 km/h
1421 29-04-2006 20:58:03 5.3 C 5.89 g/m*3 5.3 C 0 km/h
1422 29-04-2006 21:08:02 5 C 5.84 g/m*3 5 C 0 km/h
1423 29-04-2006 21:18:02 4.9 C 5.87 g/m*3 4.9 C 0 km/h
1424 29-04-2006 21:28:02 5.1 C 5.95 g/m*3 5.1 C 0 km/h
1425 29-04-2006 21:38:03 5.2 C 5.99 g/m*3 5.2 C 0 km/h
Sensor: Nr:Datum:Temp:Abs-Feuchte:Windchill:Wind:
Aussen-T/F 1426 29-04-2006 21:48:02 5.1 C 5.88 g/m*3 5.1 C 0 km/h
1427 29-04-2006 21:58:02 5.1 C 5.88 g/m*3 5.1 C 0 km/h
1428 29-04-2006 22:08:02 5.1 C 5.88 g/m*3 5.1 C 0 km/h
1429 29-04-2006 22:18:02 5.1 C 5.88 g/m*3 5.1 C 0 km/h
1430 29-04-2006 22:28:02 4.8 C 5.83 g/m*3 4.8 C 0 km/h
1431 29-04-2006 22:38:03 4.7 C 5.8 g/m*3 4.7 C 0 km/h
1432 29-04-2006 22:48:02 4.8 C 5.83 g/m*3 4.8 C 0 km/h
1433 29-04-2006 22:58:03 4.7 C 5.8 g/m*3 4.7 C 0 km/h
1434 29-04-2006 23:08:02 4.7 C 5.8 g/m*3 4.7 C 0 km/h
1435 29-04-2006 23:18:02 4.7 C 5.8 g/m*3 4.7 C 0 km/h
1436 29-04-2006 23:28:02 4.6 C 5.76 g/m*3 4.6 C 0 km/h
1437 29-04-2006 23:38:03 4.7 C 5.86 g/m*3 4.7 C 0 km/h
1438 29-04-2006 23:48:02 4.9 C 5.94 g/m*3 4.9 C 0 km/h
1439 29-04-2006 23:58:02 5.1 C 5.95 g/m*3 5.1 C 0 km/h
1440 30-04-2006 00:08:02 5.2 C 5.99 g/m*3 5.2 C 0 km/h
1441 30-04-2006 00:18:02 5.1 C 5.88 g/m*3 5.1 C 0 km/h
1442 30-04-2006 00:28:03 4.7 C 5.8 g/m*3 4.7 C 0 km/h
1443 30-04-2006 00:38:02 4.6 C 5.82 g/m*3 4.6 C 0 km/h
1444 30-04-2006 00:48:03 4.6 C 5.82 g/m*3 4.6 C 0 km/h
1445 30-04-2006 00:58:03 4.6 C 5.82 g/m*3 4.6 C 0 km/h
1446 30-04-2006 01:08:03 4.6 C 5.82 g/m*3 4.6 C 0 km/h
1447 30-04-2006 01:18:03 4.7 C 5.86 g/m*3 4.7 C 0 km/h
1448 30-04-2006 01:28:03 4.7 C 5.86 g/m*3 4.7 C 0 km/h
1449 30-04-2006 01:38:02 4.5 C 5.78 g/m*3 4.5 C 0 km/h
1450 30-04-2006 01:48:03 4.4 C 5.75 g/m*3 4.4 C 0 km/h
Sensor: Nr:Datum:Temp:Abs-Feuchte:Windchill:Wind:
Aussen-T/F 1451 30-04-2006 01:58:03 4.2 C 5.67 g/m*3 4.2 C 0 km/h
1452 30-04-2006 02:08:03 4.1 C 5.7 g/m*3 4.1 C 0 km/h
1453 30-04-2006 02:18:03 4 C 5.66 g/m*3 4 C 0 km/h
1454 30-04-2006 02:28:03 3.9 C 5.68 g/m*3 3.9 C 0 km/h
1455 30-04-2006 02:38:03 3.8 C 5.65 g/m*3 3.8 C 0 km/h
1456 30-04-2006 02:49:04 3.8 C 5.65 g/m*3 3.8 C 0 km/h
1457 30-04-2006 02:59:04 3.7 C 5.61 g/m*3 3.7 C 0 km/h
1458 30-04-2006 03:09:04 3.8 C 5.65 g/m*3 3.8 C 0 km/h
1459 30-04-2006 03:19:04 4 C 5.66 g/m*3 4 C 0 km/h
1460 30-04-2006 03:29:04 4.1 C 5.63 g/m*3 4.1 C 0 km/h
1461 30-04-2006 03:39:02 4.1 C 5.57 g/m*3 4.1 C 0 km/h
1462 30-04-2006 03:49:02 4.1 C 5.57 g/m*3 4.1 C 0 km/h
1463 30-04-2006 03:59:02 4.1 C 5.57 g/m*3 4.1 C 0 km/h
1464 30-04-2006 04:09:02 4 C 5.59 g/m*3 4 C 0 km/h
1465 30-04-2006 04:19:02 4 C 5.59 g/m*3 4 C 0 km/h
1466 30-04-2006 04:29:02 3.9 C 5.62 g/m*3 3.9 C 0 km/h
1467 30-04-2006 04:39:02 4 C 5.59 g/m*3 4 C 0 km/h
1468 30-04-2006 04:49:02 4.1 C 5.63 g/m*3 4.1 C 0 km/h
1469 30-04-2006 04:59:02 4.2 C 5.67 g/m*3 4.2 C 0 km/h
1470 30-04-2006 05:09:01 4.1 C 5.63 g/m*3 4.1 C 0 km/h
1471 30-04-2006 05:19:02 4.1 C 5.63 g/m*3 4.1 C 0 km/h
1472 30-04-2006 05:29:02 4.1 C 5.63 g/m*3 4.1 C 0 km/h
1473 30-04-2006 05:39:02 4.2 C 5.67 g/m*3 4.2 C 0 km/h
1474 30-04-2006 05:49:02 4.3 C 5.77 g/m*3 4.3 C 0 km/h
1475 30-04-2006 05:59:02 4.1 C 5.7 g/m*3 4.1 C 0 km/h
Sensor: Nr:Datum:Temp:Abs-Feuchte:Windchill:Wind:
Aussen-T/F 1476 30-04-2006 06:09:03 4.1 C 5.7 g/m*3 4.1 C 0 km/h
1477 30-04-2006 06:19:02 4.2 C 5.73 g/m*3 4.2 C 0 km/h
1478 30-04-2006 06:29:02 4.3 C 5.77 g/m*3 4.3 C 0 km/h
1479 30-04-2006 06:39:02 4.2 C 5.73 g/m*3 4.2 C 0 km/h
1480 30-04-2006 06:49:02 4.2 C 5.67 g/m*3 4.2 C 0 km/h
1481 30-04-2006 06:59:03 4.1 C 5.63 g/m*3 4.1 C 0 km/h
1482 30-04-2006 07:09:02 4 C 5.59 g/m*3 4 C 0 km/h
1483 30-04-2006 07:19:01 4.2 C 5.73 g/m*3 4.2 C 0 km/h
1484 30-04-2006 07:29:01 4.3 C 5.77 g/m*3 4.3 C 0 km/h
1485 30-04-2006 07:39:01 4.6 C 5.89 g/m*3 4.6 C 0 km/h
1486 30-04-2006 07:49:02 4.5 C 5.78 g/m*3 4.5 C 0 km/h
1487 30-04-2006 07:59:02 3.8 C 5.4 g/m*3 3.8 C 0 km/h
1488 30-04-2006 08:09:02 3.3 C 5.22 g/m*3 3.3 C 0 km/h
1489 30-04-2006 08:19:01 3.3 C 5.22 g/m*3 3.3 C 0 km/h
1490 30-04-2006 08:29:01 3.5 C 5.23 g/m*3 3.5 C 0 km/h
1491 30-04-2006 08:39:01 3.8 C 5.27 g/m*3 3.8 C 0 km/h
1492 30-04-2006 08:49:02 4.2 C 5.28 g/m*3 4.2 C 0 km/h
1493 30-04-2006 08:59:03 4.5 C 5.26 g/m*3 4.5 C 0 km/h
1494 30-04-2006 09:09:02 4.5 C 5.19 g/m*3 4.5 C 0 km/h
1495 30-04-2006 09:19:01 4.4 C 5.16 g/m*3 4.4 C 0 km/h
1496 30-04-2006 09:29:01 4.4 C 5.22 g/m*3 4.4 C 0 km/h
1497 30-04-2006 09:39:01 4.5 C 5.32 g/m*3 4.5 C 0 km/h
1498 30-04-2006 09:49:02 4.9 C 5.4 g/m*3 4.9 C 0 km/h
1499 30-04-2006 09:59:02 5.5 C 5.41 g/m*3 5.5 C 0 km/h
1500 30-04-2006 10:09:02 5.7 C 5.41 g/m*3 5.7 C 0 km/h
Sensor: Nr:Datum:Temp:Abs-Feuchte:Windchill:Wind:
Aussen-T/F 1501 30-04-2006 10:19:02 6 C 5.37 g/m*3 6 C 0 km/h
1502 30-04-2006 10:29:02 5.9 C 5.26 g/m*3 5.9 C 0 km/h
1503 30-04-2006 10:39:02 6 C 5.23 g/m*3 6 C 0 km/h
1504 30-04-2006 10:49:02 6.4 C 5.22 g/m*3 6.4 C 0 km/h
1505 30-04-2006 10:59:02 7 C 4.65 g/m*3 7 C 0 km/h
1506 30-04-2006 11:09:02 7.5 C 4.88 g/m*3 7.5 C 0 km/h
1507 30-04-2006 11:19:02 7 C 4.49 g/m*3 7 C 0 km/h
1508 30-04-2006 11:29:02 8.2 C 4.44 g/m*3 8.2 C 0 km/h
1509 30-04-2006 11:39:02 8.5 C 4.1 g/m*3 8.5 C 0 km/h
1510 30-04-2006 11:49:02 9.2 C 4.38 g/m*3 9.2 C 0 km/h
1511 30-04-2006 11:59:03 9.9 C 4.29 g/m*3 9.9 C 0 km/h
1512 30-04-2006 12:09:02 9.6 C 4.03 g/m*3 9.6 C 0 km/h
1513 30-04-2006 12:19:02 10.2 C 3.9 g/m*3 10.2 C 0 km/h
1514 30-04-2006 12:29:02 9.9 C 3.83 g/m*3 9.9 C 0 km/h
1515 30-04-2006 12:39:02 9.9 C 4.2 g/m*3 9.9 C 0 km/h
1516 30-04-2006 12:49:02 9.2 C 4.11 g/m*3 9.2 C 0 km/h
1517 30-04-2006 12:59:02 9.1 C 4.17 g/m*3 9.1 C 0 km/h
1518 30-04-2006 13:09:02 9.5 C 4.55 g/m*3 9.5 C 0 km/h
1519 30-04-2006 13:19:02 9.1 C 4.26 g/m*3 9.1 C 0 km/h
1520 30-04-2006 13:29:02 9 C 4.5 g/m*3 9 C 0 km/h
1521 30-04-2006 13:39:02 10 C 4.23 g/m*3 10 C 0 km/h
1522 30-04-2006 13:49:02 10.6 C 4.39 g/m*3 10.6 C 0 km/h
1523 30-04-2006 13:59:02 10.3 C 4.21 g/m*3 10.3 C 0 km/h
1524 30-04-2006 14:09:02 10.2 C 4.09 g/m*3 10.2 C 0 km/h
1525 30-04-2006 14:19:02 10.8 C 4.05 g/m*3 10.8 C 0 km/h
Sensor: Nr:Datum:Temp:Abs-Feuchte:Windchill:Wind:
Aussen-T/F 1526 30-04-2006 14:29:02 11.1 C 4.13 g/m*3 11.1 C 0 km/h
1527 30-04-2006 14:39:02 11 C 4 g/m*3 11 C 0 km/h
1528 30-04-2006 14:49:03 11.2 C 3.65 g/m*3 11.2 C 0 km/h
1529 30-04-2006 14:59:03 11.8 C 3.89 g/m*3 11.8 C 0 km/h
1530 30-04-2006 15:09:02 11.7 C 3.66 g/m*3 11.7 C 0 km/h
1531 30-04-2006 15:19:02 12.1 C 3.75 g/m*3 12.1 C 0 km/h
1532 30-04-2006 15:29:02 12 C 3.73 g/m*3 12 C 0 km/h
1533 30-04-2006 15:39:02 11.4 C 3.59 g/m*3 11.4 C 0 km/h
1534 30-04-2006 15:49:02 12.1 C 3.65 g/m*3 12.1 C 0 km/h
1535 30-04-2006 15:59:02 12.4 C 3.71 g/m*3 12.4 C 0 km/h
1536 30-04-2006 16:09:02 12.1 C 3.54 g/m*3 12.1 C 0 km/h
1537 30-04-2006 16:19:02 11.7 C 3.66 g/m*3 11.7 C 0 km/h
1538 30-04-2006 16:29:02 11.3 C 3.77 g/m*3 11.3 C 0 km/h
1539 30-04-2006 16:39:02 10.9 C 3.88 g/m*3 10.9 C 0 km/h
1540 30-04-2006 16:49:02 10.6 C 3.9 g/m*3 10.6 C 0 km/h
1541 30-04-2006 16:59:02 10.1 C 4.26 g/m*3 10.1 C 0 km/h
1542 30-04-2006 17:09:02 10.1 C 4.35 g/m*3 10.1 C 0 km/h
1543 30-04-2006 17:19:02 9.7 C 4.33 g/m*3 9.7 C 0 km/h
1544 30-04-2006 17:29:02 9.7 C 4.7 g/m*3 9.7 C 0 km/h
1545 30-04-2006 17:39:02 9 C 4.94 g/m*3 9 C 0 km/h
1546 30-04-2006 17:49:03 8.3 C 5.31 g/m*3 8.3 C 0 km/h
1547 30-04-2006 17:59:03 8.1 C 5.24 g/m*3 8.1 C 0 km/h
1548 30-04-2006 18:09:02 8 C 5.29 g/m*3 8 C 0 km/h
1549 30-04-2006 18:19:02 7.7 C 5.43 g/m*3 7.7 C 0 km/h
1550 30-04-2006 18:29:02 7.7 C 5.43 g/m*3 7.7 C 0 km/h
Sensor: Nr:Datum:Temp:Abs-Feuchte:Windchill:Wind:
Aussen-T/F 1551 30-04-2006 18:39:02 7.8 C 5.55 g/m*3 7.8 C 0 km/h
1552 30-04-2006 18:49:02 7.6 C 5.4 g/m*3 7.6 C 0 km/h
1553 30-04-2006 18:59:02 7.4 C 5.57 g/m*3 7.4 C 0 km/h
1554 30-04-2006 19:09:02 6.4 C 5.89 g/m*3 6.4 C 0 km/h
1555 30-04-2006 19:19:02 6.5 C 6.22 g/m*3 6.5 C 0 km/h
1556 30-04-2006 19:29:02 6.5 C 6.22 g/m*3 6.5 C 0 km/h
1557 30-04-2006 19:39:02 6.5 C 6.3 g/m*3 6.5 C 0 km/h
1558 30-04-2006 19:49:03 6.5 C 6.37 g/m*3 6.5 C 0 km/h
1559 30-04-2006 19:59:03 6.3 C 6.37 g/m*3 6.3 C 0 km/h
1560 30-04-2006 20:09:02 6.4 C 6.48 g/m*3 6.4 C 0 km/h
1561 30-04-2006 20:19:02 6.3 C 6.44 g/m*3 6.3 C 0 km/h
1562 30-04-2006 20:29:02 6.3 C 6.51 g/m*3 6.3 C 0 km/h
1563 30-04-2006 20:39:02 6.4 C 6.63 g/m*3 6.4 C 0 km/h
1564 30-04-2006 20:49:02 6.4 C 6.63 g/m*3 6.4 C 0 km/h
1565 30-04-2006 20:59:02 6.4 C 6.71 g/m*3 6.4 C 0 km/h
1566 30-04-2006 21:09:02 6.3 C 6.66 g/m*3 6.3 C 0 km/h
1567 30-04-2006 21:19:02 6.2 C 6.62 g/m*3 6.2 C 0 km/h
1568 30-04-2006 21:29:02 6.3 C 6.66 g/m*3 6.3 C 0 km/h
1569 30-04-2006 21:39:02 6.2 C 6.62 g/m*3 6.2 C 0 km/h
1570 30-04-2006 21:49:03 6 C 6.6 g/m*3 6 C 0 km/h
1571 30-04-2006 21:59:03 5.8 C 6.52 g/m*3 5.8 C 0 km/h
1572 30-04-2006 22:09:03 5.7 C 6.33 g/m*3 5.7 C 0 km/h
1573 30-04-2006 22:19:03 5.7 C 6.33 g/m*3 5.7 C 0 km/h
1574 30-04-2006 22:29:04 5.7 C 6.26 g/m*3 5.7 C 0 km/h
1575 30-04-2006 22:39:02 5.6 C 6.15 g/m*3 5.6 C 0 km/h
Sensor: Nr:Datum:Temp:Abs-Feuchte:Windchill:Wind:
Aussen-T/F 1576 30-04-2006 22:49:02 5.5 C 6.11 g/m*3 5.5 C 0 km/h
1577 30-04-2006 22:59:02 5.1 C 5.88 g/m*3 5.1 C 0 km/h
1578 30-04-2006 23:09:02 4.6 C 5.82 g/m*3 4.6 C 0 km/h
1579 30-04-2006 23:19:02 4.3 C 5.77 g/m*3 4.3 C 0 km/h
1580 30-04-2006 23:29:02 4.4 C 5.88 g/m*3 4.4 C 0 km/h
1581 30-04-2006 23:39:02 4.6 C 6.02 g/m*3 4.6 C 0 km/h
1582 30-04-2006 23:49:02 4.9 C 6.14 g/m*3 4.9 C 0 km/h
1583 30-04-2006 23:59:02 5.1 C 6.22 g/m*3 5.1 C 0 km/h
1584 01-05-2006 00:09:01 5.1 C 6.16 g/m*3 5.1 C 0 km/h
1585 01-05-2006 00:19:02 4.7 C 6 g/m*3 4.7 C 0 km/h
1586 01-05-2006 00:29:02 4.6 C 5.96 g/m*3 4.6 C 0 km/h
1587 01-05-2006 00:39:02 4.7 C 5.93 g/m*3 4.7 C 0 km/h
1588 01-05-2006 00:49:02 4.7 C 5.93 g/m*3 4.7 C 0 km/h
1589 01-05-2006 00:59:02 4.6 C 5.89 g/m*3 4.6 C 0 km/h
1590 01-05-2006 01:09:02 4.7 C 5.86 g/m*3 4.7 C 0 km/h
1591 01-05-2006 01:19:02 4.7 C 5.86 g/m*3 4.7 C 0 km/h
1592 01-05-2006 01:29:02 4.8 C 5.9 g/m*3 4.8 C 0 km/h
1593 01-05-2006 01:39:02 4.8 C 5.9 g/m*3 4.8 C 0 km/h
1594 01-05-2006 01:49:02 5 C 5.84 g/m*3 5 C 0 km/h
1595 01-05-2006 01:59:02 4.9 C 5.87 g/m*3 4.9 C 0 km/h
1596 01-05-2006 02:09:02 4.8 C 5.9 g/m*3 4.8 C 0 km/h
1597 01-05-2006 02:19:02 4.8 C 5.9 g/m*3 4.8 C 0 km/h
1598 01-05-2006 02:29:02 4.7 C 5.86 g/m*3 4.7 C 0 km/h
1599 01-05-2006 02:39:02 4.8 C 5.9 g/m*3 4.8 C 0 km/h
1600 01-05-2006 02:50:03 4.9 C 5.87 g/m*3 4.9 C 0 km/h
Sensor: Nr:Datum:Temp:Abs-Feuchte:Windchill:Wind:
Aussen-T/F 1601 01-05-2006 03:00:03 5 C 5.84 g/m*3 5 C 0 km/h
1602 01-05-2006 03:10:04 5.1 C 5.88 g/m*3 5.1 C 0 km/h
1603 01-05-2006 03:20:04 4.9 C 5.87 g/m*3 4.9 C 0 km/h
1604 01-05-2006 03:30:04 4.7 C 5.8 g/m*3 4.7 C 0 km/h
1605 01-05-2006 03:40:02 4.3 C 5.64 g/m*3 4.3 C 0 km/h
1606 01-05-2006 03:50:02 4.1 C 5.57 g/m*3 4.1 C 0 km/h
1607 01-05-2006 04:00:02 3.8 C 5.52 g/m*3 3.8 C 0 km/h
1608 01-05-2006 04:10:02 3.6 C 5.45 g/m*3 3.6 C 0 km/h
1609 01-05-2006 04:20:02 3.5 C 5.41 g/m*3 3.5 C 0 km/h
1610 01-05-2006 04:30:02 3.2 C 5.3 g/m*3 3.2 C 0 km/h
1611 01-05-2006 04:40:02 3.1 C 5.27 g/m*3 3.1 C 0 km/h
1612 01-05-2006 04:50:02 2.8 C 5.22 g/m*3 2.8 C 0 km/h
1613 01-05-2006 05:00:02 2.8 C 5.22 g/m*3 2.8 C 0 km/h
1614 01-05-2006 05:10:02 2.7 C 5.24 g/m*3 2.7 C 0 km/h
1615 01-05-2006 05:20:02 2.7 C 5.3 g/m*3 2.7 C 0 km/h
1616 01-05-2006 05:30:02 2.4 C 5.2 g/m*3 2.4 C 0 km/h
1617 01-05-2006 05:40:02 2.2 C 5.13 g/m*3 2.2 C 0 km/h
1618 01-05-2006 05:50:02 2.1 C 5.09 g/m*3 2.1 C 0 km/h
1619 01-05-2006 06:00:02 2 C 5.06 g/m*3 2 C 0 km/h
1620 01-05-2006 06:10:02 1.9 C 5.08 g/m*3 1.9 C 0 km/h
1621 01-05-2006 06:20:02 1.7 C 5.06 g/m*3 1.7 C 0 km/h
1622 01-05-2006 06:30:02 1.8 C 5.1 g/m*3 1.8 C 0 km/h
1623 01-05-2006 06:40:03 1.8 C 5.1 g/m*3 1.8 C 0 km/h
1624 01-05-2006 06:50:02 1.8 C 5.1 g/m*3 1.8 C 0 km/h
1625 01-05-2006 07:00:02 1.8 C 5.1 g/m*3 1.8 C 0 km/h
Sensor: Nr:Datum:Temp:Abs-Feuchte:Windchill:Wind:
Aussen-T/F 1626 01-05-2006 07:10:02 2 C 5.11 g/m*3 2 C 0 km/h
1627 01-05-2006 07:20:02 2.1 C 5.2 g/m*3 2.1 C 0 km/h
1628 01-05-2006 07:30:02 2.2 C 5.24 g/m*3 2.2 C 0 km/h
1629 01-05-2006 07:40:02 2.5 C 5.35 g/m*3 2.5 C 0 km/h
1630 01-05-2006 07:50:02 2.8 C 5.51 g/m*3 2.8 C 0 km/h
1631 01-05-2006 08:00:02 3 C 5.53 g/m*3 3 C 0 km/h
1632 01-05-2006 08:10:02 3.1 C 5.63 g/m*3 3.1 C 0 km/h
1633 01-05-2006 08:20:01 3.4 C 5.74 g/m*3 3.4 C 0 km/h
1634 01-05-2006 08:30:01 3.5 C 5.78 g/m*3 3.5 C 0 km/h
1635 01-05-2006 08:40:02 3.6 C 5.82 g/m*3 3.6 C 0 km/h
1636 01-05-2006 08:50:02 3.8 C 5.9 g/m*3 3.8 C 0 km/h
1637 01-05-2006 09:00:02 4.1 C 5.95 g/m*3 4.1 C 0 km/h
1638 01-05-2006 09:10:02 4.7 C 6.19 g/m*3 4.7 C 0 km/h
1639 01-05-2006 09:20:02 5.1 C 6.29 g/m*3 5.1 C 0 km/h
1640 01-05-2006 09:30:03 5.7 C 6.4 g/m*3 5.7 C 0 km/h
1641 01-05-2006 09:40:02 6.7 C 6.53 g/m*3 6.7 C 0 km/h
1642 01-05-2006 09:50:02 7.5 C 6.56 g/m*3 7.5 C 0 km/h
1643 01-05-2006 10:00:02 7.8 C 6.28 g/m*3 7.8 C 0 km/h
1644 01-05-2006 10:10:02 8 C 6.2 g/m*3 8 C 0 km/h
1645 01-05-2006 10:20:02 8.5 C 6.32 g/m*3 8.5 C 0 km/h
1646 01-05-2006 10:30:02 9.1 C 6.21 g/m*3 9.1 C 0 km/h
1647 01-05-2006 10:40:02 9.6 C 6.14 g/m*3 9.6 C 0 km/h
1648 01-05-2006 10:50:03 10.2 C 6.38 g/m*3 10.2 C 0 km/h
1649 01-05-2006 11:00:03 10.7 C 6.38 g/m*3 10.7 C 0 km/h
1650 01-05-2006 11:10:03 11.4 C 6.36 g/m*3 11.4 C 0 km/h
Sensor: Nr:Datum:Temp:Abs-Feuchte:Windchill:Wind:
Aussen-T/F 1651 01-05-2006 11:20:02 11.5 C 5.99 g/m*3 11.5 C 0 km/h
1652 01-05-2006 11:30:02 12.2 C 6.15 g/m*3 12.2 C 0 km/h
1653 01-05-2006 11:40:02 12.8 C 5.71 g/m*3 12.8 C 0 km/h
1654 01-05-2006 11:50:02 13.1 C 5.71 g/m*3 13.1 C 0 km/h
1655 01-05-2006 12:00:03 13.6 C 5.88 g/m*3 13.6 C 0 km/h
1656 01-05-2006 12:10:02 12.9 C 5.64 g/m*3 12.9 C 0 km/h
1657 01-05-2006 12:20:02 12.3 C 5.54 g/m*3 12.3 C 0 km/h
1658 01-05-2006 12:30:02 12.8 C 5.82 g/m*3 12.8 C 0 km/h
1659 01-05-2006 12:40:01 12.5 C 5.72 g/m*3 12.5 C 0 km/h
1660 01-05-2006 12:50:02 13 C 5.78 g/m*3 13 C 0 km/h
1661 01-05-2006 13:00:02 12.5 C 5.83 g/m*3 12.5 C 0 km/h
1662 01-05-2006 13:10:02 12.6 C 5.86 g/m*3 12.6 C 0 km/h
1663 01-05-2006 13:20:02 12.4 C 5.79 g/m*3 12.4 C 0 km/h
1664 01-05-2006 13:30:02 12.2 C 5.94 g/m*3 12.2 C 0 km/h
1665 01-05-2006 13:40:02 12.4 C 5.9 g/m*3 12.4 C 0 km/h
1666 01-05-2006 13:50:02 13 C 6.24 g/m*3 13 C 0 km/h
1667 01-05-2006 14:00:02 13.5 C 5.97 g/m*3 13.5 C 0 km/h
1668 01-05-2006 14:10:02 14.1 C 5.83 g/m*3 14.1 C 0 km/h
1669 01-05-2006 14:20:02 14.4 C 5.81 g/m*3 14.4 C 0 km/h
1670 01-05-2006 14:30:02 14.2 C 5.62 g/m*3 14.2 C 0 km/h
1671 01-05-2006 14:40:03 13.5 C 6.08 g/m*3 13.5 C 0 km/h
1672 01-05-2006 14:50:02 13.5 C 5.97 g/m*3 13.5 C 0 km/h
1673 01-05-2006 15:00:02 13.5 C 6.2 g/m*3 13.5 C 0 km/h
1674 01-05-2006 15:10:02 13.5 C 6.2 g/m*3 13.5 C 0 km/h
1675 01-05-2006 15:20:02 13.1 C 6.39 g/m*3 13.1 C 0 km/h
Sensor: Nr:Datum:Temp:Abs-Feuchte:Windchill:Wind:
Aussen-T/F 1676 01-05-2006 15:30:02 12.5 C 7.15 g/m*3 12.5 C 0 km/h
1677 01-05-2006 15:40:03 12.4 C 7.1 g/m*3 12.4 C 0 km/h
1678 01-05-2006 15:50:02 12.3 C 7.38 g/m*3 12.3 C 0 km/h
1679 01-05-2006 16:00:02 12.1 C 7.4 g/m*3 12.1 C 0 km/h
1680 01-05-2006 16:10:02 12.2 C 7.34 g/m*3 12.2 C 0 km/h
1681 01-05-2006 16:20:03 12.8 C 7.5 g/m*3 12.8 C 0 km/h
1682 01-05-2006 16:30:03 13.4 C 7.44 g/m*3 13.4 C 0 km/h
1683 01-05-2006 16:40:03 13.6 C 7.3 g/m*3 13.6 C 0 km/h
1684 01-05-2006 16:50:01 13.8 C 7.39 g/m*3 13.8 C 0 km/h
1685 01-05-2006 17:00:01 13.7 C 7.58 g/m*3 13.7 C 0 km/h
1686 01-05-2006 17:10:02 13.4 C 7.67 g/m*3 13.4 C 0 km/h
1687 01-05-2006 17:20:02 12.8 C 7.62 g/m*3 12.8 C 0 km/h
1688 01-05-2006 17:30:02 12.2 C 7.55 g/m*3 12.2 C 0 km/h
1689 01-05-2006 17:40:02 11.7 C 8.05 g/m*3 11.7 C 0 km/h
1690 01-05-2006 17:50:03 11.1 C 8.16 g/m*3 11.1 C 0 km/h
1691 01-05-2006 18:00:03 11.1 C 8.36 g/m*3 11.1 C 0 km/h
1692 01-05-2006 18:10:03 11.2 C 8.62 g/m*3 11.2 C 0 km/h
1693 01-05-2006 18:20:02 11.3 C 8.77 g/m*3 11.3 C 0 km/h
1694 01-05-2006 18:30:02 11.2 C 8.82 g/m*3 11.2 C 0 km/h
1695 01-05-2006 18:40:03 11.3 C 8.77 g/m*3 11.3 C 0 km/h
1696 01-05-2006 18:50:02 11.4 C 8.93 g/m*3 11.4 C 0 km/h
1697 01-05-2006 19:00:02 11.3 C 8.87 g/m*3 11.3 C 0 km/h
1698 01-05-2006 19:10:03 11.2 C 8.51 g/m*3 11.2 C 0 km/h
1699 01-05-2006 19:20:03 11.3 C 8.67 g/m*3 11.3 C 0 km/h
1700 01-05-2006 19:30:03 11.2 C 8.72 g/m*3 11.2 C 0 km/h
Sensor: Nr:Datum:Temp:Abs-Feuchte:Windchill:Wind:
Aussen-T/F 1701 01-05-2006 19:40:02 11.1 C 8.66 g/m*3 11.1 C 0 km/h
1702 01-05-2006 19:50:02 10.9 C 8.75 g/m*3 10.9 C 0 km/h
1703 01-05-2006 20:00:02 10.8 C 8.7 g/m*3 10.8 C 0 km/h
1704 01-05-2006 20:10:03 10.8 C 8.8 g/m*3 10.8 C 0 km/h
1705 01-05-2006 20:20:02 10.7 C 8.64 g/m*3 10.7 C 0 km/h
1706 01-05-2006 20:30:02 10.7 C 8.64 g/m*3 10.7 C 0 km/h
1707 01-05-2006 20:40:03 10.5 C 8.53 g/m*3 10.5 C 0 km/h
1708 01-05-2006 20:50:02 10.4 C 8.38 g/m*3 10.4 C 0 km/h
1709 01-05-2006 21:00:02 10.4 C 8.38 g/m*3 10.4 C 0 km/h
1710 01-05-2006 21:10:03 10.3 C 8.33 g/m*3 10.3 C 0 km/h
1711 01-05-2006 21:20:02 10.3 C 8.24 g/m*3 10.3 C 0 km/h
1712 01-05-2006 21:30:02 10.2 C 7.99 g/m*3 10.2 C 0 km/h
1713 01-05-2006 21:40:03 10.3 C 7.85 g/m*3 10.3 C 0 km/h
1714 01-05-2006 21:50:02 10.2 C 7.71 g/m*3 10.2 C 0 km/h
1715 01-05-2006 22:00:02 10.3 C 7.66 g/m*3 10.3 C 0 km/h
1716 01-05-2006 22:10:02 10.2 C 7.61 g/m*3 10.2 C 0 km/h
1717 01-05-2006 22:20:02 10.1 C 7.56 g/m*3 10.1 C 0 km/h
1718 01-05-2006 22:30:02 10 C 7.61 g/m*3 10 C 0 km/h
1719 01-05-2006 22:40:03 9.8 C 7.7 g/m*3 9.8 C 0 km/h
1720 01-05-2006 22:50:02 9.6 C 7.69 g/m*3 9.6 C 0 km/h
1721 01-05-2006 23:00:02 9.7 C 7.74 g/m*3 9.7 C 0 km/h
1722 01-05-2006 23:10:02 9.6 C 7.69 g/m*3 9.6 C 0 km/h
1723 01-05-2006 23:20:02 9.6 C 7.69 g/m*3 9.6 C 0 km/h
1724 01-05-2006 23:30:02 9.6 C 7.79 g/m*3 9.6 C 0 km/h
1725 01-05-2006 23:40:03 9.5 C 7.83 g/m*3 9.5 C 0 km/h
Sensor: Nr:Datum:Temp:Abs-Feuchte:Windchill:Wind:
Aussen-T/F 1726 01-05-2006 23:50:02 9.4 C 7.87 g/m*3 9.4 C 0 km/h
1727 02-05-2006 00:00:02 9.5 C 7.92 g/m*3 9.5 C 0 km/h
1728 02-05-2006 00:10:02 9.4 C 7.87 g/m*3 9.4 C 0 km/h
1729 02-05-2006 00:20:02 9.5 C 7.83 g/m*3 9.5 C 0 km/h
1730 02-05-2006 00:30:02 9.6 C 7.79 g/m*3 9.6 C 0 km/h
1731 02-05-2006 00:40:02 9.7 C 7.65 g/m*3 9.7 C 0 km/h
1732 02-05-2006 00:50:02 9.9 C 7.47 g/m*3 9.9 C 0 km/h
1733 02-05-2006 01:00:03 9.8 C 7.42 g/m*3 9.8 C 0 km/h
1734 02-05-2006 01:10:02 9.8 C 7.52 g/m*3 9.8 C 0 km/h
1735 02-05-2006 01:20:02 9.8 C 7.42 g/m*3 9.8 C 0 km/h
1736 02-05-2006 01:30:02 9.9 C 7.38 g/m*3 9.9 C 0 km/h
1737 02-05-2006 01:40:02 10 C 7.24 g/m*3 10 C 0 km/h
1738 02-05-2006 01:50:02 10.1 C 7.19 g/m*3 10.1 C 0 km/h
1739 02-05-2006 02:00:02 10 C 7.24 g/m*3 10 C 0 km/h
1740 02-05-2006 02:10:02 9.9 C 7.28 g/m*3 9.9 C 0 km/h
1741 02-05-2006 02:20:02 9.9 C 7.28 g/m*3 9.9 C 0 km/h
1742 02-05-2006 02:30:02 9.6 C 7.15 g/m*3 9.6 C 0 km/h
1743 02-05-2006 02:40:02 9.4 C 7.15 g/m*3 9.4 C 0 km/h
1744 02-05-2006 02:51:03 9.2 C 7.14 g/m*3 9.2 C 0 km/h
1745 02-05-2006 03:01:03 9.2 C 7.23 g/m*3 9.2 C 0 km/h
1746 02-05-2006 03:11:03 9.2 C 7.32 g/m*3 9.2 C 0 km/h
1747 02-05-2006 03:21:04 9.3 C 7.28 g/m*3 9.3 C 0 km/h
1748 02-05-2006 03:31:02 9.3 C 7.37 g/m*3 9.3 C 0 km/h
1749 02-05-2006 03:41:02 9.3 C 7.28 g/m*3 9.3 C 0 km/h
1750 02-05-2006 03:51:02 9.1 C 7.28 g/m*3 9.1 C 0 km/h
Sensor: Nr:Datum:Temp:Abs-Feuchte:Windchill:Wind:
Aussen-T/F 1751 02-05-2006 04:01:02 8.9 C 7.27 g/m*3 8.9 C 0 km/h
1752 02-05-2006 04:11:02 8.7 C 7.18 g/m*3 8.7 C 0 km/h
1753 02-05-2006 04:21:02 8.5 C 7.17 g/m*3 8.5 C 0 km/h
1754 02-05-2006 04:31:02 8.1 C 6.99 g/m*3 8.1 C 0 km/h
1755 02-05-2006 04:41:02 7.9 C 7.15 g/m*3 7.9 C 0 km/h
1756 02-05-2006 04:51:02 7.7 C 7.05 g/m*3 7.7 C 0 km/h
1757 02-05-2006 05:01:02 7.5 C 7.04 g/m*3 7.5 C 0 km/h
1758 02-05-2006 05:11:02 7.4 C 7.08 g/m*3 7.4 C 0 km/h
1759 02-05-2006 05:21:02 7.4 C 7.08 g/m*3 7.4 C 0 km/h
1760 02-05-2006 05:31:02 7.4 C 7.08 g/m*3 7.4 C 0 km/h
1761 02-05-2006 05:41:03 7.3 C 7.11 g/m*3 7.3 C 0 km/h
1762 02-05-2006 05:51:02 7.3 C 7.11 g/m*3 7.3 C 0 km/h
1763 02-05-2006 06:01:02 7.3 C 7.11 g/m*3 7.3 C 0 km/h
1764 02-05-2006 06:11:02 7.6 C 7.33 g/m*3 7.6 C 0 km/h
1765 02-05-2006 06:21:01 7.7 C 7.38 g/m*3 7.7 C 0 km/h
1766 02-05-2006 06:31:02 7.8 C 7.43 g/m*3 7.8 C 0 km/h
1767 02-05-2006 06:41:02 7.9 C 7.47 g/m*3 7.9 C 0 km/h
1768 02-05-2006 06:51:03 8 C 7.36 g/m*3 8 C 0 km/h
1769 02-05-2006 07:01:03 7.9 C 7.39 g/m*3 7.9 C 0 km/h
1770 02-05-2006 07:11:03 7.9 C 7.39 g/m*3 7.9 C 0 km/h
1771 02-05-2006 07:21:02 8.1 C 7.41 g/m*3 8.1 C 0 km/h
1772 02-05-2006 07:31:02 8.4 C 7.55 g/m*3 8.4 C 0 km/h
1773 02-05-2006 07:41:02 8.5 C 7.43 g/m*3 8.5 C 0 km/h
1774 02-05-2006 07:51:02 8.5 C 7.43 g/m*3 8.5 C 0 km/h
1775 02-05-2006 08:01:02 8.5 C 7.43 g/m*3 8.5 C 0 km/h
Sensor: Nr:Datum:Temp:Abs-Feuchte:Windchill:Wind:
Aussen-T/F 1776 02-05-2006 08:11:02 8.7 C 7.61 g/m*3 8.7 C 0 km/h
1777 02-05-2006 08:21:02 8.7 C 7.61 g/m*3 8.7 C 0 km/h
1778 02-05-2006 08:31:01 8.8 C 7.66 g/m*3 8.8 C 0 km/h
1779 02-05-2006 08:41:01 9.1 C 7.72 g/m*3 9.1 C 0 km/h
1780 02-05-2006 08:51:02 9.3 C 7.73 g/m*3 9.3 C 0 km/h
1781 02-05-2006 09:01:02 9.9 C 8.03 g/m*3 9.9 C 0 km/h
1782 02-05-2006 09:11:02 10.2 C 7.9 g/m*3 10.2 C 0 km/h
1783 02-05-2006 09:21:01 11.4 C 8.42 g/m*3 11.4 C 0 km/h
1784 02-05-2006 09:31:02 11.8 C 8 g/m*3 11.8 C 0 km/h
1785 02-05-2006 09:41:02 12.4 C 7.87 g/m*3 12.4 C 0 km/h
1786 02-05-2006 09:51:02 13.1 C 7.19 g/m*3 13.1 C 0 km/h
1787 02-05-2006 10:01:01 13.5 C 7.02 g/m*3 13.5 C 0 km/h
1788 02-05-2006 10:11:01 14.1 C 7.04 g/m*3 14.1 C 0 km/h
1789 02-05-2006 10:21:01 14.1 C 7.04 g/m*3 14.1 C 0 km/h
1790 02-05-2006 10:31:02 14.1 C 7.04 g/m*3 14.1 C 0 km/h
1791 02-05-2006 10:41:02 14.3 C 7.13 g/m*3 14.3 C 0 km/h
1792 02-05-2006 10:51:01 15 C 7.18 g/m*3 15 C 0 km/h
1793 02-05-2006 11:01:01 15.4 C 7.23 g/m*3 15.4 C 0 km/h
1794 02-05-2006 11:11:01 16.1 C 7.13 g/m*3 16.1 C 0 km/h
1795 02-05-2006 11:21:01 16 C 6.95 g/m*3 16 C 0 km/h
1796 02-05-2006 11:31:02 15.9 C 7.04 g/m*3 15.9 C 0 km/h
1797 02-05-2006 11:41:02 15.5 C 6.87 g/m*3 15.5 C 0 km/h
1798 02-05-2006 11:51:02 15.7 C 6.96 g/m*3 15.7 C 0 km/h
1799 02-05-2006 12:01:02 16 C 7.08 g/m*3 16 C 0 km/h
1800 02-05-2006 12:11:02 16.9 C 7.48 g/m*3 16.9 C 0 km/h
Sensor: Nr:Datum:Temp:Abs-Feuchte:Windchill:Wind:
Aussen-T/F 1801 02-05-2006 12:21:02 17.1 C 7.28 g/m*3 17.1 C 0 km/h
1802 02-05-2006 12:31:03 17.1 C 6.99 g/m*3 17.1 C 0 km/h
1803 02-05-2006 12:41:03 17.2 C 7.18 g/m*3 17.2 C 0 km/h
1804 02-05-2006 12:51:02 17 C 6.66 g/m*3 17 C 0 km/h
1805 02-05-2006 13:01:02 17.6 C 6.9 g/m*3 17.6 C 0 km/h
1806 02-05-2006 13:11:02 18.8 C 6.6 g/m*3 18.8 C 0 km/h
1807 02-05-2006 13:21:02 19.1 C 6.39 g/m*3 19.1 C 0 km/h
1808 02-05-2006 13:31:02 19.8 C 6.32 g/m*3 19.8 C 0 km/h
1809 02-05-2006 13:41:02 19.2 C 5.94 g/m*3 19.2 C 0 km/h
1810 02-05-2006 13:51:02 19.3 C 5.97 g/m*3 19.3 C 0 km/h
1811 02-05-2006 14:01:02 20 C 6.05 g/m*3 20 C 0 km/h
1812 02-05-2006 14:11:02 20.6 C 5.91 g/m*3 20.6 C 0 km/h
1813 02-05-2006 14:21:01 20.5 C 6.05 g/m*3 20.5 C 0 km/h
1814 02-05-2006 14:31:02 20.1 C 5.56 g/m*3 20.1 C 0 km/h
1815 02-05-2006 14:41:02 21.8 C 5.76 g/m*3 21.8 C 0 km/h
1816 02-05-2006 14:51:02 21.5 C 5.66 g/m*3 21.5 C 0 km/h
1817 02-05-2006 15:01:02 21.8 C 5.76 g/m*3 21.8 C 0 km/h
1818 02-05-2006 15:11:02 22.8 C 5.69 g/m*3 22.8 C 0 km/h
1819 02-05-2006 15:21:01 22.8 C 5.89 g/m*3 22.8 C 0 km/h
1820 02-05-2006 15:31:02 22.2 C 5.3 g/m*3 22.2 C 0 km/h
1821 02-05-2006 15:41:02 23.8 C 5.59 g/m*3 23.8 C 0 km/h
1822 02-05-2006 15:51:02 25 C 5.52 g/m*3 25 C 0 km/h
1823 02-05-2006 16:01:01 24.2 C 5.06 g/m*3 24.2 C 0 km/h
1824 02-05-2006 16:11:01 24.4 C 5.34 g/m*3 24.4 C 0 km/h
1825 02-05-2006 16:21:01 23.8 C 5.38 g/m*3 23.8 C 0 km/h
Sensor: Nr:Datum:Temp:Abs-Feuchte:Windchill:Wind:
Aussen-T/F 1826 02-05-2006 16:31:02 23.7 C 5.35 g/m*3 23.7 C 0 km/h
1827 02-05-2006 16:41:02 23.9 C 5.41 g/m*3 23.9 C 0 km/h
1828 02-05-2006 16:51:02 23.9 C 5.41 g/m*3 23.9 C 0 km/h
1829 02-05-2006 17:01:02 24.1 C 5.47 g/m*3 24.1 C 0 km/h
1830 02-05-2006 17:11:02 24.1 C 5.25 g/m*3 24.1 C 0 km/h
1831 02-05-2006 17:21:02 23.8 C 5.38 g/m*3 23.8 C 0 km/h
1832 02-05-2006 17:31:01 24.5 C 5.37 g/m*3 24.5 C 0 km/h
1833 02-05-2006 17:41:01 24.7 C 5.43 g/m*3 24.7 C 0 km/h
1834 02-05-2006 17:51:02 25.2 C 5.12 g/m*3 25.2 C 0 km/h
1835 02-05-2006 18:01:02 25.3 C 5.15 g/m*3 25.3 C 0 km/h
1836 02-05-2006 18:11:02 24.5 C 5.15 g/m*3 24.5 C 0 km/h
1837 02-05-2006 18:21:02 24.5 C 5.6 g/m*3 24.5 C 0 km/h
1838 02-05-2006 18:31:02 24.2 C 5.72 g/m*3 24.2 C 0 km/h
1839 02-05-2006 18:41:02 24.4 C 5.56 g/m*3 24.4 C 0 km/h
1840 02-05-2006 18:51:02 24.2 C 5.72 g/m*3 24.2 C 0 km/h
1841 02-05-2006 19:01:02 23.8 C 5.81 g/m*3 23.8 C 0 km/h
1842 02-05-2006 19:11:02 23.3 C 5.85 g/m*3 23.3 C 0 km/h
1843 02-05-2006 19:21:02 22.4 C 5.96 g/m*3 22.4 C 0 km/h
1844 02-05-2006 19:31:03 22 C 6.21 g/m*3 22 C 0 km/h
1845 02-05-2006 19:41:03 22.1 C 6.64 g/m*3 22.1 C 0 km/h
1846 02-05-2006 19:51:02 22.1 C 6.44 g/m*3 22.1 C 0 km/h
1847 02-05-2006 20:01:03 21.6 C 6.45 g/m*3 21.6 C 0 km/h
1848 02-05-2006 20:11:03 21.1 C 6.63 g/m*3 21.1 C 0 km/h
1849 02-05-2006 20:21:02 20.6 C 6.98 g/m*3 20.6 C 0 km/h
1850 02-05-2006 20:31:02 19.8 C 7 g/m*3 19.8 C 0 km/h
Sensor: Nr:Datum:Temp:Abs-Feuchte:Windchill:Wind:
Aussen-T/F 1851 02-05-2006 20:41:02 19.2 C 7.09 g/m*3 19.2 C 0 km/h
1852 02-05-2006 20:51:02 18.5 C 6.96 g/m*3 18.5 C 0 km/h
1853 02-05-2006 21:01:02 17.5 C 7.01 g/m*3 17.5 C 0 km/h
1854 02-05-2006 21:11:03 16.9 C 6.9 g/m*3 16.9 C 0 km/h
1855 02-05-2006 21:21:02 16.7 C 6.96 g/m*3 16.7 C 0 km/h
1856 02-05-2006 21:31:02 16.4 C 7.12 g/m*3 16.4 C 0 km/h
1857 02-05-2006 21:41:02 16.1 C 6.99 g/m*3 16.1 C 0 km/h
1858 02-05-2006 21:51:01 16 C 6.95 g/m*3 16 C 0 km/h
1859 02-05-2006 22:01:02 15.8 C 7 g/m*3 15.8 C 0 km/h
1860 02-05-2006 22:11:02 15.4 C 6.96 g/m*3 15.4 C 0 km/h
1861 02-05-2006 22:21:02 15.3 C 7.05 g/m*3 15.3 C 0 km/h
1862 02-05-2006 22:31:02 15.2 C 6.88 g/m*3 15.2 C 0 km/h
1863 02-05-2006 22:41:02 14.9 C 6.88 g/m*3 14.9 C 0 km/h
1864 02-05-2006 22:51:02 14.9 C 7.01 g/m*3 14.9 C 0 km/h
1865 02-05-2006 23:01:02 14.7 C 6.8 g/m*3 14.7 C 0 km/h
1866 02-05-2006 23:11:03 14.6 C 7.01 g/m*3 14.6 C 0 km/h
1867 02-05-2006 23:21:02 14.5 C 6.84 g/m*3 14.5 C 0 km/h
1868 02-05-2006 23:31:02 14.6 C 6.88 g/m*3 14.6 C 0 km/h
1869 02-05-2006 23:41:02 14.9 C 6.63 g/m*3 14.9 C 0 km/h
1870 02-05-2006 23:51:02 14.7 C 6.92 g/m*3 14.7 C 0 km/h
1871 03-05-2006 00:01:02 14.5 C 6.72 g/m*3 14.5 C 0 km/h
1872 03-05-2006 00:11:02 14.6 C 6.51 g/m*3 14.6 C 0 km/h
1873 03-05-2006 00:21:02 14.4 C 6.55 g/m*3 14.4 C 0 km/h
1874 03-05-2006 00:31:02 14.1 C 6.55 g/m*3 14.1 C 0 km/h
1875 03-05-2006 00:41:02 13.8 C 6.79 g/m*3 13.8 C 0 km/h
Sensor: Nr:Datum:Temp:Abs-Feuchte:Windchill:Wind:
Aussen-T/F 1876 03-05-2006 00:51:02 13.6 C 6.71 g/m*3 13.6 C 0 km/h
1877 03-05-2006 01:01:02 13.3 C 6.82 g/m*3 13.3 C 0 km/h
1878 03-05-2006 01:11:03 13.1 C 6.73 g/m*3 13.1 C 0 km/h
1879 03-05-2006 01:21:02 13 C 6.69 g/m*3 13 C 0 km/h
1880 03-05-2006 01:31:02 12.8 C 6.83 g/m*3 12.8 C 0 km/h
1881 03-05-2006 01:41:02 12.6 C 6.75 g/m*3 12.6 C 0 km/h
1882 03-05-2006 01:51:01 12.4 C 6.77 g/m*3 12.4 C 0 km/h
1883 03-05-2006 02:01:02 12.2 C 6.8 g/m*3 12.2 C 0 km/h
1884 03-05-2006 02:11:02 12.1 C 6.86 g/m*3 12.1 C 0 km/h
1885 03-05-2006 02:21:01 12 C 6.82 g/m*3 12 C 0 km/h
1886 03-05-2006 02:31:02 11.8 C 6.95 g/m*3 11.8 C 0 km/h
1887 03-05-2006 02:41:02 11.6 C 6.96 g/m*3 11.6 C 0 km/h
1888 03-05-2006 02:52:03 11.5 C 7.02 g/m*3 11.5 C 0 km/h
1889 03-05-2006 03:02:03 11.3 C 7.04 g/m*3 11.3 C 0 km/h
1890 03-05-2006 03:12:04 11 C 7.01 g/m*3 11 C 0 km/h
1891 03-05-2006 03:22:05 10.8 C 7.02 g/m*3 10.8 C 0 km/h
1892 03-05-2006 03:32:02 10.6 C 6.93 g/m*3 10.6 C 0 km/h
1893 03-05-2006 03:42:02 10.4 C 6.94 g/m*3 10.4 C 0 km/h
1894 03-05-2006 03:52:03 10.3 C 6.99 g/m*3 10.3 C 0 km/h
1895 03-05-2006 04:02:02 10 C 6.86 g/m*3 10 C 0 km/h
1896 03-05-2006 04:12:02 9.9 C 7 g/m*3 9.9 C 0 km/h
1897 03-05-2006 04:22:03 9.8 C 6.96 g/m*3 9.8 C 0 km/h
1898 03-05-2006 04:32:03 9.6 C 6.96 g/m*3 9.6 C 0 km/h
1899 03-05-2006 04:42:03 9.6 C 6.96 g/m*3 9.6 C 0 km/h
1900 03-05-2006 04:52:02 9.4 C 6.96 g/m*3 9.4 C 0 km/h
Sensor: Nr:Datum:Temp:Abs-Feuchte:Windchill:Wind:
Aussen-T/F 1901 03-05-2006 05:02:02 9.3 C 7.01 g/m*3 9.3 C 0 km/h
1902 03-05-2006 05:12:02 9.1 C 6.92 g/m*3 9.1 C 0 km/h
1903 03-05-2006 05:22:02 9 C 6.96 g/m*3 9 C 0 km/h
1904 03-05-2006 05:32:02 8.7 C 7.09 g/m*3 8.7 C 0 km/h
1905 03-05-2006 05:42:02 8.7 C 7.09 g/m*3 8.7 C 0 km/h
1906 03-05-2006 05:52:02 8.5 C 7 g/m*3 8.5 C 0 km/h
1907 03-05-2006 06:02:02 8.5 C 7 g/m*3 8.5 C 0 km/h
1908 03-05-2006 06:12:02 8.4 C 6.96 g/m*3 8.4 C 0 km/h
1909 03-05-2006 06:22:02 8.5 C 7 g/m*3 8.5 C 0 km/h
1910 03-05-2006 06:32:01 8.4 C 7.04 g/m*3 8.4 C 0 km/h
1911 03-05-2006 06:42:01 8.5 C 7.09 g/m*3 8.5 C 0 km/h
1912 03-05-2006 06:52:02 8.5 C 7.09 g/m*3 8.5 C 0 km/h
1913 03-05-2006 07:02:03 8.6 C 7.13 g/m*3 8.6 C 0 km/h
1914 03-05-2006 07:12:03 8.7 C 7.18 g/m*3 8.7 C 0 km/h
1915 03-05-2006 07:22:02 8.8 C 7.22 g/m*3 8.8 C 0 km/h
1916 03-05-2006 07:32:02 8.9 C 7.27 g/m*3 8.9 C 0 km/h
1917 03-05-2006 07:42:02 9 C 7.23 g/m*3 9 C 0 km/h
1918 03-05-2006 07:52:02 9.2 C 7.32 g/m*3 9.2 C 0 km/h
1919 03-05-2006 08:02:02 9.3 C 7.37 g/m*3 9.3 C 0 km/h
1920 03-05-2006 08:12:02 9.6 C 7.51 g/m*3 9.6 C 0 km/h
1921 03-05-2006 08:22:02 9.8 C 7.42 g/m*3 9.8 C 0 km/h
1922 03-05-2006 08:32:01 9.9 C 7.47 g/m*3 9.9 C 0 km/h
1923 03-05-2006 08:42:01 10.3 C 7.47 g/m*3 10.3 C 0 km/h
1924 03-05-2006 08:52:02 10.7 C 7.46 g/m*3 10.7 C 0 km/h
1925 03-05-2006 09:02:02 11.1 C 7.55 g/m*3 11.1 C 0 km/h
Sensor: Nr:Datum:Temp:Abs-Feuchte:Windchill:Wind:
Aussen-T/F 1926 03-05-2006 09:12:02 11.9 C 7.52 g/m*3 11.9 C 0 km/h
1927 03-05-2006 09:22:01 12.4 C 7.43 g/m*3 12.4 C 0 km/h
1928 03-05-2006 09:32:02 13 C 7.48 g/m*3 13 C 0 km/h
1929 03-05-2006 09:42:02 13.9 C 7.55 g/m*3 13.9 C 0 km/h
1930 03-05-2006 09:52:02 14.2 C 7.69 g/m*3 14.2 C 0 km/h
1931 03-05-2006 10:02:02 14.8 C 8.11 g/m*3 14.8 C 0 km/h
1932 03-05-2006 10:12:02 15.8 C 7.94 g/m*3 15.8 C 0 km/h
1933 03-05-2006 10:22:01 16.8 C 7.86 g/m*3 16.8 C 0 km/h
1934 03-05-2006 10:32:02 17 C 7.38 g/m*3 17 C 0 km/h
1935 03-05-2006 10:42:02 17.7 C 7.85 g/m*3 17.7 C 0 km/h
1936 03-05-2006 10:52:02 18.7 C 7.68 g/m*3 18.7 C 0 km/h
1937 03-05-2006 11:02:01 19.1 C 7.21 g/m*3 19.1 C 0 km/h
1938 03-05-2006 11:12:01 19.4 C 7.51 g/m*3 19.4 C 0 km/h
1939 03-05-2006 11:22:01 20.3 C 7.21 g/m*3 20.3 C 0 km/h
1940 03-05-2006 11:32:02 20.4 C 7.25 g/m*3 20.4 C 0 km/h
1941 03-05-2006 11:42:02 21.2 C 7.41 g/m*3 21.2 C 0 km/h
1942 03-05-2006 11:52:02 21.8 C 7.67 g/m*3 21.8 C 0 km/h
1943 03-05-2006 12:02:02 22.4 C 7.35 g/m*3 22.4 C 0 km/h
1944 03-05-2006 12:12:02 22.8 C 7.32 g/m*3 22.8 C 0 km/h
1945 03-05-2006 12:22:01 23.3 C 7.32 g/m*3 23.3 C 0 km/h
1946 03-05-2006 12:32:01 23.5 C 7.4 g/m*3 23.5 C 0 km/h
1947 03-05-2006 12:42:01 23.5 C 6.77 g/m*3 23.5 C 0 km/h
1948 03-05-2006 12:52:02 24.2 C 6.6 g/m*3 24.2 C 0 km/h
1949 03-05-2006 13:02:01 25.2 C 6.52 g/m*3 25.2 C 0 km/h
1950 03-05-2006 13:12:01 25.5 C 6.39 g/m*3 25.5 C 0 km/h
Sensor: Nr:Datum:Temp:Abs-Feuchte:Windchill:Wind:
Aussen-T/F 1951 03-05-2006 13:22:01 25.6 C 6.19 g/m*3 25.6 C 0 km/h
1952 03-05-2006 13:32:02 26.1 C 6.37 g/m*3 26.1 C 0 km/h
1953 03-05-2006 13:42:02 26.4 C 6.47 g/m*3 26.4 C 0 km/h
1954 03-05-2006 13:52:02 26.4 C 6.22 g/m*3 26.4 C 0 km/h
1955 03-05-2006 14:02:02 26.6 C 6.8 g/m*3 26.6 C 0 km/h
1956 03-05-2006 14:12:02 27.4 C 6.58 g/m*3 27.4 C 0 km/h
1957 03-05-2006 14:22:02 28.3 C 6.91 g/m*3 28.3 C 0 km/h
1958 03-05-2006 14:32:03 28.6 C 6.46 g/m*3 28.6 C 0 km/h
1959 03-05-2006 14:42:03 28.7 C 6.5 g/m*3 28.7 C 0 km/h
1960 03-05-2006 14:52:02 28.8 C 6.82 g/m*3 28.8 C 0 km/h
1961 03-05-2006 15:02:02 28.9 C 7.14 g/m*3 28.9 C 0 km/h
1962 03-05-2006 15:12:02 29.3 C 6.42 g/m*3 29.3 C 0 km/h
1963 03-05-2006 15:22:02 29.7 C 6.56 g/m*3 29.7 C 0 km/h
1964 03-05-2006 15:32:02 29.7 C 7.16 g/m*3 29.7 C 0 km/h
1965 03-05-2006 15:42:02 29.8 C 7.2 g/m*3 29.8 C 0 km/h
1966 03-05-2006 15:52:02 29.5 C 7.08 g/m*3 29.5 C 0 km/h
1967 03-05-2006 16:02:02 28.8 C 7.1 g/m*3 28.8 C 0 km/h
1968 03-05-2006 16:12:02 28.9 C 7.14 g/m*3 28.9 C 0 km/h
1969 03-05-2006 16:22:02 29 C 6.89 g/m*3 29 C 0 km/h
1970 03-05-2006 16:32:01 28.9 C 7.14 g/m*3 28.9 C 0 km/h
1971 03-05-2006 16:42:01 28.6 C 7.03 g/m*3 28.6 C 0 km/h
1972 03-05-2006 16:52:02 29 C 6.89 g/m*3 29 C 0 km/h
1973 03-05-2006 17:02:02 29.3 C 6.72 g/m*3 29.3 C 0 km/h
1974 03-05-2006 17:12:02 29.1 C 6.64 g/m*3 29.1 C 0 km/h
1975 03-05-2006 17:22:01 29.2 C 6.68 g/m*3 29.2 C 0 km/h
Sensor: Nr:Datum:Temp:Abs-Feuchte:Windchill:Wind:
Aussen-T/F 1976 03-05-2006 17:32:02 29.2 C 6.1 g/m*3 29.2 C 0 km/h
1977 03-05-2006 17:42:02 29.2 C 6.39 g/m*3 29.2 C 0 km/h
1978 03-05-2006 17:52:02 29.1 C 6.93 g/m*3 29.1 C 0 km/h
1979 03-05-2006 18:02:03 28.8 C 7.1 g/m*3 28.8 C 0 km/h
1980 03-05-2006 18:12:03 28.8 C 7.1 g/m*3 28.8 C 0 km/h
1981 03-05-2006 18:22:03 28.2 C 7.15 g/m*3 28.2 C 0 km/h
1982 03-05-2006 18:32:02 28.1 C 7.38 g/m*3 28.1 C 0 km/h
1983 03-05-2006 18:42:02 27.4 C 7.1 g/m*3 27.4 C 0 km/h
1984 03-05-2006 18:52:02 27.2 C 7.81 g/m*3 27.2 C 0 km/h
1985 03-05-2006 19:02:02 26.6 C 7.8 g/m*3 26.6 C 0 km/h
1986 03-05-2006 19:12:02 26.5 C 8.76 g/m*3 26.5 C 0 km/h
1987 03-05-2006 19:22:01 25.9 C 8.96 g/m*3 25.9 C 0 km/h
1988 03-05-2006 19:32:02 25 C 8.98 g/m*3 25 C 0 km/h
1989 03-05-2006 19:42:02 24.6 C 9 g/m*3 24.6 C 0 km/h
1990 03-05-2006 19:52:02 24 C 9.14 g/m*3 24 C 0 km/h
1991 03-05-2006 20:02:01 23.6 C 9.15 g/m*3 23.6 C 0 km/h
1992 03-05-2006 20:12:01 23.1 C 9.1 g/m*3 23.1 C 0 km/h
1993 03-05-2006 20:22:01 22.7 C 8.89 g/m*3 22.7 C 0 km/h
1994 03-05-2006 20:32:02 22.3 C 8.69 g/m*3 22.3 C 0 km/h
1995 03-05-2006 20:42:02 21.7 C 8.58 g/m*3 21.7 C 0 km/h
1996 03-05-2006 20:52:02 21.4 C 8.62 g/m*3 21.4 C 0 km/h
1997 03-05-2006 21:02:01 21 C 8.43 g/m*3 21 C 0 km/h
1998 03-05-2006 21:12:01 20.6 C 8.59 g/m*3 20.6 C 0 km/h
1999 03-05-2006 21:22:01 20.3 C 8.79 g/m*3 20.3 C 0 km/h
2000 03-05-2006 21:32:01 20.2 C 8.74 g/m*3 20.2 C 0 km/h
Sensor: Nr:Datum:Temp:Abs-Feuchte:Windchill:Wind:
Aussen-T/F 2001 03-05-2006 21:42:01 19.8 C 8.88 g/m*3 19.8 C 0 km/h
2002 03-05-2006 21:52:02 19.6 C 8.78 g/m*3 19.6 C 0 km/h
2003 03-05-2006 22:02:01 19.3 C 8.79 g/m*3 19.3 C 0 km/h
2004 03-05-2006 22:12:01 19.1 C 8.69 g/m*3 19.1 C 0 km/h
2005 03-05-2006 22:22:01 19 C 8.64 g/m*3 19 C 0 km/h
2006 03-05-2006 22:32:02 18.7 C 8.65 g/m*3 18.7 C 0 km/h
2007 03-05-2006 22:42:02 18.5 C 8.7 g/m*3 18.5 C 0 km/h
2008 03-05-2006 22:52:02 18.3 C 8.6 g/m*3 18.3 C 0 km/h
2009 03-05-2006 23:02:01 18.2 C 8.7 g/m*3 18.2 C 0 km/h
2010 03-05-2006 23:12:01 17.9 C 8.86 g/m*3 17.9 C 0 km/h
2011 03-05-2006 23:22:01 17.7 C 8.75 g/m*3 17.7 C 0 km/h
2012 03-05-2006 23:32:02 17.4 C 8.74 g/m*3 17.4 C 0 km/h
2013 03-05-2006 23:42:02 17.2 C 8.79 g/m*3 17.2 C 0 km/h
2014 03-05-2006 23:52:02 17 C 8.83 g/m*3 17 C 0 km/h
2015 04-05-2006 00:02:02 16.7 C 8.95 g/m*3 16.7 C 0 km/h
2016 04-05-2006 00:12:03 16.5 C 8.99 g/m*3 16.5 C 0 km/h
2017 04-05-2006 00:22:02 16.3 C 9.02 g/m*3 16.3 C 0 km/h
2018 04-05-2006 00:32:02 16.2 C 9.1 g/m*3 16.2 C 0 km/h
2019 04-05-2006 00:42:03 16 C 8.99 g/m*3 16 C 0 km/h
2020 04-05-2006 00:52:03 15.8 C 9.02 g/m*3 15.8 C 0 km/h
2021 04-05-2006 01:02:03 15.7 C 8.96 g/m*3 15.7 C 0 km/h
2022 04-05-2006 01:12:03 15.7 C 9.1 g/m*3 15.7 C 0 km/h
2023 04-05-2006 01:22:03 15.5 C 8.99 g/m*3 15.5 C 0 km/h
2024 04-05-2006 01:32:03 15.2 C 8.96 g/m*3 15.2 C 0 km/h
2025 04-05-2006 01:42:03 15.1 C 9.03 g/m*3 15.1 C 0 km/h
Sensor: Nr:Datum:Temp:Abs-Feuchte:Windchill:Wind:
Aussen-T/F 2026 04-05-2006 01:52:03 14.9 C 9.05 g/m*3 14.9 C 0 km/h
2027 04-05-2006 02:02:02 14.8 C 8.99 g/m*3 14.8 C 0 km/h
2028 04-05-2006 02:12:02 14.7 C 9.07 g/m*3 14.7 C 0 km/h
2029 04-05-2006 02:22:03 14.6 C 9.01 g/m*3 14.6 C 0 km/h
2030 04-05-2006 02:32:02 14.4 C 9.02 g/m*3 14.4 C 0 km/h
2031 04-05-2006 02:42:02 14.1 C 8.86 g/m*3 14.1 C 0 km/h
2032 04-05-2006 02:53:04 14.1 C 8.86 g/m*3 14.1 C 0 km/h
2033 04-05-2006 03:03:04 14 C 8.81 g/m*3 14 C 0 km/h
2034 04-05-2006 03:13:03 13.7 C 8.76 g/m*3 13.7 C 0 km/h
2035 04-05-2006 03:23:03 13.5 C 8.77 g/m*3 13.5 C 0 km/h
2036 04-05-2006 03:33:02 13.4 C 8.72 g/m*3 13.4 C 0 km/h
2037 04-05-2006 03:43:03 13.3 C 8.78 g/m*3 13.3 C 0 km/h
2038 04-05-2006 03:53:03 13.1 C 8.67 g/m*3 13.1 C 0 km/h
2039 04-05-2006 04:03:02 13 C 8.62 g/m*3 13 C 0 km/h
2040 04-05-2006 04:13:02 13 C 8.62 g/m*3 13 C 0 km/h
2041 04-05-2006 04:23:03 12.8 C 8.62 g/m*3 12.8 C 0 km/h
2042 04-05-2006 04:33:03 12.6 C 8.52 g/m*3 12.6 C 0 km/h
2043 04-05-2006 04:43:03 12.5 C 8.58 g/m*3 12.5 C 0 km/h
2044 04-05-2006 04:53:02 12.4 C 8.52 g/m*3 12.4 C 0 km/h
2045 04-05-2006 05:03:02 12.3 C 8.58 g/m*3 12.3 C 0 km/h
2046 04-05-2006 05:13:02 12.1 C 8.58 g/m*3 12.1 C 0 km/h
2047 04-05-2006 05:23:02 12 C 8.63 g/m*3 12 C 0 km/h
2048 04-05-2006 05:33:02 11.7 C 8.47 g/m*3 11.7 C 0 km/h
2049 04-05-2006 05:43:02 11.6 C 8.42 g/m*3 11.6 C 0 km/h
2050 04-05-2006 05:53:02 11.5 C 8.47 g/m*3 11.5 C 0 km/h
Sensor: Nr:Datum:Temp:Abs-Feuchte:Windchill:Wind:
Aussen-T/F 2051 04-05-2006 06:03:02 11.4 C 8.52 g/m*3 11.4 C 0 km/h
2052 04-05-2006 06:13:02 11.3 C 8.47 g/m*3 11.3 C 0 km/h
2053 04-05-2006 06:23:01 11.3 C 8.47 g/m*3 11.3 C 0 km/h
2054 04-05-2006 06:33:02 11.4 C 8.52 g/m*3 11.4 C 0 km/h
2055 04-05-2006 06:43:02 11.3 C 8.47 g/m*3 11.3 C 0 km/h
2056 04-05-2006 06:53:02 11.4 C 8.52 g/m*3 11.4 C 0 km/h
2057 04-05-2006 07:03:02 11.4 C 8.62 g/m*3 11.4 C 0 km/h
2058 04-05-2006 07:13:02 11.5 C 8.68 g/m*3 11.5 C 0 km/h
2059 04-05-2006 07:23:01 11.7 C 8.79 g/m*3 11.7 C 0 km/h
2060 04-05-2006 07:33:01 12 C 8.85 g/m*3 12 C 0 km/h
2061 04-05-2006 07:43:01 12.3 C 8.9 g/m*3 12.3 C 0 km/h
2062 04-05-2006 07:53:02 12.5 C 8.91 g/m*3 12.5 C 0 km/h
2063 04-05-2006 08:03:01 12.7 C 8.91 g/m*3 12.7 C 0 km/h
2064 04-05-2006 08:13:01 12.9 C 9.02 g/m*3 12.9 C 0 km/h
2065 04-05-2006 08:23:01 13 C 8.85 g/m*3 13 C 0 km/h
2066 04-05-2006 08:33:02 13.2 C 8.84 g/m*3 13.2 C 0 km/h
2067 04-05-2006 08:43:02 13.5 C 8.89 g/m*3 13.5 C 0 km/h
2068 04-05-2006 08:53:02 13.9 C 9.23 g/m*3 13.9 C 0 km/h
2069 04-05-2006 09:03:01 14.5 C 9.33 g/m*3 14.5 C 0 km/h
2070 04-05-2006 09:13:01 15 C 9.36 g/m*3 15 C 0 km/h
2071 04-05-2006 09:23:01 15.5 C 9.52 g/m*3 15.5 C 0 km/h
2072 04-05-2006 09:33:02 16.3 C 9.43 g/m*3 16.3 C 0 km/h
2073 04-05-2006 09:43:02 17.1 C 8.88 g/m*3 17.1 C 0 km/h
2074 04-05-2006 09:53:02 17.8 C 8.8 g/m*3 17.8 C 0 km/h
2075 04-05-2006 10:03:02 18.3 C 7.97 g/m*3 18.3 C 0 km/h
Sensor: Nr:Datum:Temp:Abs-Feuchte:Windchill:Wind:
Aussen-T/F 2076 04-05-2006 10:13:02 18.9 C 7.29 g/m*3 18.9 C 0 km/h
2077 04-05-2006 10:23:02 19.5 C 7.05 g/m*3 19.5 C 0 km/h
2078 04-05-2006 10:33:03 19.8 C 7.17 g/m*3 19.8 C 0 km/h
2079 04-05-2006 10:43:03 20.5 C 7.3 g/m*3 20.5 C 0 km/h
2080 04-05-2006 10:53:02 20.7 C 7.38 g/m*3 20.7 C 0 km/h
2081 04-05-2006 11:03:02 21.1 C 7.19 g/m*3 21.1 C 0 km/h
2082 04-05-2006 11:13:02 21.5 C 6.79 g/m*3 21.5 C 0 km/h
2083 04-05-2006 11:23:02 22 C 6.99 g/m*3 22 C 0 km/h
2084 04-05-2006 11:33:02 22.5 C 6.99 g/m*3 22.5 C 0 km/h
2085 04-05-2006 11:43:02 22.5 C 6.59 g/m*3 22.5 C 0 km/h
2086 04-05-2006 11:53:02 22.5 C 6.59 g/m*3 22.5 C 0 km/h
2087 04-05-2006 12:03:02 23 C 6.37 g/m*3 23 C 0 km/h
2088 04-05-2006 12:13:02 23.4 C 6.31 g/m*3 23.4 C 0 km/h
2089 04-05-2006 12:23:01 23.3 C 6.27 g/m*3 23.3 C 0 km/h
2090 04-05-2006 12:33:02 23.9 C 6.27 g/m*3 23.9 C 0 km/h
2091 04-05-2006 12:43:02 24.3 C 6.2 g/m*3 24.3 C 0 km/h
2092 04-05-2006 12:53:02 24.6 C 6.3 g/m*3 24.6 C 0 km/h
2093 04-05-2006 13:03:01 25.1 C 6.25 g/m*3 25.1 C 0 km/h
2094 04-05-2006 13:13:01 25.4 C 5.89 g/m*3 25.4 C 0 km/h
2095 04-05-2006 13:23:01 25.7 C 5.99 g/m*3 25.7 C 0 km/h
2096 04-05-2006 13:33:02 26 C 5.6 g/m*3 26 C 0 km/h
2097 04-05-2006 13:43:02 26 C 5.36 g/m*3 26 C 0 km/h
2098 04-05-2006 13:53:02 26.2 C 5.17 g/m*3 26.2 C 0 km/h
2099 04-05-2006 14:03:01 26.2 C 5.17 g/m*3 26.2 C 0 km/h
2100 04-05-2006 14:13:01 26.6 C 5.29 g/m*3 26.6 C 0 km/h
Sensor: Nr:Datum:Temp:Abs-Feuchte:Windchill:Wind:
Aussen-T/F 2101 04-05-2006 14:23:01 26.5 C 5.01 g/m*3 26.5 C 0 km/h
2102 04-05-2006 14:33:02 27 C 5.15 g/m*3 27 C 0 km/h
2103 04-05-2006 14:43:02 27.2 C 5.2 g/m*3 27.2 C 0 km/h
2104 04-05-2006 14:53:02 27.4 C 5.26 g/m*3 27.4 C 0 km/h
2105 04-05-2006 15:03:02 27.6 C 5.32 g/m*3 27.6 C 0 km/h
2106 04-05-2006 15:13:02 27.9 C 5.41 g/m*3 27.9 C 0 km/h
2107 04-05-2006 15:23:02 27.9 C 5.41 g/m*3 27.9 C 0 km/h
2108 04-05-2006 15:33:03 28.1 C 5.47 g/m*3 28.1 C 0 km/h
2109 04-05-2006 15:43:03 28.1 C 5.47 g/m*3 28.1 C 0 km/h
2110 04-05-2006 15:53:02 28.2 C 5.5 g/m*3 28.2 C 0 km/h
2111 04-05-2006 16:03:02 28.3 C 5.53 g/m*3 28.3 C 0 km/h
2112 04-05-2006 16:13:02 28.6 C 5.62 g/m*3 28.6 C 0 km/h
2113 04-05-2006 16:23:02 28.4 C 5.56 g/m*3 28.4 C 0 km/h
2114 04-05-2006 16:33:02 28.4 C 5.56 g/m*3 28.4 C 0 km/h
2115 04-05-2006 16:43:02 28.1 C 5.47 g/m*3 28.1 C 0 km/h
2116 04-05-2006 16:53:02 28.1 C 5.47 g/m*3 28.1 C 0 km/h
2117 04-05-2006 17:03:02 27.8 C 5.38 g/m*3 27.8 C 0 km/h
2118 04-05-2006 17:13:02 27.7 C 5.35 g/m*3 27.7 C 0 km/h
2119 04-05-2006 17:23:02 27.7 C 5.35 g/m*3 27.7 C 0 km/h
2120 04-05-2006 17:33:02 27.6 C 5.32 g/m*3 27.6 C 0 km/h
2121 04-05-2006 17:43:02 27.4 C 5.26 g/m*3 27.4 C 0 km/h
2122 04-05-2006 17:53:02 27.2 C 5.2 g/m*3 27.2 C 0 km/h
2123 04-05-2006 18:03:02 26.9 C 5.12 g/m*3 26.9 C 0 km/h
2124 04-05-2006 18:13:02 27 C 5.15 g/m*3 27 C 0 km/h
2125 04-05-2006 18:23:02 26.9 C 5.12 g/m*3 26.9 C 0 km/h
Sensor: Nr:Datum:Temp:Abs-Feuchte:Windchill:Wind:
Aussen-T/F 2126 04-05-2006 18:33:02 26.9 C 5.12 g/m*3 26.9 C 0 km/h
2127 04-05-2006 18:43:02 26.9 C 6.4 g/m*3 26.9 C 0 km/h
2128 04-05-2006 18:53:02 26.5 C 6.51 g/m*3 26.5 C 0 km/h
2129 04-05-2006 19:03:01 26.2 C 6.4 g/m*3 26.2 C 0 km/h
2130 04-05-2006 19:13:01 25.7 C 6.46 g/m*3 25.7 C 0 km/h
2131 04-05-2006 19:23:01 25.1 C 6.25 g/m*3 25.1 C 0 km/h
2132 04-05-2006 19:33:02 24.5 C 6.27 g/m*3 24.5 C 0 km/h
2133 04-05-2006 19:43:02 23.8 C 6.24 g/m*3 23.8 C 0 km/h
2134 04-05-2006 19:53:02 23.3 C 6.27 g/m*3 23.3 C 0 km/h
2135 04-05-2006 20:03:01 22.8 C 6.3 g/m*3 22.8 C 0 km/h
2136 04-05-2006 20:13:01 22.1 C 6.25 g/m*3 22.1 C 0 km/h
2137 04-05-2006 20:23:01 21.8 C 6.33 g/m*3 21.8 C 0 km/h
2138 04-05-2006 20:33:02 21.2 C 6.12 g/m*3 21.2 C 0 km/h
2139 04-05-2006 20:43:02 20.7 C 6.3 g/m*3 20.7 C 0 km/h
2140 04-05-2006 20:53:02 20.3 C 6.16 g/m*3 20.3 C 0 km/h
2141 04-05-2006 21:03:02 19.9 C 6.19 g/m*3 19.9 C 0 km/h
2142 04-05-2006 21:13:02 19.5 C 6.04 g/m*3 19.5 C 0 km/h
2143 04-05-2006 21:23:02 19.3 C 5.97 g/m*3 19.3 C 0 km/h
2144 04-05-2006 21:33:03 19.2 C 5.94 g/m*3 19.2 C 0 km/h
2145 04-05-2006 21:43:03 19.1 C 5.9 g/m*3 19.1 C 0 km/h
2146 04-05-2006 21:53:02 18.7 C 6.24 g/m*3 18.7 C 0 km/h
2147 04-05-2006 22:03:02 18.6 C 6.37 g/m*3 18.6 C 0 km/h
2148 04-05-2006 22:13:02 18.3 C 6.25 g/m*3 18.3 C 0 km/h
2149 04-05-2006 22:23:02 18 C 6.3 g/m*3 18 C 0 km/h
2150 04-05-2006 22:33:03 17.8 C 6.37 g/m*3 17.8 C 0 km/h
Sensor: Nr:Datum:Temp:Abs-Feuchte:Windchill:Wind:
Aussen-T/F 2151 04-05-2006 22:43:03 17.7 C 6.49 g/m*3 17.7 C 0 km/h
2152 04-05-2006 22:53:02 17.6 C 6.75 g/m*3 17.6 C 0 km/h
2153 04-05-2006 23:03:02 17.4 C 6.82 g/m*3 17.4 C 0 km/h
2154 04-05-2006 23:13:02 17 C 6.51 g/m*3 17 C 0 km/h
2155 04-05-2006 23:23:02 16.9 C 6.62 g/m*3 16.9 C 0 km/h
2156 04-05-2006 23:33:02 16.7 C 6.54 g/m*3 16.7 C 0 km/h
2157 04-05-2006 23:43:02 16.6 C 6.5 g/m*3 16.6 C 0 km/h
2158 04-05-2006 23:53:02 16.7 C 6.4 g/m*3 16.7 C 0 km/h
2159 05-05-2006 00:03:02 16.7 C 6.25 g/m*3 16.7 C 0 km/h
2160 05-05-2006 00:13:02 16.7 C 6.4 g/m*3 16.7 C 0 km/h
2161 05-05-2006 00:23:03 16.7 C 6.4 g/m*3 16.7 C 0 km/h
2162 05-05-2006 00:33:02 16.7 C 6.25 g/m*3 16.7 C 0 km/h
2163 05-05-2006 00:43:02 16.6 C 6.5 g/m*3 16.6 C 0 km/h
2164 05-05-2006 00:53:02 16.6 C 6.22 g/m*3 16.6 C 0 km/h
2165 05-05-2006 01:03:02 16.6 C 6.22 g/m*3 16.6 C 0 km/h
2166 05-05-2006 01:13:02 16.5 C 6.18 g/m*3 16.5 C 0 km/h
2167 05-05-2006 01:23:02 16.4 C 6.14 g/m*3 16.4 C 0 km/h
2168 05-05-2006 01:33:01 16.4 C 6 g/m*3 16.4 C 0 km/h
2169 05-05-2006 01:43:01 16.4 C 5.86 g/m*3 16.4 C 0 km/h
2170 05-05-2006 01:53:02 16.8 C 6 g/m*3 16.8 C 0 km/h
2171 05-05-2006 02:03:03 16.8 C 6 g/m*3 16.8 C 0 km/h
2172 05-05-2006 02:13:03 16.5 C 5.9 g/m*3 16.5 C 0 km/h
2173 05-05-2006 02:23:02 16.3 C 5.97 g/m*3 16.3 C 0 km/h
2174 05-05-2006 02:33:02 16 C 6.13 g/m*3 16 C 0 km/h
2175 05-05-2006 02:43:02 15.6 C 6.25 g/m*3 15.6 C 0 km/h
Sensor: Nr:Datum:Temp:Abs-Feuchte:Windchill:Wind:
Aussen-T/F 2176 05-05-2006 02:54:03 15.5 C 6.21 g/m*3 15.5 C 0 km/h
2177 05-05-2006 03:04:03 15.5 C 6.21 g/m*3 15.5 C 0 km/h
2178 05-05-2006 03:14:04 15.1 C 6.19 g/m*3 15.1 C 0 km/h
2179 05-05-2006 03:24:04 14.8 C 6.21 g/m*3 14.8 C 0 km/h
2180 05-05-2006 03:34:03 14.7 C 6.3 g/m*3 14.7 C 0 km/h
2181 05-05-2006 03:44:03 14.3 C 6.27 g/m*3 14.3 C 0 km/h
2182 05-05-2006 03:54:03 14.1 C 6.43 g/m*3 14.1 C 0 km/h
2183 05-05-2006 04:04:03 14.1 C 6.43 g/m*3 14.1 C 0 km/h
2184 05-05-2006 04:14:03 13.9 C 6.59 g/m*3 13.9 C 0 km/h
2185 05-05-2006 04:24:02 13.7 C 6.63 g/m*3 13.7 C 0 km/h
2186 05-05-2006 04:34:03 13.5 C 6.67 g/m*3 13.5 C 0 km/h
2187 05-05-2006 04:44:03 13.4 C 6.97 g/m*3 13.4 C 0 km/h
2188 05-05-2006 04:54:02 13.1 C 6.73 g/m*3 13.1 C 0 km/h
2189 05-05-2006 05:04:02 12.8 C 6.83 g/m*3 12.8 C 0 km/h
2190 05-05-2006 05:14:02 12.6 C 6.86 g/m*3 12.6 C 0 km/h
2191 05-05-2006 05:24:02 12.4 C 7.1 g/m*3 12.4 C 0 km/h
2192 05-05-2006 05:34:02 12.2 C 7.01 g/m*3 12.2 C 0 km/h
2193 05-05-2006 05:44:02 12.1 C 7.08 g/m*3 12.1 C 0 km/h
2194 05-05-2006 05:54:02 12 C 7.14 g/m*3 12 C 0 km/h
2195 05-05-2006 06:04:02 11.8 C 7.37 g/m*3 11.8 C 0 km/h
2196 05-05-2006 06:14:02 11.7 C 7.22 g/m*3 11.7 C 0 km/h
2197 05-05-2006 06:24:02 11.6 C 7.38 g/m*3 11.6 C 0 km/h
2198 05-05-2006 06:34:03 11.5 C 7.44 g/m*3 11.5 C 0 km/h
2199 05-05-2006 06:44:03 11.6 C 7.48 g/m*3 11.6 C 0 km/h
2200 05-05-2006 06:54:03 11.8 C 7.58 g/m*3 11.8 C 0 km/h
Sensor: Nr:Datum:Temp:Abs-Feuchte:Windchill:Wind:
Aussen-T/F 2201 05-05-2006 07:04:02 11.9 C 7.52 g/m*3 11.9 C 0 km/h
2202 05-05-2006 07:14:02 12.3 C 7.6 g/m*3 12.3 C 0 km/h
2203 05-05-2006 07:24:02 12.6 C 7.63 g/m*3 12.6 C 0 km/h
2204 05-05-2006 07:34:02 13.2 C 7.69 g/m*3 13.2 C 0 km/h
2205 05-05-2006 07:44:02 13.5 C 7.72 g/m*3 13.5 C 0 km/h
2206 05-05-2006 07:54:02 13.7 C 7.58 g/m*3 13.7 C 0 km/h
2207 05-05-2006 08:04:01 14.2 C 7.45 g/m*3 14.2 C 0 km/h
2208 05-05-2006 08:14:01 14.5 C 7.46 g/m*3 14.5 C 0 km/h
2209 05-05-2006 08:24:01 14.7 C 7.3 g/m*3 14.7 C 0 km/h
2210 05-05-2006 08:34:02 14.9 C 7.26 g/m*3 14.9 C 0 km/h
2211 05-05-2006 08:44:02 15.2 C 7.4 g/m*3 15.2 C 0 km/h
2212 05-05-2006 08:54:01 15.9 C 7.45 g/m*3 15.9 C 0 km/h
2213 05-05-2006 09:04:01 16.3 C 6.8 g/m*3 16.3 C 0 km/h
2214 05-05-2006 09:14:01 16.7 C 6.68 g/m*3 16.7 C 0 km/h
2215 05-05-2006 09:24:01 17 C 6.66 g/m*3 17 C 0 km/h
2216 05-05-2006 09:34:02 17.2 C 6.59 g/m*3 17.2 C 0 km/h
2217 05-05-2006 09:44:02 17.7 C 6.94 g/m*3 17.7 C 0 km/h
2218 05-05-2006 09:54:02 17.8 C 6.83 g/m*3 17.8 C 0 km/h
2219 05-05-2006 10:04:02 17.9 C 6.87 g/m*3 17.9 C 0 km/h
2220 05-05-2006 10:14:02 18.1 C 6.95 g/m*3 18.1 C 0 km/h
2221 05-05-2006 10:24:02 18.5 C 6.8 g/m*3 18.5 C 0 km/h
2222 05-05-2006 10:34:03 18.9 C 6.97 g/m*3 18.9 C 0 km/h
2223 05-05-2006 10:44:03 19.2 C 7.09 g/m*3 19.2 C 0 km/h
2224 05-05-2006 10:54:02 19.5 C 6.88 g/m*3 19.5 C 0 km/h
2225 05-05-2006 11:04:02 19.9 C 7.04 g/m*3 19.9 C 0 km/h
Sensor: Nr:Datum:Temp:Abs-Feuchte:Windchill:Wind:
Aussen-T/F 2226 05-05-2006 11:14:02 20.1 C 6.78 g/m*3 20.1 C 0 km/h
2227 05-05-2006 11:24:02 20.8 C 7.24 g/m*3 20.8 C 0 km/h
2228 05-05-2006 11:34:02 20.9 C 7.1 g/m*3 20.9 C 0 km/h
2229 05-05-2006 11:44:02 21.3 C 6.9 g/m*3 21.3 C 0 km/h
2230 05-05-2006 11:54:02 22 C 7.18 g/m*3 22 C 0 km/h
2231 05-05-2006 12:04:02 22.5 C 6.99 g/m*3 22.5 C 0 km/h
2232 05-05-2006 12:14:02 23.1 C 6.82 g/m*3 23.1 C 0 km/h
2233 05-05-2006 12:24:01 23.3 C 6.9 g/m*3 23.3 C 0 km/h
2234 05-05-2006 12:34:02 23.3 C 6.9 g/m*3 23.3 C 0 km/h
2235 05-05-2006 12:44:02 23.7 C 6.84 g/m*3 23.7 C 0 km/h
2236 05-05-2006 12:54:02 24.1 C 6.56 g/m*3 24.1 C 0 km/h
2237 05-05-2006 13:04:02 24.9 C 6.64 g/m*3 24.9 C 0 km/h
2238 05-05-2006 13:14:02 25 C 5.99 g/m*3 25 C 0 km/h
2239 05-05-2006 13:24:02 25.5 C 6.16 g/m*3 25.5 C 0 km/h
2240 05-05-2006 13:34:02 26.2 C 6.15 g/m*3 26.2 C 0 km/h
2241 05-05-2006 13:44:02 26.2 C 5.91 g/m*3 26.2 C 0 km/h
2242 05-05-2006 13:54:02 26.9 C 6.4 g/m*3 26.9 C 0 km/h
2243 05-05-2006 14:04:02 27.1 C 6.47 g/m*3 27.1 C 0 km/h
2244 05-05-2006 14:14:02 27.3 C 6.54 g/m*3 27.3 C 0 km/h
2245 05-05-2006 14:24:02 27.5 C 6.35 g/m*3 27.5 C 0 km/h
2246 05-05-2006 14:34:01 27.8 C 6.19 g/m*3 27.8 C 0 km/h
2247 05-05-2006 14:44:01 28 C 5.71 g/m*3 28 C 0 km/h
2248 05-05-2006 14:54:02 28.1 C 5.74 g/m*3 28.1 C 0 km/h
2249 05-05-2006 15:04:02 28.3 C 6.08 g/m*3 28.3 C 0 km/h
2250 05-05-2006 15:14:02 27.7 C 6.15 g/m*3 27.7 C 0 km/h
Sensor: Nr:Datum:Temp:Abs-Feuchte:Windchill:Wind:
Aussen-T/F 2251 05-05-2006 15:24:02 27.9 C 6.22 g/m*3 27.9 C 0 km/h
2252 05-05-2006 15:34:01 28.2 C 6.05 g/m*3 28.2 C 0 km/h
2253 05-05-2006 15:44:01 28.2 C 5.5 g/m*3 28.2 C 0 km/h
2254 05-05-2006 15:54:02 28.7 C 5.93 g/m*3 28.7 C 0 km/h
2255 05-05-2006 16:04:02 29.7 C 5.97 g/m*3 29.7 C 0 km/h
2256 05-05-2006 16:14:02 30 C 6.06 g/m*3 30 C 0 km/h
2257 05-05-2006 16:24:02 30.1 C 6.1 g/m*3 30.1 C 0 km/h
2258 05-05-2006 16:34:02 30.2 C 6.13 g/m*3 30.2 C 0 km/h
2259 05-05-2006 16:44:02 30.4 C 6.2 g/m*3 30.4 C 0 km/h
2260 05-05-2006 16:54:02 30.5 C 6.23 g/m*3 30.5 C 0 km/h
2261 05-05-2006 17:04:01 30.7 C 6.3 g/m*3 30.7 C 0 km/h
2262 05-05-2006 17:14:01 30.6 C 6.26 g/m*3 30.6 C 0 km/h
2263 05-05-2006 17:24:01 30.7 C 6.3 g/m*3 30.7 C 0 km/h
2264 05-05-2006 17:34:02 30.1 C 6.1 g/m*3 30.1 C 0 km/h
2265 05-05-2006 17:44:02 29.4 C 5.87 g/m*3 29.4 C 0 km/h
2266 05-05-2006 17:54:02 28.3 C 5.53 g/m*3 28.3 C 0 km/h
2267 05-05-2006 18:04:01 28 C 5.44 g/m*3 28 C 0 km/h
2268 05-05-2006 18:14:01 27.6 C 5.32 g/m*3 27.6 C 0 km/h
2269 05-05-2006 18:24:01 28.1 C 5.47 g/m*3 28.1 C 0 km/h
2270 05-05-2006 18:34:02 28.5 C 5.59 g/m*3 28.5 C 0 km/h
2271 05-05-2006 18:44:02 28.4 C 5.56 g/m*3 28.4 C 0 km/h
2272 05-05-2006 18:54:02 28 C 5.44 g/m*3 28 C 0 km/h
2273 05-05-2006 19:04:02 28.2 C 5.5 g/m*3 28.2 C 0 km/h
2274 05-05-2006 19:14:02 28.2 C 5.5 g/m*3 28.2 C 0 km/h
2275 05-05-2006 19:24:02 27.9 C 5.41 g/m*3 27.9 C 0 km/h
Sensor: Nr:Datum:Temp:Abs-Feuchte:Windchill:Wind:
Aussen-T/F 2276 05-05-2006 19:34:03 27.4 C 5.26 g/m*3 27.4 C 0 km/h
2277 05-05-2006 19:44:03 27 C 5.4 g/m*3 27 C 0 km/h
2278 05-05-2006 19:54:02 26.7 C 5.32 g/m*3 26.7 C 0 km/h
2279 05-05-2006 20:04:02 25.8 C 6.02 g/m*3 25.8 C 0 km/h
2280 05-05-2006 20:14:02 24.6 C 5.85 g/m*3 24.6 C 0 km/h
2281 05-05-2006 20:24:02 23.7 C 6.2 g/m*3 23.7 C 0 km/h
2282 05-05-2006 20:34:02 22.9 C 6.34 g/m*3 22.9 C 0 km/h
2283 05-05-2006 20:44:02 22.3 C 6.12 g/m*3 22.3 C 0 km/h
2284 05-05-2006 20:54:02 21.4 C 6.19 g/m*3 21.4 C 0 km/h
2285 05-05-2006 21:04:02 20.9 C 6.37 g/m*3 20.9 C 0 km/h
2286 05-05-2006 21:14:02 20.2 C 6.12 g/m*3 20.2 C 0 km/h
2287 05-05-2006 21:24:02 19.8 C 6.15 g/m*3 19.8 C 0 km/h
2288 05-05-2006 21:34:02 19.3 C 6.14 g/m*3 19.3 C 0 km/h
2289 05-05-2006 21:44:02 19.1 C 6.23 g/m*3 19.1 C 0 km/h
2290 05-05-2006 21:54:02 18.8 C 6.28 g/m*3 18.8 C 0 km/h
2291 05-05-2006 22:04:02 18.5 C 6.33 g/m*3 18.5 C 0 km/h
2292 05-05-2006 22:14:02 18.3 C 6.25 g/m*3 18.3 C 0 km/h
2293 05-05-2006 22:24:02 18 C 6.3 g/m*3 18 C 0 km/h
2294 05-05-2006 22:34:01 17.9 C 6.41 g/m*3 17.9 C 0 km/h
2295 05-05-2006 22:44:01 17.9 C 6.57 g/m*3 17.9 C 0 km/h
2296 05-05-2006 22:54:01 17.9 C 6.72 g/m*3 17.9 C 0 km/h
2297 05-05-2006 23:04:02 17.7 C 6.79 g/m*3 17.7 C 0 km/h
2298 05-05-2006 23:14:02 17.5 C 6.71 g/m*3 17.5 C 0 km/h
2299 05-05-2006 23:24:02 17.1 C 6.84 g/m*3 17.1 C 0 km/h
2300 05-05-2006 23:34:02 17 C 6.8 g/m*3 17 C 0 km/h
Sensor: Nr:Datum:Temp:Abs-Feuchte:Windchill:Wind:
Aussen-T/F 2301 05-05-2006 23:44:02 16.9 C 6.9 g/m*3 16.9 C 0 km/h
2302 05-05-2006 23:54:02 16.6 C 6.92 g/m*3 16.6 C 0 km/h
2303 06-05-2006 00:04:02 16.2 C 6.9 g/m*3 16.2 C 0 km/h
2304 06-05-2006 00:14:02 15.6 C 7.05 g/m*3 15.6 C 0 km/h
2305 06-05-2006 00:24:03 15.6 C 7.05 g/m*3 15.6 C 0 km/h
2306 06-05-2006 00:34:03 15.4 C 6.83 g/m*3 15.4 C 0 km/h
2307 06-05-2006 00:44:03 15.4 C 6.96 g/m*3 15.4 C 0 km/h
2308 06-05-2006 00:54:02 15.1 C 7.1 g/m*3 15.1 C 0 km/h
2309 06-05-2006 01:04:01 14.9 C 7.01 g/m*3 14.9 C 0 km/h
2310 06-05-2006 01:14:01 14.7 C 7.05 g/m*3 14.7 C 0 km/h
2311 06-05-2006 01:24:02 14.7 C 7.18 g/m*3 14.7 C 0 km/h
2312 06-05-2006 01:34:02 14.2 C 7.08 g/m*3 14.2 C 0 km/h
2313 06-05-2006 01:44:02 14.2 C 7.08 g/m*3 14.2 C 0 km/h
2314 06-05-2006 01:54:03 14 C 7 g/m*3 14 C 0 km/h
2315 06-05-2006 02:04:03 13.8 C 7.15 g/m*3 13.8 C 0 km/h
2316 06-05-2006 02:14:03 13.8 C 7.15 g/m*3 13.8 C 0 km/h
2317 06-05-2006 02:24:03 13.5 C 7.02 g/m*3 13.5 C 0 km/h
2318 06-05-2006 02:34:03 13.4 C 7.09 g/m*3 13.4 C 0 km/h
2319 06-05-2006 02:44:03 13.2 C 7.12 g/m*3 13.2 C 0 km/h
2320 06-05-2006 02:55:03 12.9 C 7.1 g/m*3 12.9 C 0 km/h
2321 06-05-2006 03:05:03 12.8 C 7.17 g/m*3 12.8 C 0 km/h
2322 06-05-2006 03:15:03 12.7 C 7.12 g/m*3 12.7 C 0 km/h
2323 06-05-2006 03:25:03 12.4 C 6.99 g/m*3 12.4 C 0 km/h
2324 06-05-2006 03:35:02 12.2 C 7.12 g/m*3 12.2 C 0 km/h
2325 06-05-2006 03:45:02 12 C 7.03 g/m*3 12 C 0 km/h
Sensor: Nr:Datum:Temp:Abs-Feuchte:Windchill:Wind:
Aussen-T/F 2326 06-05-2006 03:55:02 11.9 C 7.2 g/m*3 11.9 C 0 km/h
2327 06-05-2006 04:05:02 11.8 C 7.26 g/m*3 11.8 C 0 km/h
2328 06-05-2006 04:15:03 11.6 C 7.28 g/m*3 11.6 C 0 km/h
2329 06-05-2006 04:25:03 11.4 C 7.19 g/m*3 11.4 C 0 km/h
2330 06-05-2006 04:35:02 11.3 C 7.24 g/m*3 11.3 C 0 km/h
2331 06-05-2006 04:45:02 11.2 C 7.3 g/m*3 11.2 C 0 km/h
2332 06-05-2006 04:55:02 11.1 C 7.25 g/m*3 11.1 C 0 km/h
2333 06-05-2006 05:05:02 11 C 7.21 g/m*3 11 C 0 km/h
2334 06-05-2006 05:15:02 10.7 C 7.27 g/m*3 10.7 C 0 km/h
2335 06-05-2006 05:25:02 10.7 C 7.37 g/m*3 10.7 C 0 km/h
2336 06-05-2006 05:35:02 10.6 C 7.32 g/m*3 10.6 C 0 km/h
2337 06-05-2006 05:45:03 10.4 C 7.23 g/m*3 10.4 C 0 km/h
2338 06-05-2006 05:55:03 10.3 C 7.28 g/m*3 10.3 C 0 km/h
2339 06-05-2006 06:05:03 10.2 C 7.23 g/m*3 10.2 C 0 km/h
2340 06-05-2006 06:15:02 10.1 C 7.19 g/m*3 10.1 C 0 km/h
2341 06-05-2006 06:25:02 10.1 C 7.19 g/m*3 10.1 C 0 km/h
2342 06-05-2006 06:35:02 10.1 C 7.28 g/m*3 10.1 C 0 km/h
2343 06-05-2006 06:45:02 10.2 C 7.33 g/m*3 10.2 C 0 km/h
2344 06-05-2006 06:55:03 10.3 C 7.37 g/m*3 10.3 C 0 km/h
2345 06-05-2006 07:05:01 10.5 C 7.57 g/m*3 10.5 C 0 km/h
2346 06-05-2006 07:15:01 10.7 C 7.56 g/m*3 10.7 C 0 km/h
2347 06-05-2006 07:25:01 11.3 C 7.75 g/m*3 11.3 C 0 km/h
2348 06-05-2006 07:35:02 11.5 C 7.64 g/m*3 11.5 C 0 km/h
2349 06-05-2006 07:45:02 11.8 C 7.79 g/m*3 11.8 C 0 km/h
2350 06-05-2006 07:55:02 12.3 C 7.82 g/m*3 12.3 C 0 km/h
Sensor: Nr:Datum:Temp:Abs-Feuchte:Windchill:Wind:
Aussen-T/F 2351 06-05-2006 08:05:02 12.7 C 7.68 g/m*3 12.7 C 0 km/h
2352 06-05-2006 08:15:02 13.2 C 7.46 g/m*3 13.2 C 0 km/h
2353 06-05-2006 08:25:02 13.6 C 7.3 g/m*3 13.6 C 0 km/h
2354 06-05-2006 08:35:03 13.8 C 7.03 g/m*3 13.8 C 0 km/h
2355 06-05-2006 08:45:02 14.1 C 6.92 g/m*3 14.1 C 0 km/h
2356 06-05-2006 08:55:02 14.2 C 6.72 g/m*3 14.2 C 0 km/h
2357 06-05-2006 09:05:02 15.4 C 6.57 g/m*3 15.4 C 0 km/h
2358 06-05-2006 09:15:02 15.9 C 6.23 g/m*3 15.9 C 0 km/h
2359 06-05-2006 09:25:02 16.5 C 5.76 g/m*3 16.5 C 0 km/h
2360 06-05-2006 09:35:02 16.9 C 5.75 g/m*3 16.9 C 0 km/h
2361 06-05-2006 09:45:02 17.2 C 5.71 g/m*3 17.2 C 0 km/h
2362 06-05-2006 09:55:02 17.8 C 5.77 g/m*3 17.8 C 0 km/h
2363 06-05-2006 10:05:03 18.1 C 5.56 g/m*3 18.1 C 0 km/h
2364 06-05-2006 10:15:02 18.5 C 5.54 g/m*3 18.5 C 0 km/h
2365 06-05-2006 10:25:02 18.8 C 5.64 g/m*3 18.8 C 0 km/h
2366 06-05-2006 10:35:02 19.1 C 5.57 g/m*3 19.1 C 0 km/h
2367 06-05-2006 10:45:02 19.5 C 5.71 g/m*3 19.5 C 0 km/h
2368 06-05-2006 10:55:02 19.9 C 5.67 g/m*3 19.9 C 0 km/h
2369 06-05-2006 11:05:02 20.3 C 5.63 g/m*3 20.3 C 0 km/h
2370 06-05-2006 11:15:01 20.8 C 5.43 g/m*3 20.8 C 0 km/h
2371 06-05-2006 11:25:01 21.2 C 5.56 g/m*3 21.2 C 0 km/h
2372 06-05-2006 11:35:01 21.6 C 5.31 g/m*3 21.6 C 0 km/h
2373 06-05-2006 11:45:02 22 C 4.46 g/m*3 22 C 0 km/h
2374 06-05-2006 11:55:02 22.2 C 3.93 g/m*3 22.2 C 0 km/h
2375 06-05-2006 12:05:01 22.7 C 4.04 g/m*3 22.7 C 0 km/h
Sensor: Nr:Datum:Temp:Abs-Feuchte:Windchill:Wind:
Aussen-T/F 2376 06-05-2006 12:15:01 23.3 C 4.18 g/m*3 23.3 C 0 km/h
2377 06-05-2006 12:25:01 23.2 C 4.16 g/m*3 23.2 C 0 km/h
2378 06-05-2006 12:35:02 23.9 C 4.33 g/m*3 23.9 C 0 km/h
2379 06-05-2006 12:45:02 23.6 C 4.25 g/m*3 23.6 C 0 km/h
2380 06-05-2006 12:55:02 24.4 C 4.45 g/m*3 24.4 C 0 km/h
2381 06-05-2006 13:05:03 25 C 4.6 g/m*3 25 C 0 km/h
2382 06-05-2006 13:15:02 25.3 C 4.68 g/m*3 25.3 C 0 km/h
2383 06-05-2006 13:25:02 25.5 C 4.73 g/m*3 25.5 C 0 km/h
2384 06-05-2006 13:35:02 25.5 C 4.73 g/m*3 25.5 C 0 km/h
2385 06-05-2006 13:45:02 25.3 C 4.68 g/m*3 25.3 C 0 km/h
2386 06-05-2006 13:55:02 25.5 C 4.73 g/m*3 25.5 C 0 km/h
2387 06-05-2006 14:05:03 25.2 C 4.66 g/m*3 25.2 C 0 km/h
2388 06-05-2006 14:15:02 25.9 C 4.84 g/m*3 25.9 C 0 km/h
2389 06-05-2006 14:25:02 26.3 C 4.95 g/m*3 26.3 C 0 km/h
2390 06-05-2006 14:35:01 26.6 C 5.03 g/m*3 26.6 C 0 km/h
2391 06-05-2006 14:45:03 26.4 C 4.98 g/m*3 26.4 C 0 km/h
2392 06-05-2006 14:55:03 27 C 5.15 g/m*3 27 C 0 km/h
2393 06-05-2006 15:05:02 27.4 C 5.26 g/m*3 27.4 C 0 km/h
2394 06-05-2006 15:15:03 27.1 C 5.18 g/m*3 27.1 C 0 km/h
2395 06-05-2006 15:25:03 26.8 C 5.09 g/m*3 26.8 C 0 km/h
2396 06-05-2006 15:35:02 26.9 C 5.12 g/m*3 26.9 C 0 km/h
2397 06-05-2006 15:45:02 27.1 C 5.18 g/m*3 27.1 C 0 km/h
2398 06-05-2006 15:55:02 27.7 C 5.35 g/m*3 27.7 C 0 km/h
2399 06-05-2006 16:05:02 28.2 C 5.5 g/m*3 28.2 C 0 km/h
2400 06-05-2006 16:15:02 28.6 C 5.62 g/m*3 28.6 C 0 km/h
Sensor: Nr:Datum:Temp:Abs-Feuchte:Windchill:Wind:
Aussen-T/F 2401 06-05-2006 16:25:02 28.9 C 5.71 g/m*3 28.9 C 0 km/h
2402 06-05-2006 16:35:03 28.9 C 5.71 g/m*3 28.9 C 0 km/h
2403 06-05-2006 16:45:02 28.9 C 5.71 g/m*3 28.9 C 0 km/h
2404 06-05-2006 16:55:03 28.7 C 5.65 g/m*3 28.7 C 0 km/h
2405 06-05-2006 17:05:02 28.6 C 5.62 g/m*3 28.6 C 0 km/h
2406 06-05-2006 17:15:02 28.6 C 5.62 g/m*3 28.6 C 0 km/h
2407 06-05-2006 17:25:02 28.4 C 5.56 g/m*3 28.4 C 0 km/h
2408 06-05-2006 17:35:02 28.1 C 5.47 g/m*3 28.1 C 0 km/h
2409 06-05-2006 17:45:02 28.4 C 5.56 g/m*3 28.4 C 0 km/h
2410 06-05-2006 17:55:03 28.3 C 5.53 g/m*3 28.3 C 0 km/h
2411 06-05-2006 18:05:02 28 C 5.44 g/m*3 28 C 0 km/h
2412 06-05-2006 18:15:01 27.8 C 5.38 g/m*3 27.8 C 0 km/h
2413 06-05-2006 18:25:01 27.4 C 5.26 g/m*3 27.4 C 0 km/h
2414 06-05-2006 18:35:02 26.6 C 5.03 g/m*3 26.6 C 0 km/h
2415 06-05-2006 18:45:02 26.6 C 5.03 g/m*3 26.6 C 0 km/h
2416 06-05-2006 18:55:02 26.4 C 4.98 g/m*3 26.4 C 0 km/h
2417 06-05-2006 19:05:01 26.2 C 4.92 g/m*3 26.2 C 0 km/h
2418 06-05-2006 19:15:02 25.7 C 4.79 g/m*3 25.7 C 0 km/h
2419 06-05-2006 19:25:02 25.2 C 4.66 g/m*3 25.2 C 0 km/h
2420 06-05-2006 19:35:02 24.4 C 4.45 g/m*3 24.4 C 0 km/h
2421 06-05-2006 19:45:01 23.7 C 4.28 g/m*3 23.7 C 0 km/h
2422 06-05-2006 19:55:01 23.4 C 4.21 g/m*3 23.4 C 0 km/h
2423 06-05-2006 20:05:01 22.9 C 4.09 g/m*3 22.9 C 0 km/h
2424 06-05-2006 20:15:01 22.1 C 3.9 g/m*3 22.1 C 0 km/h
2425 06-05-2006 20:25:01 21.6 C 3.79 g/m*3 21.6 C 0 km/h
Sensor: Nr:Datum:Temp:Abs-Feuchte:Windchill:Wind:
Aussen-T/F 2426 06-05-2006 20:35:02 20.7 C 3.6 g/m*3 20.7 C 0 km/h
2427 06-05-2006 20:45:02 20.2 C 3.5 g/m*3 20.2 C 0 km/h
2428 06-05-2006 20:55:02 19.6 C 3.55 g/m*3 19.6 C 0 km/h
2429 06-05-2006 21:05:02 19.1 C 3.44 g/m*3 19.1 C 0 km/h
2430 06-05-2006 21:15:03 18.7 C 3.84 g/m*3 18.7 C 0 km/h
2431 06-05-2006 21:25:03 18.4 C 3.93 g/m*3 18.4 C 0 km/h
2432 06-05-2006 21:35:03 18.2 C 3.89 g/m*3 18.2 C 0 km/h
2433 06-05-2006 21:45:02 17.9 C 3.82 g/m*3 17.9 C 0 km/h
2434 06-05-2006 21:55:02 17.7 C 3.92 g/m*3 17.7 C 0 km/h
2435 06-05-2006 22:05:02 17.5 C 4.32 g/m*3 17.5 C 0 km/h
2436 06-05-2006 22:15:02 17.2 C 4.25 g/m*3 17.2 C 0 km/h
2437 06-05-2006 22:25:02 17 C 4.34 g/m*3 17 C 0 km/h
2438 06-05-2006 22:35:02 16.8 C 4.29 g/m*3 16.8 C 0 km/h
2439 06-05-2006 22:45:02 16.5 C 4.21 g/m*3 16.5 C 0 km/h
2440 06-05-2006 22:55:02 16.3 C 4.44 g/m*3 16.3 C 0 km/h
2441 06-05-2006 23:05:02 16.3 C 4.44 g/m*3 16.3 C 0 km/h
2442 06-05-2006 23:15:01 16.1 C 4.25 g/m*3 16.1 C 0 km/h
2443 06-05-2006 23:25:01 16.1 C 4.11 g/m*3 16.1 C 0 km/h
2444 06-05-2006 23:35:01 16.2 C 4.14 g/m*3 16.2 C 0 km/h
2445 06-05-2006 23:45:02 16.1 C 4.25 g/m*3 16.1 C 0 km/h
2446 06-05-2006 23:55:02 15.8 C 4.44 g/m*3 15.8 C 0 km/h
2447 07-05-2006 00:05:02 15.4 C 4.34 g/m*3 15.4 C 0 km/h
2448 07-05-2006 00:15:02 15.2 C 4.28 g/m*3 15.2 C 0 km/h
2449 07-05-2006 00:25:02 14.9 C 4.46 g/m*3 14.9 C 0 km/h
2450 07-05-2006 00:35:02 15.1 C 4.13 g/m*3 15.1 C 0 km/h
Sensor: Nr:Datum:Temp:Abs-Feuchte:Windchill:Wind:
Aussen-T/F 2451 07-05-2006 00:45:02 15 C 4.23 g/m*3 15 C 0 km/h
2452 07-05-2006 00:55:02 14.8 C 4.31 g/m*3 14.8 C 0 km/h
2453 07-05-2006 01:05:02 14.4 C 4.45 g/m*3 14.4 C 0 km/h
2454 07-05-2006 01:15:02 14.4 C 4.45 g/m*3 14.4 C 0 km/h
2455 07-05-2006 01:25:02 14.2 C 4.27 g/m*3 14.2 C 0 km/h
2456 07-05-2006 01:35:02 14 C 4.34 g/m*3 14 C 0 km/h
2457 07-05-2006 01:45:02 13.8 C 4.41 g/m*3 13.8 C 0 km/h
2458 07-05-2006 01:55:03 13.7 C 4.26 g/m*3 13.7 C 0 km/h
2459 07-05-2006 02:05:02 13.5 C 4.44 g/m*3 13.5 C 0 km/h
2460 07-05-2006 02:15:02 13.4 C 4.42 g/m*3 13.4 C 0 km/h
2461 07-05-2006 02:25:02 13.4 C 4.3 g/m*3 13.4 C 0 km/h
2462 07-05-2006 02:35:02 13.4 C 4.3 g/m*3 13.4 C 0 km/h
2463 07-05-2006 02:46:03 13.2 C 4.48 g/m*3 13.2 C 0 km/h
2464 07-05-2006 02:56:03 13.2 C 4.36 g/m*3 13.2 C 0 km/h
2465 07-05-2006 03:06:03 13.1 C 4.34 g/m*3 13.1 C 0 km/h
2466 07-05-2006 03:16:04 13 C 4.42 g/m*3 13 C 0 km/h
2467 07-05-2006 03:26:04 12.8 C 4.59 g/m*3 12.8 C 0 km/h
2468 07-05-2006 03:36:02 12.7 C 4.56 g/m*3 12.7 C 0 km/h
2469 07-05-2006 03:46:02 12.6 C 4.43 g/m*3 12.6 C 0 km/h
2470 07-05-2006 03:56:02 12.5 C 4.51 g/m*3 12.5 C 0 km/h
2471 07-05-2006 04:06:02 12.3 C 4.56 g/m*3 12.3 C 0 km/h
2472 07-05-2006 04:16:02 12.4 C 4.59 g/m*3 12.4 C 0 km/h
2473 07-05-2006 04:26:02 12.2 C 4.53 g/m*3 12.2 C 0 km/h
2474 07-05-2006 04:36:01 12 C 4.58 g/m*3 12 C 0 km/h
2475 07-05-2006 04:46:02 11.9 C 4.77 g/m*3 11.9 C 0 km/h
Sensor: Nr:Datum:Temp:Abs-Feuchte:Windchill:Wind:
Aussen-T/F 2476 07-05-2006 04:56:03 11.8 C 4.74 g/m*3 11.8 C 0 km/h
2477 07-05-2006 05:06:02 11.7 C 4.71 g/m*3 11.7 C 0 km/h
2478 07-05-2006 05:16:03 11.6 C 4.78 g/m*3 11.6 C 0 km/h
2479 07-05-2006 05:26:03 11.7 C 4.81 g/m*3 11.7 C 0 km/h
2480 07-05-2006 05:36:02 11.6 C 4.89 g/m*3 11.6 C 0 km/h
2481 07-05-2006 05:46:02 11.6 C 4.89 g/m*3 11.6 C 0 km/h
2482 07-05-2006 05:56:02 11.6 C 4.78 g/m*3 11.6 C 0 km/h
2483 07-05-2006 06:06:02 11.6 C 4.78 g/m*3 11.6 C 0 km/h
2484 07-05-2006 06:16:02 11.6 C 4.78 g/m*3 11.6 C 0 km/h
2485 07-05-2006 06:26:02 11.8 C 4.84 g/m*3 11.8 C 0 km/h
2486 07-05-2006 06:36:02 11.8 C 4.84 g/m*3 11.8 C 0 km/h
2487 07-05-2006 06:46:02 11.8 C 4.84 g/m*3 11.8 C 0 km/h
2488 07-05-2006 06:56:03 12 C 4.8 g/m*3 12 C 0 km/h
2489 07-05-2006 07:06:02 12.2 C 4.86 g/m*3 12.2 C 0 km/h
2490 07-05-2006 07:16:02 12.1 C 5.04 g/m*3 12.1 C 0 km/h
2491 07-05-2006 07:26:02 12.1 C 5.25 g/m*3 12.1 C 0 km/h
2492 07-05-2006 07:36:03 12.2 C 5.61 g/m*3 12.2 C 0 km/h
2493 07-05-2006 07:46:02 12.4 C 5.79 g/m*3 12.4 C 0 km/h
2494 07-05-2006 07:56:03 12.4 C 5.57 g/m*3 12.4 C 0 km/h
2495 07-05-2006 08:06:02 12.7 C 5.68 g/m*3 12.7 C 0 km/h
2496 07-05-2006 08:16:02 13 C 5.67 g/m*3 13 C 0 km/h
2497 07-05-2006 08:26:02 13.4 C 5.58 g/m*3 13.4 C 0 km/h
2498 07-05-2006 08:36:03 13.7 C 5.68 g/m*3 13.7 C 0 km/h
2499 07-05-2006 08:46:02 13.9 C 5.51 g/m*3 13.9 C 0 km/h
2500 07-05-2006 08:56:02 14.5 C 5.6 g/m*3 14.5 C 0 km/h
Sensor: Nr:Datum:Temp:Abs-Feuchte:Windchill:Wind:
Aussen-T/F 2501 07-05-2006 09:06:02 15.1 C 5.29 g/m*3 15.1 C 0 km/h
2502 07-05-2006 09:16:02 15.4 C 5.26 g/m*3 15.4 C 0 km/h
2503 07-05-2006 09:26:02 15.9 C 5.28 g/m*3 15.9 C 0 km/h
2504 07-05-2006 09:36:02 16.3 C 5.27 g/m*3 16.3 C 0 km/h
2505 07-05-2006 09:46:02 16.8 C 5.29 g/m*3 16.8 C 0 km/h
2506 07-05-2006 09:56:03 17.2 C 5.13 g/m*3 17.2 C 0 km/h
2507 07-05-2006 10:06:02 17.5 C 5.37 g/m*3 17.5 C 0 km/h
2508 07-05-2006 10:16:03 18.1 C 5.41 g/m*3 18.1 C 0 km/h
2509 07-05-2006 10:26:03 18.5 C 5.54 g/m*3 18.5 C 0 km/h
2510 07-05-2006 10:36:02 18.9 C 5.51 g/m*3 18.9 C 0 km/h
2511 07-05-2006 10:46:02 19.3 C 5.47 g/m*3 19.3 C 0 km/h
2512 07-05-2006 10:56:03 19.8 C 5.64 g/m*3 19.8 C 0 km/h
2513 07-05-2006 11:06:02 20.2 C 5.77 g/m*3 20.2 C 0 km/h
2514 07-05-2006 11:16:02 20.3 C 5.63 g/m*3 20.3 C 0 km/h
2515 07-05-2006 11:26:02 20.8 C 5.61 g/m*3 20.8 C 0 km/h
2516 07-05-2006 11:36:02 21.2 C 5.56 g/m*3 21.2 C 0 km/h
2517 07-05-2006 11:46:02 21.6 C 5.69 g/m*3 21.6 C 0 km/h
2518 07-05-2006 11:56:02 22 C 5.05 g/m*3 22 C 0 km/h
2519 07-05-2006 12:06:02 22.5 C 5.19 g/m*3 22.5 C 0 km/h
2520 07-05-2006 12:16:02 22.7 C 5.25 g/m*3 22.7 C 0 km/h
2521 07-05-2006 12:26:02 23 C 5.14 g/m*3 23 C 0 km/h
2522 07-05-2006 12:36:03 23.4 C 5.26 g/m*3 23.4 C 0 km/h
2523 07-05-2006 12:46:02 23.5 C 4.86 g/m*3 23.5 C 0 km/h
2524 07-05-2006 12:56:03 24.3 C 5.31 g/m*3 24.3 C 0 km/h
2525 07-05-2006 13:06:02 24.7 C 4.75 g/m*3 24.7 C 0 km/h
Sensor: Nr:Datum:Temp:Abs-Feuchte:Windchill:Wind:
Aussen-T/F 2526 07-05-2006 13:16:02 24.8 C 4.55 g/m*3 24.8 C 0 km/h
2527 07-05-2006 13:26:02 25 C 4.6 g/m*3 25 C 0 km/h
2528 07-05-2006 13:36:03 25.4 C 4.71 g/m*3 25.4 C 0 km/h
2529 07-05-2006 13:46:02 25.4 C 4.71 g/m*3 25.4 C 0 km/h
2530 07-05-2006 13:56:02 25.1 C 4.63 g/m*3 25.1 C 0 km/h
2531 07-05-2006 14:06:02 25.1 C 4.63 g/m*3 25.1 C 0 km/h
2532 07-05-2006 14:16:02 25 C 4.6 g/m*3 25 C 0 km/h
2533 07-05-2006 14:26:02 25.5 C 4.73 g/m*3 25.5 C 0 km/h
2534 07-05-2006 14:36:02 25.8 C 4.82 g/m*3 25.8 C 0 km/h
2535 07-05-2006 14:46:03 26.2 C 4.92 g/m*3 26.2 C 0 km/h
2536 07-05-2006 14:56:03 26.5 C 5.01 g/m*3 26.5 C 0 km/h
2537 07-05-2006 15:06:02 26.2 C 4.92 g/m*3 26.2 C 0 km/h
2538 07-05-2006 15:16:03 26.8 C 5.09 g/m*3 26.8 C 0 km/h
2539 07-05-2006 15:26:03 27.8 C 5.38 g/m*3 27.8 C 0 km/h
2540 07-05-2006 15:36:03 28 C 5.44 g/m*3 28 C 0 km/h
2541 07-05-2006 15:46:02 27.4 C 5.26 g/m*3 27.4 C 0 km/h
2542 07-05-2006 15:56:02 28.1 C 5.47 g/m*3 28.1 C 0 km/h
2543 07-05-2006 16:06:02 28.9 C 5.71 g/m*3 28.9 C 0 km/h
2544 07-05-2006 16:16:02 29.1 C 5.78 g/m*3 29.1 C 0 km/h
2545 07-05-2006 16:26:02 28.8 C 5.68 g/m*3 28.8 C 0 km/h
2546 07-05-2006 16:36:03 29.4 C 5.87 g/m*3 29.4 C 0 km/h
2547 07-05-2006 16:46:02 29.4 C 5.87 g/m*3 29.4 C 0 km/h
2548 07-05-2006 16:56:02 29.6 C 5.94 g/m*3 29.6 C 0 km/h
2549 07-05-2006 17:06:02 29.1 C 5.78 g/m*3 29.1 C 0 km/h
2550 07-05-2006 17:16:02 28.8 C 5.68 g/m*3 28.8 C 0 km/h
Sensor: Nr:Datum:Temp:Abs-Feuchte:Windchill:Wind:
Aussen-T/F 2551 07-05-2006 17:26:02 28 C 5.44 g/m*3 28 C 0 km/h
2552 07-05-2006 17:36:03 28.3 C 5.53 g/m*3 28.3 C 0 km/h
2553 07-05-2006 17:46:02 28.7 C 5.65 g/m*3 28.7 C 0 km/h
2554 07-05-2006 17:56:02 28.4 C 5.56 g/m*3 28.4 C 0 km/h
2555 07-05-2006 18:06:02 28.4 C 5.56 g/m*3 28.4 C 0 km/h
2556 07-05-2006 18:16:02 28.5 C 5.59 g/m*3 28.5 C 0 km/h
2557 07-05-2006 18:26:02 28.6 C 5.62 g/m*3 28.6 C 0 km/h
2558 07-05-2006 18:36:02 28.2 C 5.5 g/m*3 28.2 C 0 km/h
2559 07-05-2006 18:46:03 28.7 C 5.65 g/m*3 28.7 C 0 km/h
2560 07-05-2006 18:56:03 28.6 C 5.62 g/m*3 28.6 C 0 km/h
2561 07-05-2006 19:06:03 27.5 C 5.29 g/m*3 27.5 C 0 km/h
2562 07-05-2006 19:16:02 27.5 C 5.29 g/m*3 27.5 C 0 km/h
2563 07-05-2006 19:26:02 27.3 C 5.23 g/m*3 27.3 C 0 km/h
2564 07-05-2006 19:36:02 26.8 C 5.09 g/m*3 26.8 C 0 km/h
2565 07-05-2006 19:46:02 26.6 C 5.03 g/m*3 26.6 C 0 km/h
2566 07-05-2006 19:56:02 26.1 C 4.9 g/m*3 26.1 C 0 km/h
2567 07-05-2006 20:06:02 25.7 C 4.79 g/m*3 25.7 C 0 km/h
2568 07-05-2006 20:16:01 24.7 C 4.98 g/m*3 24.7 C 0 km/h
2569 07-05-2006 20:26:01 24 C 5.22 g/m*3 24 C 0 km/h
2570 07-05-2006 20:36:02 23.6 C 5.53 g/m*3 23.6 C 0 km/h
2571 07-05-2006 20:46:01 22.7 C 5.66 g/m*3 22.7 C 0 km/h
2572 07-05-2006 20:56:01 21.7 C 5.91 g/m*3 21.7 C 0 km/h
2573 07-05-2006 21:06:02 21.1 C 5.71 g/m*3 21.1 C 0 km/h
2574 07-05-2006 21:16:02 20.6 C 5.91 g/m*3 20.6 C 0 km/h
2575 07-05-2006 21:26:02 20.2 C 6.12 g/m*3 20.2 C 0 km/h
Sensor: Nr:Datum:Temp:Abs-Feuchte:Windchill:Wind:
Aussen-T/F 2576 07-05-2006 21:36:02 19.9 C 6.01 g/m*3 19.9 C 0 km/h
2577 07-05-2006 21:46:02 19.5 C 6.04 g/m*3 19.5 C 0 km/h
2578 07-05-2006 21:56:02 19.3 C 5.97 g/m*3 19.3 C 0 km/h
2579 07-05-2006 22:06:02 19.2 C 6.1 g/m*3 19.2 C 0 km/h
2580 07-05-2006 22:16:02 18.9 C 5.99 g/m*3 18.9 C 0 km/h
2581 07-05-2006 22:26:02 18.7 C 5.92 g/m*3 18.7 C 0 km/h
2582 07-05-2006 22:36:03 18.5 C 6.01 g/m*3 18.5 C 0 km/h
2583 07-05-2006 22:46:02 18.3 C 6.1 g/m*3 18.3 C 0 km/h
2584 07-05-2006 22:56:02 18 C 5.99 g/m*3 18 C 0 km/h
2585 07-05-2006 23:06:02 18 C 6.14 g/m*3 18 C 0 km/h
2586 07-05-2006 23:16:02 17.8 C 6.07 g/m*3 17.8 C 0 km/h
2587 07-05-2006 23:26:02 17.6 C 6 g/m*3 17.6 C 0 km/h
2588 07-05-2006 23:36:03 17.5 C 6.11 g/m*3 17.5 C 0 km/h
2589 07-05-2006 23:46:02 17.3 C 6.04 g/m*3 17.3 C 0 km/h
2590 07-05-2006 23:56:02 17 C 6.08 g/m*3 17 C 0 km/h
2591 08-05-2006 00:06:02 16.9 C 6.04 g/m*3 16.9 C 0 km/h
2592 08-05-2006 00:16:03 16.6 C 6.22 g/m*3 16.6 C 0 km/h
2593 08-05-2006 00:26:03 16.5 C 6.18 g/m*3 16.5 C 0 km/h
2594 08-05-2006 00:36:03 16.3 C 5.97 g/m*3 16.3 C 0 km/h
2595 08-05-2006 00:46:02 16 C 6.13 g/m*3 16 C 0 km/h
2596 08-05-2006 00:56:02 16 C 5.99 g/m*3 16 C 0 km/h
2597 08-05-2006 01:06:02 15.8 C 6.19 g/m*3 15.8 C 0 km/h
2598 08-05-2006 01:16:02 15.5 C 6.08 g/m*3 15.5 C 0 km/h
2599 08-05-2006 01:26:02 15.3 C 5.88 g/m*3 15.3 C 0 km/h
2600 08-05-2006 01:36:02 15.4 C 5.91 g/m*3 15.4 C 0 km/h
Sensor: Nr:Datum:Temp:Abs-Feuchte:Windchill:Wind:
Aussen-T/F 2601 08-05-2006 01:46:02 15.1 C 5.81 g/m*3 15.1 C 0 km/h
2602 08-05-2006 01:56:02 14.9 C 5.99 g/m*3 14.9 C 0 km/h
2603 08-05-2006 02:06:02 14.7 C 5.92 g/m*3 14.7 C 0 km/h
2604 08-05-2006 02:16:02 14.4 C 5.81 g/m*3 14.4 C 0 km/h
2605 08-05-2006 02:26:02 14.3 C 5.9 g/m*3 14.3 C 0 km/h
2606 08-05-2006 02:36:02 14.1 C 5.83 g/m*3 14.1 C 0 km/h
2607 08-05-2006 02:47:04 14 C 5.79 g/m*3 14 C 0 km/h
2608 08-05-2006 02:57:04 13.6 C 5.77 g/m*3 13.6 C 0 km/h
2609 08-05-2006 03:07:04 13.6 C 5.65 g/m*3 13.6 C 0 km/h
2610 08-05-2006 03:17:03 13.5 C 5.85 g/m*3 13.5 C 0 km/h
2611 08-05-2006 03:27:03 13.3 C 5.78 g/m*3 13.3 C 0 km/h
2612 08-05-2006 03:37:02 13 C 5.67 g/m*3 13 C 0 km/h
2613 08-05-2006 03:47:02 12.8 C 5.71 g/m*3 12.8 C 0 km/h
2614 08-05-2006 03:57:02 12.8 C 5.82 g/m*3 12.8 C 0 km/h
2615 08-05-2006 04:07:02 12.6 C 5.86 g/m*3 12.6 C 0 km/h
2616 08-05-2006 04:17:02 12.3 C 5.65 g/m*3 12.3 C 0 km/h
2617 08-05-2006 04:27:03 12.2 C 5.61 g/m*3 12.2 C 0 km/h
2618 08-05-2006 04:37:02 12.1 C 5.68 g/m*3 12.1 C 0 km/h
2619 08-05-2006 04:47:02 12 C 5.65 g/m*3 12 C 0 km/h
2620 08-05-2006 04:57:02 11.9 C 5.72 g/m*3 11.9 C 0 km/h
2621 08-05-2006 05:07:02 11.8 C 5.68 g/m*3 11.8 C 0 km/h
2622 08-05-2006 05:17:02 11.7 C 5.75 g/m*3 11.7 C 0 km/h
2623 08-05-2006 05:27:02 11.5 C 5.78 g/m*3 11.5 C 0 km/h
2624 08-05-2006 05:37:02 11.3 C 5.71 g/m*3 11.3 C 0 km/h
2625 08-05-2006 05:47:03 11.2 C 5.78 g/m*3 11.2 C 0 km/h
Sensor: Nr:Datum:Temp:Abs-Feuchte:Windchill:Wind:
Aussen-T/F 2626 08-05-2006 05:57:03 11.1 C 5.74 g/m*3 11.1 C 0 km/h
2627 08-05-2006 06:07:03 11 C 5.71 g/m*3 11 C 0 km/h
2628 08-05-2006 06:17:02 11.1 C 5.74 g/m*3 11.1 C 0 km/h
2629 08-05-2006 06:27:02 11 C 5.91 g/m*3 11 C 0 km/h
2630 08-05-2006 06:37:02 11.1 C 5.84 g/m*3 11.1 C 0 km/h
2631 08-05-2006 06:47:02 11.1 C 5.94 g/m*3 11.1 C 0 km/h
2632 08-05-2006 06:57:02 11.1 C 5.94 g/m*3 11.1 C 0 km/h
2633 08-05-2006 07:07:02 11.2 C 6.18 g/m*3 11.2 C 0 km/h
2634 08-05-2006 07:17:02 11.4 C 6.26 g/m*3 11.4 C 0 km/h
2635 08-05-2006 07:27:03 11.4 C 6.36 g/m*3 11.4 C 0 km/h
2636 08-05-2006 07:37:02 11.7 C 6.28 g/m*3 11.7 C 0 km/h
2637 08-05-2006 07:47:02 11.8 C 6.42 g/m*3 11.8 C 0 km/h
2638 08-05-2006 07:57:02 12 C 6.39 g/m*3 12 C 0 km/h
2639 08-05-2006 08:07:02 12.2 C 6.37 g/m*3 12.2 C 0 km/h
2640 08-05-2006 08:17:02 12.5 C 6.49 g/m*3 12.5 C 0 km/h
2641 08-05-2006 08:27:02 12.8 C 6.38 g/m*3 12.8 C 0 km/h
2642 08-05-2006 08:37:02 13 C 6.24 g/m*3 13 C 0 km/h
2643 08-05-2006 08:47:02 13.4 C 6.39 g/m*3 13.4 C 0 km/h
2644 08-05-2006 08:57:02 13.7 C 6.39 g/m*3 13.7 C 0 km/h
2645 08-05-2006 09:07:02 14.4 C 6.55 g/m*3 14.4 C 0 km/h
2646 08-05-2006 09:17:02 15 C 6.54 g/m*3 15 C 0 km/h
2647 08-05-2006 09:27:02 15.6 C 5.98 g/m*3 15.6 C 0 km/h
2648 08-05-2006 09:37:02 16.4 C 6.42 g/m*3 16.4 C 0 km/h
2649 08-05-2006 09:47:02 16.8 C 6.58 g/m*3 16.8 C 0 km/h
2650 08-05-2006 09:57:02 17.3 C 6.19 g/m*3 17.3 C 0 km/h
Sensor: Nr:Datum:Temp:Abs-Feuchte:Windchill:Wind:
Aussen-T/F 2651 08-05-2006 10:07:02 18 C 6.14 g/m*3 18 C 0 km/h
2652 08-05-2006 10:17:02 18.6 C 5.73 g/m*3 18.6 C 0 km/h
2653 08-05-2006 10:27:02 19.6 C 4.9 g/m*3 19.6 C 0 km/h
2654 08-05-2006 10:37:03 20 C 4.67 g/m*3 20 C 0 km/h
2655 08-05-2006 10:47:02 20.3 C 4.22 g/m*3 20.3 C 0 km/h
2656 08-05-2006 10:57:02 20.8 C 4.53 g/m*3 20.8 C 0 km/h
2657 08-05-2006 11:07:02 21.2 C 4.08 g/m*3 21.2 C 0 km/h
2658 08-05-2006 11:17:02 21.8 C 4.6 g/m*3 21.8 C 0 km/h
2659 08-05-2006 11:27:02 21.8 C 4.03 g/m*3 21.8 C 0 km/h
2660 08-05-2006 11:37:02 21.7 C 3.82 g/m*3 21.7 C 0 km/h
2661 08-05-2006 11:47:02 22.1 C 3.9 g/m*3 22.1 C 0 km/h
2662 08-05-2006 11:57:02 22.3 C 3.95 g/m*3 22.3 C 0 km/h
2663 08-05-2006 12:07:02 22.6 C 4.02 g/m*3 22.6 C 0 km/h
2664 08-05-2006 12:17:02 22.7 C 4.04 g/m*3 22.7 C 0 km/h
2665 08-05-2006 12:27:02 22.8 C 4.06 g/m*3 22.8 C 0 km/h
2666 08-05-2006 12:37:02 23.5 C 4.23 g/m*3 23.5 C 0 km/h
2667 08-05-2006 12:47:02 23.7 C 4.28 g/m*3 23.7 C 0 km/h
2668 08-05-2006 12:57:02 24.2 C 4.4 g/m*3 24.2 C 0 km/h
2669 08-05-2006 13:07:02 24.8 C 4.55 g/m*3 24.8 C 0 km/h
2670 08-05-2006 13:17:02 24.9 C 4.58 g/m*3 24.9 C 0 km/h
2671 08-05-2006 13:27:02 25.9 C 4.84 g/m*3 25.9 C 0 km/h
2672 08-05-2006 13:37:02 25.2 C 4.66 g/m*3 25.2 C 0 km/h
2673 08-05-2006 13:47:02 25.9 C 4.84 g/m*3 25.9 C 0 km/h
2674 08-05-2006 13:57:02 25.9 C 4.84 g/m*3 25.9 C 0 km/h
2675 08-05-2006 14:07:02 26.2 C 4.92 g/m*3 26.2 C 0 km/h
Sensor: Nr:Datum:Temp:Abs-Feuchte:Windchill:Wind:
Aussen-T/F 2676 08-05-2006 14:17:01 26.1 C 4.9 g/m*3 26.1 C 0 km/h
2677 08-05-2006 14:27:01 25.6 C 4.76 g/m*3 25.6 C 0 km/h
2678 08-05-2006 14:37:01 25.3 C 4.68 g/m*3 25.3 C 0 km/h
2679 08-05-2006 14:47:02 24.8 C 4.55 g/m*3 24.8 C 0 km/h
2680 08-05-2006 14:57:02 24.3 C 4.43 g/m*3 24.3 C 0 km/h
2681 08-05-2006 15:07:01 23.9 C 4.33 g/m*3 23.9 C 0 km/h
2682 08-05-2006 15:17:01 24.3 C 4.43 g/m*3 24.3 C 0 km/h
2683 08-05-2006 15:27:01 24.8 C 4.55 g/m*3 24.8 C 0 km/h
2684 08-05-2006 15:37:01 25.5 C 4.73 g/m*3 25.5 C 0 km/h
2685 08-05-2006 15:47:02 25.7 C 4.79 g/m*3 25.7 C 0 km/h
2686 08-05-2006 15:57:03 27.4 C 5.26 g/m*3 27.4 C 0 km/h
2687 08-05-2006 16:07:01 27.7 C 5.35 g/m*3 27.7 C 0 km/h
2688 08-05-2006 16:17:01 27.3 C 5.23 g/m*3 27.3 C 0 km/h
2689 08-05-2006 16:27:01 26.9 C 5.12 g/m*3 26.9 C 0 km/h
2690 08-05-2006 16:37:02 26.5 C 5.01 g/m*3 26.5 C 0 km/h
2691 08-05-2006 16:47:02 25.6 C 4.76 g/m*3 25.6 C 0 km/h
2692 08-05-2006 16:57:02 26.2 C 4.92 g/m*3 26.2 C 0 km/h
2693 08-05-2006 17:07:03 26.3 C 4.95 g/m*3 26.3 C 0 km/h
2694 08-05-2006 17:17:03 25.7 C 4.79 g/m*3 25.7 C 0 km/h
2695 08-05-2006 17:27:03 25.7 C 4.79 g/m*3 25.7 C 0 km/h
2696 08-05-2006 17:37:04 25.5 C 4.73 g/m*3 25.5 C 0 km/h
2697 08-05-2006 17:47:02 25.4 C 4.71 g/m*3 25.4 C 0 km/h
2698 08-05-2006 17:57:02 25.2 C 4.66 g/m*3 25.2 C 0 km/h
2699 08-05-2006 18:07:03 25 C 4.6 g/m*3 25 C 0 km/h
2700 08-05-2006 18:17:02 25.1 C 4.63 g/m*3 25.1 C 0 km/h
Sensor: Nr:Datum:Temp:Abs-Feuchte:Windchill:Wind:
Aussen-T/F 2701 08-05-2006 18:27:02 25 C 4.6 g/m*3 25 C 0 km/h
2702 08-05-2006 18:37:03 24.9 C 4.58 g/m*3 24.9 C 0 km/h
2703 08-05-2006 18:47:02 24.5 C 5.6 g/m*3 24.5 C 0 km/h
2704 08-05-2006 18:57:02 24.2 C 4.84 g/m*3 24.2 C 0 km/h
2705 08-05-2006 19:07:02 23.8 C 4.3 g/m*3 23.8 C 0 km/h
2706 08-05-2006 19:17:02 23.5 C 5.29 g/m*3 23.5 C 0 km/h
2707 08-05-2006 19:27:02 23.1 C 5.17 g/m*3 23.1 C 0 km/h
2708 08-05-2006 19:37:01 22.6 C 5.22 g/m*3 22.6 C 0 km/h
2709 08-05-2006 19:47:02 22.2 C 5.3 g/m*3 22.2 C 0 km/h
2710 08-05-2006 19:57:02 21.6 C 5.31 g/m*3 21.6 C 0 km/h
2711 08-05-2006 20:07:02 21.3 C 5.03 g/m*3 21.3 C 0 km/h
2712 08-05-2006 20:17:01 20.9 C 4.92 g/m*3 20.9 C 0 km/h
2713 08-05-2006 20:27:01 20.4 C 4.95 g/m*3 20.4 C 0 km/h
2714 08-05-2006 20:37:02 20 C 6.22 g/m*3 20 C 0 km/h
2715 08-05-2006 20:47:02 19.2 C 7.59 g/m*3 19.2 C 0 km/h
2716 08-05-2006 20:57:02 18.7 C 7.84 g/m*3 18.7 C 0 km/h
2717 08-05-2006 21:07:02 18.5 C 7.91 g/m*3 18.5 C 0 km/h
2718 08-05-2006 21:17:01 18.4 C 8.02 g/m*3 18.4 C 0 km/h
2719 08-05-2006 21:27:01 18.2 C 7.77 g/m*3 18.2 C 0 km/h
2720 08-05-2006 21:37:01 18 C 7.99 g/m*3 18 C 0 km/h
2721 08-05-2006 21:47:02 18 C 7.99 g/m*3 18 C 0 km/h
2722 08-05-2006 21:57:02 17.7 C 8.15 g/m*3 17.7 C 0 km/h
2723 08-05-2006 22:07:02 17.6 C 8.25 g/m*3 17.6 C 0 km/h
2724 08-05-2006 22:17:01 17.5 C 8.2 g/m*3 17.5 C 0 km/h
2725 08-05-2006 22:27:01 17.4 C 8.3 g/m*3 17.4 C 0 km/h
Sensor: Nr:Datum:Temp:Abs-Feuchte:Windchill:Wind:
Aussen-T/F 2726 08-05-2006 22:37:01 17.2 C 8.35 g/m*3 17.2 C 0 km/h
2727 08-05-2006 22:47:02 17.1 C 8.3 g/m*3 17.1 C 0 km/h
2728 08-05-2006 22:57:03 16.9 C 8.05 g/m*3 16.9 C 0 km/h
2729 08-05-2006 23:07:01 16.7 C 7.39 g/m*3 16.7 C 0 km/h
2730 08-05-2006 23:17:01 16.6 C 6.78 g/m*3 16.6 C 0 km/h
2731 08-05-2006 23:27:01 16.5 C 6.6 g/m*3 16.5 C 0 km/h
2732 08-05-2006 23:37:02 16.5 C 7.02 g/m*3 16.5 C 0 km/h
2733 08-05-2006 23:47:02 16.3 C 7.35 g/m*3 16.3 C 0 km/h
2734 08-05-2006 23:57:03 16.4 C 7.82 g/m*3 16.4 C 0 km/h
2735 09-05-2006 00:07:02 16.2 C 7.86 g/m*3 16.2 C 0 km/h
2736 09-05-2006 00:17:02 16 C 7.77 g/m*3 16 C 0 km/h
2737 09-05-2006 00:27:02 15.8 C 7.67 g/m*3 15.8 C 0 km/h
2738 09-05-2006 00:37:02 15.7 C 8.16 g/m*3 15.7 C 0 km/h
2739 09-05-2006 00:47:02 15.6 C 7.98 g/m*3 15.6 C 0 km/h
2740 09-05-2006 00:57:02 15.4 C 7.88 g/m*3 15.4 C 0 km/h
2741 09-05-2006 01:07:03 15.3 C 7.31 g/m*3 15.3 C 0 km/h
2742 09-05-2006 01:17:03 15.2 C 7.4 g/m*3 15.2 C 0 km/h
2743 09-05-2006 01:27:03 15 C 7.05 g/m*3 15 C 0 km/h
2744 09-05-2006 01:37:02 14.8 C 6.84 g/m*3 14.8 C 0 km/h
2745 09-05-2006 01:47:02 14.7 C 6.17 g/m*3 14.7 C 0 km/h
2746 09-05-2006 01:57:02 14.4 C 5.69 g/m*3 14.4 C 0 km/h
2747 09-05-2006 02:07:02 14.2 C 5.25 g/m*3 14.2 C 0 km/h
2748 09-05-2006 02:17:03 14.1 C 5.22 g/m*3 14.1 C 0 km/h
2749 09-05-2006 02:27:03 14 C 5.43 g/m*3 14 C 0 km/h
2750 09-05-2006 02:37:02 13.8 C 5.36 g/m*3 13.8 C 0 km/h
Sensor: Nr:Datum:Temp:Abs-Feuchte:Windchill:Wind:
Aussen-T/F 2751 09-05-2006 02:48:03 13.8 C 5.48 g/m*3 13.8 C 0 km/h
2752 09-05-2006 02:58:03 13.7 C 5.57 g/m*3 13.7 C 0 km/h
2753 09-05-2006 03:08:03 13.6 C 5.65 g/m*3 13.6 C 0 km/h
2754 09-05-2006 03:18:04 13.5 C 5.5 g/m*3 13.5 C 0 km/h
2755 09-05-2006 03:28:04 13.4 C 5.35 g/m*3 13.4 C 0 km/h
2756 09-05-2006 03:38:03 13.3 C 5.31 g/m*3 13.3 C 0 km/h
2757 09-05-2006 03:48:03 13.1 C 5.25 g/m*3 13.1 C 0 km/h
2758 09-05-2006 03:58:03 13 C 5.22 g/m*3 13 C 0 km/h
2759 09-05-2006 04:08:03 12.7 C 5.57 g/m*3 12.7 C 0 km/h
2760 09-05-2006 04:18:02 12.4 C 5.57 g/m*3 12.4 C 0 km/h
2761 09-05-2006 04:28:02 12.2 C 5.61 g/m*3 12.2 C 0 km/h
2762 09-05-2006 04:38:02 12.3 C 5.75 g/m*3 12.3 C 0 km/h
2763 09-05-2006 04:48:02 11.9 C 5.82 g/m*3 11.9 C 0 km/h
2764 09-05-2006 04:58:02 11.8 C 5.68 g/m*3 11.8 C 0 km/h
2765 09-05-2006 05:08:03 11.6 C 5.61 g/m*3 11.6 C 0 km/h
2766 09-05-2006 05:18:02 11.6 C 5.61 g/m*3 11.6 C 0 km/h
2767 09-05-2006 05:28:02 11.4 C 5.54 g/m*3 11.4 C 0 km/h
2768 09-05-2006 05:38:02 11.2 C 5.57 g/m*3 11.2 C 0 km/h
2769 09-05-2006 05:48:02 11.2 C 5.57 g/m*3 11.2 C 0 km/h
2770 09-05-2006 05:58:02 11 C 5.51 g/m*3 11 C 0 km/h
2771 09-05-2006 06:08:02 11.1 C 5.54 g/m*3 11.1 C 0 km/h
2772 09-05-2006 06:18:02 11.1 C 5.64 g/m*3 11.1 C 0 km/h
2773 09-05-2006 06:28:02 11.1 C 5.74 g/m*3 11.1 C 0 km/h
2774 09-05-2006 06:38:02 11.1 C 5.84 g/m*3 11.1 C 0 km/h
2775 09-05-2006 06:48:02 11 C 5.91 g/m*3 11 C 0 km/h
Sensor: Nr:Datum:Temp:Abs-Feuchte:Windchill:Wind:
Aussen-T/F 2776 09-05-2006 06:58:02 11 C 5.91 g/m*3 11 C 0 km/h
2777 09-05-2006 07:08:01 11 C 6.01 g/m*3 11 C 0 km/h
2778 09-05-2006 07:18:01 11.3 C 6.22 g/m*3 11.3 C 0 km/h
2779 09-05-2006 07:28:01 11.4 C 6.26 g/m*3 11.4 C 0 km/h
2780 09-05-2006 07:38:02 11.7 C 6.38 g/m*3 11.7 C 0 km/h
2781 09-05-2006 07:48:02 12.1 C 6.33 g/m*3 12.1 C 0 km/h
2782 09-05-2006 07:58:03 12.5 C 6.6 g/m*3 12.5 C 0 km/h
2783 09-05-2006 08:08:02 12.7 C 6.57 g/m*3 12.7 C 0 km/h
2784 09-05-2006 08:18:02 12.9 C 6.76 g/m*3 12.9 C 0 km/h
2785 09-05-2006 08:28:02 13 C 6.69 g/m*3 13 C 0 km/h
2786 09-05-2006 08:38:03 13.4 C 6.74 g/m*3 13.4 C 0 km/h
2787 09-05-2006 08:48:02 13.7 C 6.63 g/m*3 13.7 C 0 km/h
2788 09-05-2006 08:58:02 14.5 C 6.34 g/m*3 14.5 C 0 km/h
2789 09-05-2006 09:08:02 14.8 C 6.71 g/m*3 14.8 C 0 km/h
2790 09-05-2006 09:18:02 15.2 C 6.88 g/m*3 15.2 C 0 km/h
2791 09-05-2006 09:28:02 15.8 C 6.87 g/m*3 15.8 C 0 km/h
2792 09-05-2006 09:38:02 16.4 C 6 g/m*3 16.4 C 0 km/h
2793 09-05-2006 09:48:02 17.2 C 6 g/m*3 17.2 C 0 km/h
2794 09-05-2006 09:58:03 17.6 C 5.85 g/m*3 17.6 C 0 km/h
2795 09-05-2006 10:08:02 18 C 5.84 g/m*3 18 C 0 km/h
2796 09-05-2006 10:18:01 18.5 C 5.85 g/m*3 18.5 C 0 km/h
2797 09-05-2006 10:28:01 18.9 C 5.67 g/m*3 18.9 C 0 km/h
2798 09-05-2006 10:38:02 19.3 C 5.81 g/m*3 19.3 C 0 km/h
2799 09-05-2006 10:48:02 19.8 C 5.64 g/m*3 19.8 C 0 km/h
2800 09-05-2006 10:58:02 20 C 5.53 g/m*3 20 C 0 km/h
Sensor: Nr:Datum:Temp:Abs-Feuchte:Windchill:Wind:
Aussen-T/F 2801 09-05-2006 11:08:01 20.3 C 5.8 g/m*3 20.3 C 0 km/h
2802 09-05-2006 11:18:01 20.9 C 5.65 g/m*3 20.9 C 0 km/h
2803 09-05-2006 11:28:01 21.2 C 5.56 g/m*3 21.2 C 0 km/h
2804 09-05-2006 11:38:02 21.4 C 5.81 g/m*3 21.4 C 0 km/h
2805 09-05-2006 11:48:02 22 C 5.63 g/m*3 22 C 0 km/h
2806 09-05-2006 11:58:02 22.3 C 5.53 g/m*3 22.3 C 0 km/h
2807 09-05-2006 12:08:01 22.5 C 5.19 g/m*3 22.5 C 0 km/h
2808 09-05-2006 12:18:01 22.8 C 5.28 g/m*3 22.8 C 0 km/h
2809 09-05-2006 12:28:01 23.3 C 5.23 g/m*3 23.3 C 0 km/h
2810 09-05-2006 12:38:02 23.9 C 5.41 g/m*3 23.9 C 0 km/h
2811 09-05-2006 12:48:02 24.3 C 5.09 g/m*3 24.3 C 0 km/h
2812 09-05-2006 12:58:02 24.3 C 4.87 g/m*3 24.3 C 0 km/h
2813 09-05-2006 13:08:02 25.1 C 4.86 g/m*3 25.1 C 0 km/h
2814 09-05-2006 13:18:02 26.5 C 5.01 g/m*3 26.5 C 0 km/h
2815 09-05-2006 13:28:02 25.4 C 4.71 g/m*3 25.4 C 0 km/h
2816 09-05-2006 13:38:03 23.9 C 5.19 g/m*3 23.9 C 0 km/h
2817 09-05-2006 13:48:02 25.1 C 5.09 g/m*3 25.1 C 0 km/h
2818 09-05-2006 13:58:02 25.2 C 4.66 g/m*3 25.2 C 0 km/h
2819 09-05-2006 14:08:02 25.1 C 4.86 g/m*3 25.1 C 0 km/h
2820 09-05-2006 14:18:02 25.6 C 4.76 g/m*3 25.6 C 0 km/h
2821 09-05-2006 14:28:02 25.2 C 5.12 g/m*3 25.2 C 0 km/h
2822 09-05-2006 14:38:03 25.4 C 4.94 g/m*3 25.4 C 0 km/h
2823 09-05-2006 14:48:02 24.9 C 5.04 g/m*3 24.9 C 0 km/h
2824 09-05-2006 14:58:03 24.6 C 5.18 g/m*3 24.6 C 0 km/h
2825 09-05-2006 15:08:02 25.8 C 4.82 g/m*3 25.8 C 0 km/h
Sensor: Nr:Datum:Temp:Abs-Feuchte:Windchill:Wind:
Aussen-T/F 2826 09-05-2006 15:18:02 26.6 C 5.03 g/m*3 26.6 C 0 km/h
2827 09-05-2006 15:28:02 27.7 C 5.35 g/m*3 27.7 C 0 km/h
2828 09-05-2006 15:38:02 27.2 C 5.2 g/m*3 27.2 C 0 km/h
2829 09-05-2006 15:48:02 27.5 C 5.29 g/m*3 27.5 C 0 km/h
2830 09-05-2006 15:58:03 28.5 C 5.59 g/m*3 28.5 C 0 km/h
2831 09-05-2006 16:08:02 28.8 C 5.68 g/m*3 28.8 C 0 km/h
2832 09-05-2006 16:18:02 29.2 C 5.81 g/m*3 29.2 C 0 km/h
2833 09-05-2006 16:28:02 29.5 C 5.9 g/m*3 29.5 C 0 km/h
2834 09-05-2006 16:38:02 29.2 C 5.81 g/m*3 29.2 C 0 km/h
2835 09-05-2006 16:48:02 28.7 C 5.65 g/m*3 28.7 C 0 km/h
2836 09-05-2006 16:58:02 29.2 C 5.81 g/m*3 29.2 C 0 km/h
2837 09-05-2006 17:08:02 29.8 C 6 g/m*3 29.8 C 0 km/h
2838 09-05-2006 17:18:01 28.7 C 5.65 g/m*3 28.7 C 0 km/h
2839 09-05-2006 17:28:01 27.7 C 5.35 g/m*3 27.7 C 0 km/h
2840 09-05-2006 17:38:02 19 C 3.26 g/m*3 19 C 0 km/h
2841 09-05-2006 17:48:42 19.4 C 9.18 g/m*3 19.4 C 0 km/h
2842 09-05-2006 17:58:02 21 C 10.26 g/m*3 21 C 0 km/h
2843 09-05-2006 18:08:02 23.1 C 9.3 g/m*3 23.1 C 0 km/h
2844 09-05-2006 18:18:02 24.6 C 6.98 g/m*3 24.6 C 0 km/h
2845 09-05-2006 18:28:02 26.6 C 6.04 g/m*3 26.6 C 0 km/h
2846 09-05-2006 18:38:02 25.2 C 6.05 g/m*3 25.2 C 0 km/h
2847 09-05-2006 18:48:02 24.1 C 5.69 g/m*3 24.1 C 0 km/h
2848 09-05-2006 18:58:02 23.8 C 5.81 g/m*3 23.8 C 0 km/h
2849 09-05-2006 19:08:02 22.8 C 5.69 g/m*3 22.8 C 0 km/h
2850 09-05-2006 19:18:01 21.7 C 5.91 g/m*3 21.7 C 0 km/h
Sensor: Nr:Datum:Temp:Abs-Feuchte:Windchill:Wind:
Aussen-T/F 2851 09-05-2006 19:28:01 20.7 C 7.02 g/m*3 20.7 C 0 km/h
2852 09-05-2006 19:38:02 18.3 C 6.72 g/m*3 18.3 C 0 km/h
2853 09-05-2006 19:48:02 18.3 C 6.57 g/m*3 18.3 C 0 km/h
2854 09-05-2006 19:58:02 18.7 C 6.56 g/m*3 18.7 C 0 km/h
2855 09-05-2006 20:08:01 18.9 C 6.32 g/m*3 18.9 C 0 km/h
2856 09-05-2006 20:18:01 19 C 6.52 g/m*3 19 C 0 km/h
2857 09-05-2006 20:28:01 18.9 C 6.8 g/m*3 18.9 C 0 km/h
2858 09-05-2006 20:38:02 18.2 C 6.68 g/m*3 18.2 C 0 km/h
2859 09-05-2006 20:48:01 18.1 C 6.64 g/m*3 18.1 C 0 km/h
2860 09-05-2006 20:58:01 18 C 6.3 g/m*3 18 C 0 km/h
2861 09-05-2006 21:08:02 17.7 C 6.64 g/m*3 17.7 C 0 km/h
2862 09-05-2006 21:18:02 17.6 C 6.75 g/m*3 17.6 C 0 km/h
2863 09-05-2006 21:28:02 17.1 C 6.84 g/m*3 17.1 C 0 km/h
2864 09-05-2006 21:38:02 16.8 C 7.01 g/m*3 16.8 C 0 km/h
2865 09-05-2006 21:48:02 16.6 C 6.92 g/m*3 16.6 C 0 km/h
2866 09-05-2006 21:58:02 16.6 C 7.06 g/m*3 16.6 C 0 km/h
2867 09-05-2006 22:08:02 16.7 C 7.11 g/m*3 16.7 C 0 km/h
2868 09-05-2006 22:19:03 16.8 C 7.43 g/m*3 16.8 C 0 km/h
2869 09-05-2006 22:29:03 16.8 C 7.43 g/m*3 16.8 C 0 km/h
2870 09-05-2006 22:39:03 15.5 C 8.99 g/m*3 15.5 C 0 km/h
2871 09-05-2006 22:49:03 14.5 C 9.58 g/m*3 14.5 C 0 km/h
2872 09-05-2006 22:59:03 14 C 9.53 g/m*3 14 C 0 km/h
2873 09-05-2006 23:09:03 14.1 C 9.59 g/m*3 14.1 C 0 km/h
2874 09-05-2006 23:19:03 14.5 C 9.58 g/m*3 14.5 C 0 km/h
2875 09-05-2006 23:29:03 14.5 C 9.58 g/m*3 14.5 C 0 km/h
Sensor: Nr:Datum:Temp:Abs-Feuchte:Windchill:Wind:
Aussen-T/F 2876 09-05-2006 23:39:03 14.1 C 9.83 g/m*3 14.1 C 0 km/h
2877 09-05-2006 23:49:03 13.6 C 9.77 g/m*3 13.6 C 0 km/h
2878 09-05-2006 23:59:03 13.3 C 9.7 g/m*3 13.3 C 0 km/h
2879 10-05-2006 00:09:03 13.3 C 9.82 g/m*3 13.3 C 0 km/h
2880 10-05-2006 00:19:04 13.3 C 9.94 g/m*3 13.3 C 0 km/h
2881 10-05-2006 00:29:04 13.1 C 9.7 g/m*3 13.1 C 0 km/h
2882 10-05-2006 00:39:04 12.9 C 9.69 g/m*3 12.9 C 0 km/h
2883 10-05-2006 00:49:04 12.7 C 9.57 g/m*3 12.7 C 0 km/h
2884 10-05-2006 00:59:04 12.8 C 9.63 g/m*3 12.8 C 0 km/h
2885 10-05-2006 01:09:04 12.9 C 9.69 g/m*3 12.9 C 0 km/h
2886 10-05-2006 01:19:04 12.9 C 9.69 g/m*3 12.9 C 0 km/h
2887 10-05-2006 01:29:04 12.8 C 9.63 g/m*3 12.8 C 0 km/h
2888 10-05-2006 01:39:04 12.5 C 9.46 g/m*3 12.5 C 0 km/h
2889 10-05-2006 01:49:04 12.5 C 9.46 g/m*3 12.5 C 0 km/h
2890 10-05-2006 01:59:04 12.6 C 9.51 g/m*3 12.6 C 0 km/h
2891 10-05-2006 02:09:04 12.5 C 9.46 g/m*3 12.5 C 0 km/h
2892 10-05-2006 02:19:04 12.5 C 9.57 g/m*3 12.5 C 0 km/h
2893 10-05-2006 02:29:04 12.4 C 9.51 g/m*3 12.4 C 0 km/h
2894 10-05-2006 02:39:04 12.4 C 9.51 g/m*3 12.4 C 0 km/h
2895 10-05-2006 02:49:04 12.4 C 9.4 g/m*3 12.4 C 0 km/h
2896 10-05-2006 02:59:05 12.5 C 9.46 g/m*3 12.5 C 0 km/h
2897 10-05-2006 03:09:05 12.2 C 9.28 g/m*3 12.2 C 0 km/h
2898 10-05-2006 03:19:05 12.2 C 9.28 g/m*3 12.2 C 0 km/h
2899 10-05-2006 03:29:05 12.2 C 9.28 g/m*3 12.2 C 0 km/h
2900 10-05-2006 03:39:05 12.1 C 9.22 g/m*3 12.1 C 0 km/h
Sensor: Nr:Datum:Temp:Abs-Feuchte:Windchill:Wind:
Aussen-T/F 2901 10-05-2006 03:49:05 12 C 9.17 g/m*3 12 C 0 km/h
2902 10-05-2006 03:59:05 11.9 C 9.21 g/m*3 11.9 C 0 km/h
2903 10-05-2006 04:09:05 11.8 C 9.16 g/m*3 11.8 C 0 km/h
2904 10-05-2006 04:19:05 11.6 C 9.04 g/m*3 11.6 C 0 km/h
2905 10-05-2006 04:29:05 11.4 C 8.93 g/m*3 11.4 C 0 km/h
2906 10-05-2006 04:39:05 11.2 C 8.72 g/m*3 11.2 C 0 km/h
2907 10-05-2006 04:49:05 11.1 C 8.66 g/m*3 11.1 C 0 km/h
2908 10-05-2006 04:59:05 11 C 8.71 g/m*3 11 C 0 km/h
2909 10-05-2006 05:09:05 11 C 8.71 g/m*3 11 C 0 km/h
2910 10-05-2006 05:19:05 11.1 C 8.76 g/m*3 11.1 C 0 km/h
2911 10-05-2006 05:29:05 11.1 C 8.76 g/m*3 11.1 C 0 km/h
2912 10-05-2006 05:39:06 11.2 C 8.82 g/m*3 11.2 C 0 km/h
2913 10-05-2006 05:49:06 11.3 C 8.87 g/m*3 11.3 C 0 km/h
2914 10-05-2006 05:59:06 11.3 C 8.77 g/m*3 11.3 C 0 km/h
2915 10-05-2006 06:09:06 11.3 C 8.67 g/m*3 11.3 C 0 km/h
2916 10-05-2006 06:19:06 11.5 C 8.78 g/m*3 11.5 C 0 km/h
2917 10-05-2006 06:29:06 11.6 C 8.83 g/m*3 11.6 C 0 km/h
2918 10-05-2006 06:39:06 11.8 C 8.84 g/m*3 11.8 C 0 km/h
2919 10-05-2006 06:49:06 11.9 C 8.79 g/m*3 11.9 C 0 km/h
2920 10-05-2006 06:59:06 11.9 C 8.79 g/m*3 11.9 C 0 km/h
2921 10-05-2006 07:09:06 12.1 C 8.79 g/m*3 12.1 C 0 km/h
2922 10-05-2006 07:19:02 12.3 C 8.8 g/m*3 12.3 C 0 km/h
2923 10-05-2006 07:29:02 12.7 C 8.91 g/m*3 12.7 C 0 km/h
2924 10-05-2006 07:39:02 12.5 C 8.8 g/m*3 12.5 C 0 km/h
2925 10-05-2006 07:49:02 12.7 C 8.79 g/m*3 12.7 C 0 km/h
Sensor: Nr:Datum:Temp:Abs-Feuchte:Windchill:Wind:
Aussen-T/F 2926 10-05-2006 07:59:02 12.8 C 8.85 g/m*3 12.8 C 0 km/h
2927 10-05-2006 08:09:03 13 C 8.85 g/m*3 13 C 0 km/h
2928 10-05-2006 08:19:03 13.4 C 8.83 g/m*3 13.4 C 0 km/h
2929 10-05-2006 08:29:03 13.2 C 8.73 g/m*3 13.2 C 0 km/h
2930 10-05-2006 08:39:02 13.5 C 8.89 g/m*3 13.5 C 0 km/h
2931 10-05-2006 08:49:02 13.9 C 8.87 g/m*3 13.9 C 0 km/h
2932 10-05-2006 08:59:02 14.3 C 8.85 g/m*3 14.3 C 0 km/h
2933 10-05-2006 09:09:02 14.5 C 8.71 g/m*3 14.5 C 0 km/h
2934 10-05-2006 09:19:02 14.8 C 8.87 g/m*3 14.8 C 0 km/h
2935 10-05-2006 09:29:02 14.7 C 8.69 g/m*3 14.7 C 0 km/h
2936 10-05-2006 09:39:01 14.7 C 8.69 g/m*3 14.7 C 0 km/h
2937 10-05-2006 09:49:02 15 C 8.72 g/m*3 15 C 0 km/h
2938 10-05-2006 09:59:02 15 C 8.59 g/m*3 15 C 0 km/h
2939 10-05-2006 10:09:02 15.5 C 8.99 g/m*3 15.5 C 0 km/h
2940 10-05-2006 10:19:01 15.9 C 9.07 g/m*3 15.9 C 0 km/h
2941 10-05-2006 10:29:01 16.2 C 8.96 g/m*3 16.2 C 0 km/h
2942 10-05-2006 10:39:01 16.6 C 9.04 g/m*3 16.6 C 0 km/h
2943 10-05-2006 10:49:02 17 C 8.83 g/m*3 17 C 0 km/h
2944 10-05-2006 10:59:02 17.3 C 8.54 g/m*3 17.3 C 0 km/h
2945 10-05-2006 11:09:01 17.5 C 8.65 g/m*3 17.5 C 0 km/h
2946 10-05-2006 11:19:01 17.7 C 8.45 g/m*3 17.7 C 0 km/h
2947 10-05-2006 11:29:01 17.8 C 8.35 g/m*3 17.8 C 0 km/h
2948 10-05-2006 11:39:01 18.4 C 8.18 g/m*3 18.4 C 0 km/h
2949 10-05-2006 11:49:02 18.7 C 8.17 g/m*3 18.7 C 0 km/h
2950 10-05-2006 11:59:02 19.1 C 7.87 g/m*3 19.1 C 0 km/h
Sensor: Nr:Datum:Temp:Abs-Feuchte:Windchill:Wind:
Aussen-T/F 2951 10-05-2006 12:09:02 19.4 C 7.84 g/m*3 19.4 C 0 km/h
2952 10-05-2006 12:19:01 20.4 C 7.78 g/m*3 20.4 C 0 km/h
2953 10-05-2006 12:29:01 21.1 C 7.55 g/m*3 21.1 C 0 km/h
2954 10-05-2006 12:39:01 21.3 C 7.27 g/m*3 21.3 C 0 km/h
2955 10-05-2006 12:49:02 22 C 6.79 g/m*3 22 C 0 km/h
2956 10-05-2006 12:59:03 22.4 C 6.55 g/m*3 22.4 C 0 km/h
2957 10-05-2006 13:09:01 23.3 C 6.48 g/m*3 23.3 C 0 km/h
2958 10-05-2006 13:19:01 23.9 C 6.06 g/m*3 23.9 C 0 km/h
2959 10-05-2006 13:29:01 24.1 C 5.47 g/m*3 24.1 C 0 km/h
2960 10-05-2006 13:39:02 24.5 C 5.37 g/m*3 24.5 C 0 km/h
2961 10-05-2006 13:49:02 24.5 C 4.7 g/m*3 24.5 C 0 km/h
2962 10-05-2006 13:59:03 24.5 C 4.7 g/m*3 24.5 C 0 km/h
2963 10-05-2006 14:09:01 24.4 C 4.67 g/m*3 24.4 C 0 km/h
2964 10-05-2006 14:19:01 24.7 C 4.75 g/m*3 24.7 C 0 km/h
2965 10-05-2006 14:29:01 24.6 C 4.5 g/m*3 24.6 C 0 km/h
2966 10-05-2006 14:39:02 25.3 C 4.92 g/m*3 25.3 C 0 km/h
2967 10-05-2006 14:49:02 26.1 C 4.9 g/m*3 26.1 C 0 km/h
2968 10-05-2006 14:59:02 26.7 C 5.32 g/m*3 26.7 C 0 km/h
2969 10-05-2006 15:09:02 26.8 C 5.09 g/m*3 26.8 C 0 km/h
2970 10-05-2006 15:19:02 26.9 C 5.12 g/m*3 26.9 C 0 km/h
2971 10-05-2006 15:29:02 27.3 C 5.23 g/m*3 27.3 C 0 km/h
2972 10-05-2006 15:39:03 28 C 5.44 g/m*3 28 C 0 km/h
2973 10-05-2006 15:49:02 28.1 C 5.47 g/m*3 28.1 C 0 km/h
2974 10-05-2006 15:59:02 28.5 C 5.59 g/m*3 28.5 C 0 km/h
2975 10-05-2006 16:09:02 28.7 C 5.65 g/m*3 28.7 C 0 km/h
Sensor: Nr:Datum:Temp:Abs-Feuchte:Windchill:Wind:
Aussen-T/F 2976 10-05-2006 16:19:02 28.7 C 5.65 g/m*3 28.7 C 0 km/h
2977 10-05-2006 16:29:02 28.8 C 5.68 g/m*3 28.8 C 0 km/h
2978 10-05-2006 16:39:03 28.8 C 5.68 g/m*3 28.8 C 0 km/h
2979 10-05-2006 16:49:02 29.2 C 5.81 g/m*3 29.2 C 0 km/h
2980 10-05-2006 16:59:03 29.5 C 5.9 g/m*3 29.5 C 0 km/h
2981 10-05-2006 17:09:02 29.8 C 6 g/m*3 29.8 C 0 km/h
2982 10-05-2006 17:19:02 29.6 C 5.94 g/m*3 29.6 C 0 km/h
2983 10-05-2006 17:29:02 29.8 C 6 g/m*3 29.8 C 0 km/h
2984 10-05-2006 17:39:03 30.1 C 6.1 g/m*3 30.1 C 0 km/h
2985 10-05-2006 17:49:02 30.1 C 6.1 g/m*3 30.1 C 0 km/h
2986 10-05-2006 17:59:02 30.1 C 6.1 g/m*3 30.1 C 0 km/h
2987 10-05-2006 18:09:02 30.1 C 6.1 g/m*3 30.1 C 0 km/h
2988 10-05-2006 18:19:02 30 C 6.06 g/m*3 30 C 0 km/h
2989 10-05-2006 18:29:02 30.1 C 6.1 g/m*3 30.1 C 0 km/h
2990 10-05-2006 18:39:02 30.4 C 6.2 g/m*3 30.4 C 0 km/h
2991 10-05-2006 18:49:02 30.2 C 6.13 g/m*3 30.2 C 0 km/h
2992 10-05-2006 18:59:02 29.4 C 5.87 g/m*3 29.4 C 0 km/h
2993 10-05-2006 19:09:02 29 C 5.74 g/m*3 29 C 0 km/h
2994 10-05-2006 19:19:01 29.2 C 5.81 g/m*3 29.2 C 0 km/h
2995 10-05-2006 19:29:01 28.7 C 5.65 g/m*3 28.7 C 0 km/h
2996 10-05-2006 19:39:02 28.5 C 5.59 g/m*3 28.5 C 0 km/h
2997 10-05-2006 19:49:02 27.5 C 5.29 g/m*3 27.5 C 0 km/h
2998 10-05-2006 19:59:02 26.9 C 5.12 g/m*3 26.9 C 0 km/h
2999 10-05-2006 20:09:01 26.1 C 4.9 g/m*3 26.1 C 0 km/h
3000 10-05-2006 20:19:02 25.3 C 4.68 g/m*3 25.3 C 0 km/h
Sensor: Nr:Datum:Temp:Abs-Feuchte:Windchill:Wind:
Aussen-T/F 3001 10-05-2006 20:29:02 24.5 C 4.48 g/m*3 24.5 C 0 km/h
3002 10-05-2006 20:39:02 23.5 C 4.65 g/m*3 23.5 C 0 km/h
3003 10-05-2006 20:49:03 22.3 C 4.54 g/m*3 22.3 C 0 km/h
3004 10-05-2006 20:59:03 21.2 C 4.82 g/m*3 21.2 C 0 km/h
3005 10-05-2006 21:09:03 20.6 C 5.01 g/m*3 20.6 C 0 km/h
3006 10-05-2006 21:19:02 20.2 C 4.9 g/m*3 20.2 C 0 km/h
3007 10-05-2006 21:29:03 19.7 C 5.09 g/m*3 19.7 C 0 km/h
3008 10-05-2006 21:39:02 19.3 C 5.14 g/m*3 19.3 C 0 km/h
3009 10-05-2006 21:49:02 19 C 5.05 g/m*3 19 C 0 km/h
3010 10-05-2006 21:59:03 18.8 C 5.15 g/m*3 18.8 C 0 km/h
3011 10-05-2006 22:09:01 18.3 C 5 g/m*3 18.3 C 0 km/h
3012 10-05-2006 22:19:01 18.1 C 5.1 g/m*3 18.1 C 0 km/h
3013 10-05-2006 22:29:01 17.8 C 5.16 g/m*3 17.8 C 0 km/h
3014 10-05-2006 22:39:02 17.6 C 5.25 g/m*3 17.6 C 0 km/h
3015 10-05-2006 22:49:02 17.2 C 5.42 g/m*3 17.2 C 0 km/h
3016 10-05-2006 22:59:02 16.6 C 5.65 g/m*3 16.6 C 0 km/h
3017 10-05-2006 23:09:02 16.5 C 5.76 g/m*3 16.5 C 0 km/h
3018 10-05-2006 23:19:01 16 C 5.59 g/m*3 16 C 0 km/h
3019 10-05-2006 23:29:01 15.8 C 5.79 g/m*3 15.8 C 0 km/h
3020 10-05-2006 23:39:02 15.6 C 5.85 g/m*3 15.6 C 0 km/h
3021 10-05-2006 23:49:02 15.2 C 5.84 g/m*3 15.2 C 0 km/h
3022 10-05-2006 23:59:03 15.1 C 5.68 g/m*3 15.1 C 0 km/h
3023 11-05-2006 00:09:02 14.8 C 5.83 g/m*3 14.8 C 0 km/h
3024 11-05-2006 00:19:02 14.4 C 5.69 g/m*3 14.4 C 0 km/h
3025 11-05-2006 00:29:03 14.5 C 5.72 g/m*3 14.5 C 0 km/h
Sensor: Nr:Datum:Temp:Abs-Feuchte:Windchill:Wind:
Aussen-T/F 3026 11-05-2006 00:39:02 13.9 C 5.87 g/m*3 13.9 C 0 km/h
3027 11-05-2006 00:49:02 13.4 C 5.81 g/m*3 13.4 C 0 km/h
3028 11-05-2006 00:59:02 13.4 C 5.93 g/m*3 13.4 C 0 km/h
3029 11-05-2006 01:09:02 13.3 C 5.89 g/m*3 13.3 C 0 km/h
3030 11-05-2006 01:19:02 13.4 C 6.16 g/m*3 13.4 C 0 km/h
3031 11-05-2006 01:29:03 13.2 C 6.09 g/m*3 13.2 C 0 km/h
3032 11-05-2006 01:39:02 13 C 6.12 g/m*3 13 C 0 km/h
3033 11-05-2006 01:49:02 12.9 C 6.31 g/m*3 12.9 C 0 km/h
3034 11-05-2006 01:59:02 12.4 C 6.23 g/m*3 12.4 C 0 km/h
3035 11-05-2006 02:09:02 12.4 C 6.34 g/m*3 12.4 C 0 km/h
3036 11-05-2006 02:19:02 12.1 C 6.33 g/m*3 12.1 C 0 km/h
3037 11-05-2006 02:29:02 11.8 C 6.42 g/m*3 11.8 C 0 km/h
3038 11-05-2006 02:39:02 11.6 C 6.44 g/m*3 11.6 C 0 km/h
3039 11-05-2006 02:50:04 11.2 C 6.49 g/m*3 11.2 C 0 km/h
3040 11-05-2006 03:00:04 11.1 C 6.55 g/m*3 11.1 C 0 km/h
3041 11-05-2006 03:10:03 10.8 C 6.62 g/m*3 10.8 C 0 km/h
3042 11-05-2006 03:20:03 10.6 C 6.54 g/m*3 10.6 C 0 km/h
3043 11-05-2006 03:30:03 10.7 C 6.58 g/m*3 10.7 C 0 km/h
3044 11-05-2006 03:40:02 10.7 C 6.48 g/m*3 10.7 C 0 km/h
3045 11-05-2006 03:50:02 10.5 C 6.4 g/m*3 10.5 C 0 km/h
3046 11-05-2006 04:00:02 10.4 C 6.46 g/m*3 10.4 C 0 km/h
3047 11-05-2006 04:10:02 10.3 C 6.42 g/m*3 10.3 C 0 km/h
3048 11-05-2006 04:20:02 10.1 C 6.43 g/m*3 10.1 C 0 km/h
3049 11-05-2006 04:30:02 10.1 C 6.52 g/m*3 10.1 C 0 km/h
3050 11-05-2006 04:40:02 9.9 C 6.44 g/m*3 9.9 C 0 km/h
Sensor: Nr:Datum:Temp:Abs-Feuchte:Windchill:Wind:
Aussen-T/F 3051 11-05-2006 04:50:02 9.8 C 6.49 g/m*3 9.8 C 0 km/h
3052 11-05-2006 05:00:02 9.6 C 6.41 g/m*3 9.6 C 0 km/h
3053 11-05-2006 05:10:02 9.5 C 6.46 g/m*3 9.5 C 0 km/h
3054 11-05-2006 05:20:02 9.3 C 6.47 g/m*3 9.3 C 0 km/h
3055 11-05-2006 05:30:02 9.2 C 6.43 g/m*3 9.2 C 0 km/h
3056 11-05-2006 05:40:02 9.1 C 6.39 g/m*3 9.1 C 0 km/h
3057 11-05-2006 05:50:02 9 C 6.44 g/m*3 9 C 0 km/h
3058 11-05-2006 06:00:03 8.9 C 6.57 g/m*3 8.9 C 0 km/h
3059 11-05-2006 06:10:02 8.9 C 6.66 g/m*3 8.9 C 0 km/h
3060 11-05-2006 06:20:02 8.7 C 6.57 g/m*3 8.7 C 0 km/h
3061 11-05-2006 06:30:02 8.5 C 6.57 g/m*3 8.5 C 0 km/h
3062 11-05-2006 06:40:02 8.7 C 6.75 g/m*3 8.7 C 0 km/h
3063 11-05-2006 06:50:02 8.7 C 6.66 g/m*3 8.7 C 0 km/h
3064 11-05-2006 07:00:02 8.6 C 6.62 g/m*3 8.6 C 0 km/h
3065 11-05-2006 07:10:02 8.7 C 6.66 g/m*3 8.7 C 0 km/h
3066 11-05-2006 07:20:02 8.7 C 6.75 g/m*3 8.7 C 0 km/h
3067 11-05-2006 07:30:03 8.9 C 6.66 g/m*3 8.9 C 0 km/h
3068 11-05-2006 07:40:02 9.1 C 6.57 g/m*3 9.1 C 0 km/h
3069 11-05-2006 07:50:02 9.2 C 6.61 g/m*3 9.2 C 0 km/h
3070 11-05-2006 08:00:02 9.4 C 6.69 g/m*3 9.4 C 0 km/h
3071 11-05-2006 08:10:02 9.8 C 6.87 g/m*3 9.8 C 0 km/h
3072 11-05-2006 08:20:02 10 C 6.77 g/m*3 10 C 0 km/h
3073 11-05-2006 08:30:02 10.3 C 6.7 g/m*3 10.3 C 0 km/h
3074 11-05-2006 08:40:02 10.7 C 6.78 g/m*3 10.7 C 0 km/h
3075 11-05-2006 08:50:02 11.1 C 6.65 g/m*3 11.1 C 0 km/h
Sensor: Nr:Datum:Temp:Abs-Feuchte:Windchill:Wind:
Aussen-T/F 3076 11-05-2006 09:00:02 11.6 C 6.65 g/m*3 11.6 C 0 km/h
3077 11-05-2006 09:10:02 12 C 6.61 g/m*3 12 C 0 km/h
3078 11-05-2006 09:20:02 12.7 C 7.01 g/m*3 12.7 C 0 km/h
3079 11-05-2006 09:30:02 13.2 C 6.89 g/m*3 13.2 C 0 km/h
3080 11-05-2006 09:40:03 13.6 C 6.94 g/m*3 13.6 C 0 km/h
3081 11-05-2006 09:50:02 14.1 C 7.04 g/m*3 14.1 C 0 km/h
3082 11-05-2006 10:00:02 14.9 C 7.39 g/m*3 14.9 C 0 km/h
3083 11-05-2006 10:10:02 15.5 C 7.14 g/m*3 15.5 C 0 km/h
3084 11-05-2006 10:20:02 16.3 C 7.35 g/m*3 16.3 C 0 km/h
3085 11-05-2006 10:30:02 17.1 C 7.28 g/m*3 17.1 C 0 km/h
3086 11-05-2006 10:40:03 17.6 C 7.2 g/m*3 17.6 C 0 km/h
3087 11-05-2006 10:50:02 18.3 C 6.88 g/m*3 18.3 C 0 km/h
3088 11-05-2006 11:00:03 19 C 6.84 g/m*3 19 C 0 km/h
3089 11-05-2006 11:10:02 19.7 C 6.79 g/m*3 19.7 C 0 km/h
3090 11-05-2006 11:20:02 20.1 C 6.61 g/m*3 20.1 C 0 km/h
3091 11-05-2006 11:30:02 20.7 C 7.02 g/m*3 20.7 C 0 km/h
3092 11-05-2006 11:40:02 21.2 C 6.67 g/m*3 21.2 C 0 km/h
3093 11-05-2006 11:50:02 21.8 C 6.52 g/m*3 21.8 C 0 km/h
3094 11-05-2006 12:00:03 22.3 C 5.33 g/m*3 22.3 C 0 km/h
3095 11-05-2006 12:10:02 22.6 C 5.22 g/m*3 22.6 C 0 km/h
3096 11-05-2006 12:20:02 23.4 C 5.26 g/m*3 23.4 C 0 km/h
3097 11-05-2006 12:30:02 23.1 C 4.34 g/m*3 23.1 C 0 km/h
3098 11-05-2006 12:40:02 23.1 C 4.34 g/m*3 23.1 C 0 km/h
3099 11-05-2006 12:50:02 23.7 C 4.28 g/m*3 23.7 C 0 km/h
3100 11-05-2006 13:00:03 24.9 C 4.58 g/m*3 24.9 C 0 km/h
Sensor: Nr:Datum:Temp:Abs-Feuchte:Windchill:Wind:
Aussen-T/F 3101 11-05-2006 13:10:02 25.4 C 4.71 g/m*3 25.4 C 0 km/h
3102 11-05-2006 13:20:01 25.6 C 4.76 g/m*3 25.6 C 0 km/h
3103 11-05-2006 13:30:01 25.9 C 4.84 g/m*3 25.9 C 0 km/h
3104 11-05-2006 13:40:02 25.4 C 4.71 g/m*3 25.4 C 0 km/h
3105 11-05-2006 13:50:01 25.4 C 4.71 g/m*3 25.4 C 0 km/h
3106 11-05-2006 14:00:01 25.7 C 4.79 g/m*3 25.7 C 0 km/h
3107 11-05-2006 14:10:01 26.1 C 4.9 g/m*3 26.1 C 0 km/h
3108 11-05-2006 14:20:02 26.8 C 5.09 g/m*3 26.8 C 0 km/h
3109 11-05-2006 14:30:02 27.6 C 5.32 g/m*3 27.6 C 0 km/h
3110 11-05-2006 14:40:02 28.1 C 5.47 g/m*3 28.1 C 0 km/h
3111 11-05-2006 14:50:02 28.7 C 5.65 g/m*3 28.7 C 0 km/h
3112 11-05-2006 15:00:03 29.1 C 5.78 g/m*3 29.1 C 0 km/h
3113 11-05-2006 15:10:02 29.3 C 5.84 g/m*3 29.3 C 0 km/h
3114 11-05-2006 15:20:02 29.7 C 5.97 g/m*3 29.7 C 0 km/h
3115 11-05-2006 15:30:02 29.6 C 5.94 g/m*3 29.6 C 0 km/h
3116 11-05-2006 15:40:03 30 C 6.06 g/m*3 30 C 0 km/h
3117 11-05-2006 15:50:02 30.4 C 6.2 g/m*3 30.4 C 0 km/h
3118 11-05-2006 16:00:02 30.8 C 6.33 g/m*3 30.8 C 0 km/h
3119 11-05-2006 16:10:02 30.3 C 6.16 g/m*3 30.3 C 0 km/h
3120 11-05-2006 16:20:02 30.7 C 6.3 g/m*3 30.7 C 0 km/h
3121 11-05-2006 16:30:02 30.7 C 6.3 g/m*3 30.7 C 0 km/h
3122 11-05-2006 16:40:02 30.9 C 6.37 g/m*3 30.9 C 0 km/h
3123 11-05-2006 16:50:02 31.3 C 6.5 g/m*3 31.3 C 0 km/h
3124 11-05-2006 17:00:02 31.2 C 6.47 g/m*3 31.2 C 0 km/h
3125 11-05-2006 17:10:02 31.2 C 6.47 g/m*3 31.2 C 0 km/h
Sensor: Nr:Datum:Temp:Abs-Feuchte:Windchill:Wind:
Aussen-T/F 3126 11-05-2006 17:20:02 30.7 C 6.3 g/m*3 30.7 C 0 km/h
3127 11-05-2006 17:30:02 31 C 6.4 g/m*3 31 C 0 km/h
3128 11-05-2006 17:40:02 31.4 C 6.54 g/m*3 31.4 C 0 km/h
3129 11-05-2006 17:50:02 31.6 C 6.61 g/m*3 31.6 C 0 km/h
3130 11-05-2006 18:00:02 31.5 C 6.57 g/m*3 31.5 C 0 km/h
3131 11-05-2006 18:10:02 31.4 C 6.54 g/m*3 31.4 C 0 km/h
3132 11-05-2006 18:20:02 31.3 C 6.5 g/m*3 31.3 C 0 km/h
3133 11-05-2006 18:30:02 31.3 C 6.5 g/m*3 31.3 C 0 km/h
3134 11-05-2006 18:40:02 31.2 C 6.47 g/m*3 31.2 C 0 km/h
3135 11-05-2006 18:50:03 31.2 C 6.47 g/m*3 31.2 C 0 km/h
3136 11-05-2006 19:00:03 31 C 6.4 g/m*3 31 C 0 km/h
3137 11-05-2006 19:10:03 30.7 C 6.3 g/m*3 30.7 C 0 km/h
3138 11-05-2006 19:20:02 30.6 C 6.26 g/m*3 30.6 C 0 km/h
3139 11-05-2006 19:30:03 30.5 C 6.23 g/m*3 30.5 C 0 km/h
3140 11-05-2006 19:40:02 30.3 C 6.16 g/m*3 30.3 C 0 km/h
3141 11-05-2006 19:50:02 29.5 C 5.9 g/m*3 29.5 C 0 km/h
3142 11-05-2006 20:00:03 28.8 C 5.68 g/m*3 28.8 C 0 km/h
3143 11-05-2006 20:10:01 27.4 C 5.26 g/m*3 27.4 C 0 km/h
3144 11-05-2006 20:20:01 26.5 C 5.01 g/m*3 26.5 C 0 km/h
3145 11-05-2006 20:30:01 25.5 C 4.73 g/m*3 25.5 C 0 km/h
3146 11-05-2006 20:40:02 24.1 C 4.38 g/m*3 24.1 C 0 km/h
3147 11-05-2006 20:50:01 23.1 C 4.13 g/m*3 23.1 C 0 km/h
3148 11-05-2006 21:00:02 22 C 3.88 g/m*3 22 C 0 km/h
3149 11-05-2006 21:10:01 21 C 3.85 g/m*3 21 C 0 km/h
3150 11-05-2006 21:20:01 20.5 C 3.91 g/m*3 20.5 C 0 km/h
Sensor: Nr:Datum:Temp:Abs-Feuchte:Windchill:Wind:
Aussen-T/F 3151 11-05-2006 21:30:01 20.3 C 3.52 g/m*3 20.3 C 0 km/h
3152 11-05-2006 21:40:01 20 C 3.63 g/m*3 20 C 0 km/h
3153 11-05-2006 21:50:01 19.5 C 3.52 g/m*3 19.5 C 0 km/h
3154 11-05-2006 22:00:02 19.1 C 3.61 g/m*3 19.1 C 0 km/h
3155 11-05-2006 22:10:01 19.1 C 3.77 g/m*3 19.1 C 0 km/h
3156 11-05-2006 22:20:01 18.6 C 3.66 g/m*3 18.6 C 0 km/h
3157 11-05-2006 22:30:02 18.5 C 3.96 g/m*3 18.5 C 0 km/h
3158 11-05-2006 22:40:02 18.2 C 3.89 g/m*3 18.2 C 0 km/h
3159 11-05-2006 22:50:02 17.8 C 3.95 g/m*3 17.8 C 0 km/h
3160 11-05-2006 23:00:02 17.5 C 4.17 g/m*3 17.5 C 0 km/h
3161 11-05-2006 23:10:02 17.2 C 4.39 g/m*3 17.2 C 0 km/h
3162 11-05-2006 23:20:02 16.5 C 4.77 g/m*3 16.5 C 0 km/h
3163 11-05-2006 23:30:02 16.4 C 4.61 g/m*3 16.4 C 0 km/h
3164 11-05-2006 23:40:02 16 C 4.63 g/m*3 16 C 0 km/h
3165 11-05-2006 23:50:02 15.7 C 4.42 g/m*3 15.7 C 0 km/h
3166 12-05-2006 00:00:02 15.5 C 4.63 g/m*3 15.5 C 0 km/h
3167 12-05-2006 00:10:02 15.3 C 4.7 g/m*3 15.3 C 0 km/h
3168 12-05-2006 00:20:02 15.1 C 4.77 g/m*3 15.1 C 0 km/h
3169 12-05-2006 00:30:02 14.9 C 4.84 g/m*3 14.9 C 0 km/h
3170 12-05-2006 00:40:03 14.8 C 4.94 g/m*3 14.8 C 0 km/h
3171 12-05-2006 00:50:03 14.4 C 4.82 g/m*3 14.4 C 0 km/h
3172 12-05-2006 01:00:03 14.3 C 5.04 g/m*3 14.3 C 0 km/h
3173 12-05-2006 01:10:03 13.7 C 5.21 g/m*3 13.7 C 0 km/h
3174 12-05-2006 01:20:03 13.6 C 5.18 g/m*3 13.6 C 0 km/h
3175 12-05-2006 01:30:03 13.4 C 5 g/m*3 13.4 C 0 km/h
Sensor: Nr:Datum:Temp:Abs-Feuchte:Windchill:Wind:
Aussen-T/F 3176 12-05-2006 01:40:03 13.3 C 4.85 g/m*3 13.3 C 0 km/h
3177 12-05-2006 01:50:02 13 C 4.99 g/m*3 13 C 0 km/h
3178 12-05-2006 02:00:02 12.8 C 5.15 g/m*3 12.8 C 0 km/h
3179 12-05-2006 02:10:02 12.5 C 5.28 g/m*3 12.5 C 0 km/h
3180 12-05-2006 02:20:02 12.5 C 5.39 g/m*3 12.5 C 0 km/h
3181 12-05-2006 02:30:02 12.4 C 5.35 g/m*3 12.4 C 0 km/h
3182 12-05-2006 02:40:02 12.3 C 5.43 g/m*3 12.3 C 0 km/h
3183 12-05-2006 02:51:04 12 C 5.33 g/m*3 12 C 0 km/h
3184 12-05-2006 03:01:04 11.8 C 5.47 g/m*3 11.8 C 0 km/h
3185 12-05-2006 03:11:03 11.5 C 5.47 g/m*3 11.5 C 0 km/h
3186 12-05-2006 03:21:03 11.2 C 5.78 g/m*3 11.2 C 0 km/h
3187 12-05-2006 03:31:02 11 C 5.71 g/m*3 11 C 0 km/h
3188 12-05-2006 03:41:02 10.8 C 5.83 g/m*3 10.8 C 0 km/h
3189 12-05-2006 03:51:03 10.8 C 5.73 g/m*3 10.8 C 0 km/h
3190 12-05-2006 04:01:02 10.7 C 5.8 g/m*3 10.7 C 0 km/h
3191 12-05-2006 04:11:02 10.4 C 5.88 g/m*3 10.4 C 0 km/h
3192 12-05-2006 04:21:02 10.1 C 5.86 g/m*3 10.1 C 0 km/h
3193 12-05-2006 04:31:02 9.8 C 5.94 g/m*3 9.8 C 0 km/h
3194 12-05-2006 04:41:02 9.6 C 5.86 g/m*3 9.6 C 0 km/h
3195 12-05-2006 04:51:02 9.6 C 5.86 g/m*3 9.6 C 0 km/h
3196 12-05-2006 05:01:02 9.4 C 5.79 g/m*3 9.4 C 0 km/h
3197 12-05-2006 05:11:02 9.3 C 5.84 g/m*3 9.3 C 0 km/h
3198 12-05-2006 05:21:02 9.3 C 5.84 g/m*3 9.3 C 0 km/h
3199 12-05-2006 05:31:02 9.1 C 5.86 g/m*3 9.1 C 0 km/h
3200 12-05-2006 05:41:02 9 C 5.91 g/m*3 9 C 0 km/h
Sensor: Nr:Datum:Temp:Abs-Feuchte:Windchill:Wind:
Aussen-T/F 3201 12-05-2006 05:51:01 8.9 C 5.96 g/m*3 8.9 C 0 km/h
3202 12-05-2006 06:01:02 8.8 C 5.92 g/m*3 8.8 C 0 km/h
3203 12-05-2006 06:11:02 8.9 C 6.04 g/m*3 8.9 C 0 km/h
3204 12-05-2006 06:21:02 8.8 C 6.09 g/m*3 8.8 C 0 km/h
3205 12-05-2006 06:31:02 8.8 C 6.09 g/m*3 8.8 C 0 km/h
3206 12-05-2006 06:41:02 8.8 C 6.18 g/m*3 8.8 C 0 km/h
3207 12-05-2006 06:51:02 8.9 C 6.22 g/m*3 8.9 C 0 km/h
3208 12-05-2006 07:01:02 9 C 6.26 g/m*3 9 C 0 km/h
3209 12-05-2006 07:11:02 9.3 C 6.38 g/m*3 9.3 C 0 km/h
3210 12-05-2006 07:21:02 9.5 C 6.37 g/m*3 9.5 C 0 km/h
3211 12-05-2006 07:31:02 9.5 C 6.28 g/m*3 9.5 C 0 km/h
3212 12-05-2006 07:41:02 9.6 C 6.32 g/m*3 9.6 C 0 km/h
3213 12-05-2006 07:51:02 9.7 C 6.36 g/m*3 9.7 C 0 km/h
3214 12-05-2006 08:01:02 9.9 C 6.35 g/m*3 9.9 C 0 km/h
3215 12-05-2006 08:11:02 10.2 C 6.38 g/m*3 10.2 C 0 km/h
3216 12-05-2006 08:21:02 10.4 C 6.46 g/m*3 10.4 C 0 km/h
3217 12-05-2006 08:31:03 10.6 C 6.44 g/m*3 10.6 C 0 km/h
3218 12-05-2006 08:41:03 11 C 6.31 g/m*3 11 C 0 km/h
3219 12-05-2006 08:51:02 11.5 C 6.3 g/m*3 11.5 C 0 km/h
3220 12-05-2006 09:01:02 11.9 C 6.25 g/m*3 11.9 C 0 km/h
3221 12-05-2006 09:11:02 12.4 C 6.23 g/m*3 12.4 C 0 km/h
3222 12-05-2006 09:21:02 12.9 C 6.09 g/m*3 12.9 C 0 km/h
3223 12-05-2006 09:31:02 13.3 C 5.78 g/m*3 13.3 C 0 km/h
3224 12-05-2006 09:41:02 14.1 C 5.95 g/m*3 14.1 C 0 km/h
3225 12-05-2006 09:51:02 14.6 C 5.88 g/m*3 14.6 C 0 km/h
Sensor: Nr:Datum:Temp:Abs-Feuchte:Windchill:Wind:
Aussen-T/F 3226 12-05-2006 10:01:02 15.5 C 6.21 g/m*3 15.5 C 0 km/h
3227 12-05-2006 10:11:02 16.4 C 6.56 g/m*3 16.4 C 0 km/h
3228 12-05-2006 10:21:02 16.9 C 6.62 g/m*3 16.9 C 0 km/h
3229 12-05-2006 10:31:02 17.5 C 6.71 g/m*3 17.5 C 0 km/h
3230 12-05-2006 10:41:02 18.4 C 7.08 g/m*3 18.4 C 0 km/h
3231 12-05-2006 10:51:02 19.1 C 7.05 g/m*3 19.1 C 0 km/h
3232 12-05-2006 11:01:02 19.8 C 7 g/m*3 19.8 C 0 km/h
3233 12-05-2006 11:11:02 20.4 C 7.25 g/m*3 20.4 C 0 km/h
3234 12-05-2006 11:21:01 21.1 C 7.19 g/m*3 21.1 C 0 km/h
3235 12-05-2006 11:31:02 21.8 C 7.29 g/m*3 21.8 C 0 km/h
3236 12-05-2006 11:41:02